Provisional Data: Hammer Creek near Route 322


Please select a monitoring station.
Please select start date.
Please select start date.

Toggle Unit: C/F Toggle Unit: C/F
Sample Time Temperature (C) Temperature (F) Specific Conductivity (mS/cm) pH   Turbidity (NTU+) DO (mg/L)
5/4/2021 12:00:00 AM 13.9 57.02 0.392 7.89 67.72 8.96
5/4/2021 12:15:00 AM 13.82 56.876 0.397 7.89 67.75 8.96
5/4/2021 12:30:00 AM 13.77 56.786 0.41 7.87 60.91 8.95
5/4/2021 12:45:00 AM 13.73 56.714 0.395 7.88 65.04 8.94
5/4/2021 1:00:00 AM 13.69 56.642 0.371 7.86 69.85 8.93
5/4/2021 1:15:00 AM 13.65 56.57 0.356 7.83 100.88 8.87
5/4/2021 1:30:00 AM 13.63 56.534 0.344 7.81 94.22 8.79
5/4/2021 1:45:00 AM 13.63 56.534 0.332 7.78 95.22 8.74
5/4/2021 2:00:00 AM 13.6 56.48 0.33 7.77 102.3 8.7
5/4/2021 2:15:00 AM 13.55 56.39 0.335 7.76 99.46 8.66
5/4/2021 2:30:00 AM 13.48 56.264 0.346 7.77 88.7 8.7
5/4/2021 2:45:00 AM 13.41 56.138 0.358 7.78 70.43 8.78
5/4/2021 3:00:00 AM 13.36 56.048 0.364 7.8 62.86 8.84
5/4/2021 3:15:00 AM 13.33 55.994 0.362 7.8 58.44 8.85
5/4/2021 3:30:00 AM 13.33 55.994 0.353 7.79 65.97 8.85
5/4/2021 3:45:00 AM 13.33 55.994 0.343 7.78 55.75 8.85
5/4/2021 4:00:00 AM 13.33 55.994 0.335 7.78 49.88 8.86
5/4/2021 4:15:00 AM 13.31 55.958 0.328 7.77 47.26 8.88
5/4/2021 4:30:00 AM 13.29 55.922 0.319 7.77 44.49 8.91
5/4/2021 4:45:00 AM 13.27 55.886 0.31 7.76 46.51 8.93
5/4/2021 5:00:00 AM 13.25 55.85 0.301 7.74 44.66 8.95
5/4/2021 5:15:00 AM 13.22 55.796 0.295 7.74 42.53 8.97
5/4/2021 5:30:00 AM 13.2 55.76 0.292 7.74 37.72 8.98
5/4/2021 5:45:00 AM 13.18 55.724 0.292 7.73 36.37 9.01
5/4/2021 6:00:00 AM 13.15 55.67 0.293 7.73 41.26 9.01
5/4/2021 6:15:00 AM 13.13 55.634 0.296 7.75 33.74 9.01
5/4/2021 6:30:00 AM 13.11 55.598 0.301 7.75 33.9 9.03
5/4/2021 6:45:00 AM 13.09 55.562 0.305 7.75 30.44 9.05
5/4/2021 7:00:00 AM 13.08 55.544 0.31 7.77 28.4 9.09
5/4/2021 7:15:00 AM 13.06 55.508 0.316 7.78 27.67 9.13
5/4/2021 7:30:00 AM 13.05 55.49 0.322 7.78 23.92 9.19
5/4/2021 7:45:00 AM 13.05 55.49 0.327 7.79 23.15 9.26
5/4/2021 8:00:00 AM 13.05 55.49 0.332 7.81 22.46 9.32
5/4/2021 8:15:00 AM 13.06 55.508 0.337 7.83 21.09 9.39
5/4/2021 8:30:00 AM 13.1 55.58 0.343 7.84 18.87 9.54
5/4/2021 8:45:00 AM 13.14 55.652 0.347 7.86 17.96 9.68
5/4/2021 9:00:00 AM 13.2 55.76 0.352 7.89 16.78 9.83
5/4/2021 9:15:00 AM 13.29 55.922 0.357 7.91 16.58 9.98
5/4/2021 9:30:00 AM 13.38 56.084 0.36 7.93 15.11 10.17
5/4/2021 9:45:00 AM 13.51 56.318 0.365 7.97 13.22 10.35
5/4/2021 10:00:00 AM 13.6 56.48 0.368 8 13.04 10.48
5/4/2021 10:15:00 AM 13.72 56.696 0.372 8.02 12.01 10.63
5/4/2021 10:30:00 AM 13.91 57.038 0.375 8.06 11.6 10.77
5/4/2021 10:45:00 AM 14.04 57.272 0.45 8.08 10.97 10.82
5/4/2021 11:00:00 AM 14.37 57.866 0.392 8.11 10.94 10.98
5/4/2021 11:15:00 AM 14.61 58.298 0.389 8.14 9.48 11.1
5/4/2021 11:30:00 AM 14.82 58.676 0.391 8.17 10.69 11.19
5/4/2021 11:45:00 AM 15.02 59.036 0.393 8.18 11.25 11.24
5/4/2021 12:00:00 PM 15.1 59.18 0.395 8.2 9.8 11.23
5/4/2021 12:15:00 PM 15.21 59.378 0.397 8.22 10.36 11.21
5/4/2021 12:30:00 PM 15.35 59.63 0.399 8.23 11.36 11.2
5/4/2021 12:45:00 PM 15.67 60.206 0.401 8.25 9.13 11.27
5/4/2021 1:00:00 PM 15.96 60.728 0.402 8.28 8.86 11.3
5/4/2021 1:15:00 PM 16.15 61.07 0.404 8.3 8.88 11.3
5/4/2021 1:30:00 PM 16.49 61.682 0.405 8.32 9.81 11.31
5/4/2021 1:45:00 PM 16.78 62.204 0.406 8.34 10.34 11.35
5/4/2021 2:00:00 PM 17.09 62.762 0.407 8.36 9.89 11.37
5/4/2021 2:15:00 PM 17.38 63.284 0.408 8.37 10.49 11.25
5/4/2021 2:30:00 PM 17.59 63.662 0.41 8.37 9.31 11.1
5/4/2021 2:45:00 PM 17.84 64.112 0.412 8.37 8.24 11.02
5/4/2021 3:00:00 PM 18.15 64.67 0.413 8.39 9.44 11.07
5/4/2021 3:15:00 PM 18.46 65.228 0.414 8.38 8.34 11.03
5/4/2021 3:30:00 PM 18.72 65.696 0.414 8.38 8.45 10.94
5/4/2021 3:45:00 PM 18.78 65.804 0.415 8.36 8.5 10.73
5/4/2021 4:00:00 PM 18.96 66.128 0.417 8.38 8.17 10.72
5/4/2021 4:15:00 PM 19.21 66.578 0.418 8.39 8.39 10.73
5/4/2021 4:30:00 PM 19.28 66.704 0.419 8.38 8.26 10.54
5/4/2021 4:45:00 PM 19.34 66.812 0.419 8.35 8.5 10.36
5/4/2021 5:00:00 PM 19.46 67.028 0.42 8.34 8.09 10.27
5/4/2021 5:15:00 PM 19.57 67.226 0.421 8.35 8.52 10.1
5/4/2021 5:30:00 PM 19.63 67.334 0.423 8.31 8.06 9.91
5/4/2021 5:45:00 PM 19.67 67.406 0.424 8.3 9.19 9.73
5/4/2021 6:00:00 PM 19.7 67.46 0.425 8.28 8.48 9.52
5/4/2021 6:15:00 PM 19.68 67.424 0.426 8.26 9.15 9.36
5/4/2021 6:30:00 PM 19.61 67.298 0.427 8.21 9.95 9.16
5/4/2021 6:45:00 PM 19.52 67.136 0.428 8.19 8.55 9.05
5/4/2021 7:00:00 PM 19.42 66.956 0.429 8.18 8.58 8.93
5/4/2021 7:15:00 PM 19.33 66.794 0.429 8.16 7.73 8.82
5/4/2021 7:30:00 PM 19.24 66.632 0.43 8.14 10.47 8.69
5/4/2021 7:45:00 PM 19.14 66.452 0.431 8.11 9.06 8.56
5/4/2021 8:00:00 PM 19.04 66.272 0.432 8.08 10.08 8.47
5/4/2021 8:15:00 PM 18.95 66.11 0.432 8.07 9.39 8.38
5/4/2021 8:30:00 PM 18.87 65.966 0.433 8.05 9.77 8.31
5/4/2021 8:45:00 PM 18.8 65.84 0.434 8.05 9.85 8.25
5/4/2021 9:00:00 PM 18.73 65.714 0.434 8.01 10.6 8.15
5/4/2021 9:15:00 PM 18.64 65.552 0.435 8 10.56 8.12
5/4/2021 9:30:00 PM 18.55 65.39 0.435 7.99 9.87 8.13
5/4/2021 9:45:00 PM 18.44 65.192 0.436 7.99 10.7 8.13
5/4/2021 10:00:00 PM 18.32 64.976 0.436 7.98 9.84 8.14
5/4/2021 10:15:00 PM 18.19 64.742 0.437 7.99 12.11 8.15
5/4/2021 10:30:00 PM 18.06 64.508 0.438 7.99 10.58 8.15
5/4/2021 10:45:00 PM 17.92 64.256 0.438 7.98 9.83 8.17
5/4/2021 11:00:00 PM 17.76 63.968 0.439 7.97 10.19 8.19
5/4/2021 11:15:00 PM 17.59 63.662 0.439 7.97 11.38 8.23
5/4/2021 11:30:00 PM 17.42 63.356 0.44 7.97 10.59 8.26
5/4/2021 11:45:00 PM 17.25 63.05 0.44 7.97 10.15 8.28
5/5/2021 12:00:00 AM 17.09 62.762 0.44 7.96 10.69 8.32
5/5/2021 12:15:00 AM 16.94 62.492 0.441 7.96 11.32 8.35
5/5/2021 12:30:00 AM 16.79 62.222 0.442 7.96 11.36 8.37
5/5/2021 12:45:00 AM 16.65 61.97 0.442 7.95 11.26 8.39
5/5/2021 1:00:00 AM 16.51 61.718 0.443 7.95 10.68 8.42
5/5/2021 1:15:00 AM 16.38 61.484 0.443 7.95 11.17 8.47
5/5/2021 1:30:00 AM 16.27 61.286 0.443 7.95 10.37 8.5
5/5/2021 1:45:00 AM 16.16 61.088 0.444 7.95 10.92 8.52
5/5/2021 2:00:00 AM 16.04 60.872 0.444 7.94 9.76 8.54
5/5/2021 2:15:00 AM 15.93 60.674 0.444 7.94 10.92 8.58
5/5/2021 2:30:00 AM 15.82 60.476 0.444 7.95 10.76 8.6
5/5/2021 2:45:00 AM 15.73 60.314 0.445 7.94 9.08 8.63
5/5/2021 3:00:00 AM 15.63 60.134 0.444 7.93 9.06 8.65
5/5/2021 3:15:00 AM 15.53 59.954 0.445 7.92 10.72 8.68
5/5/2021 3:30:00 AM 15.43 59.774 0.445 7.94 10.16 8.7
5/5/2021 3:45:00 AM 15.35 59.63 0.445 7.94 8.71 8.73
5/5/2021 4:00:00 AM 15.25 59.45 0.445 7.93 11.21 8.76
5/5/2021 4:15:00 AM 15.16 59.288 0.446 7.93 11.13 8.79
5/5/2021 4:30:00 AM 15.07 59.126 0.446 7.93 10.36 8.82
5/5/2021 4:45:00 AM 14.99 58.982 0.446 7.94 9.52 8.85
5/5/2021 5:00:00 AM 14.91 58.838 0.446 7.94 10.7 8.87
5/5/2021 5:15:00 AM 14.83 58.694 0.447 7.93 8.28 8.89
5/5/2021 5:30:00 AM 14.76 58.568 0.446 7.92 9.65 8.91
5/5/2021 5:45:00 AM 14.69 58.442 0.447 7.94 9.99 8.93
5/5/2021 6:00:00 AM 14.62 58.316 0.447 7.93 11.09 8.96
5/5/2021 6:15:00 AM 14.56 58.208 0.447 7.92 8.86 8.98
5/5/2021 6:30:00 AM 14.49 58.082 0.447 7.92 11.05 9.02
5/5/2021 6:45:00 AM 14.44 57.992 0.447 7.93 10.56 9.09
5/5/2021 7:00:00 AM 14.39 57.902 0.447 7.94 10.07 9.12
5/5/2021 7:15:00 AM 14.34 57.812 0.447 7.93 9.41 9.13
5/5/2021 7:30:00 AM 14.3 57.74 0.447 7.93 9.28 9.18
5/5/2021 7:45:00 AM 14.26 57.668 0.446 7.93 10.29 9.23
5/5/2021 8:00:00 AM 14.23 57.614 0.446 7.95 8.21 9.3
5/5/2021 8:15:00 AM 14.19 57.542 0.445 7.95 8.09 9.32
5/5/2021 8:30:00 AM 14.17 57.506 0.445 7.94 7.53 9.39
5/5/2021 8:45:00 AM 14.15 57.47 0.444 7.96 9.5 9.44
5/5/2021 9:00:00 AM 14.14 57.452 0.443 7.96 9.76 9.49
5/5/2021 9:15:00 AM 14.13 57.434 0.442 7.97 8.72 9.56
5/5/2021 9:30:00 AM 14.14 57.452 0.442 7.99 8.08 9.65
5/5/2021 9:45:00 AM 14.16 57.488 0.441 8.01 9.52 9.75
5/5/2021 10:00:00 AM 14.18 57.524 0.441 8.02 8.7 9.81
5/5/2021 10:15:00 AM 14.22 57.596 0.441 8.04 9.26 9.91
5/5/2021 10:30:00 AM 14.24 57.632 0.44 8.03 7.75 9.92
5/5/2021 10:45:00 AM 14.32 57.776 0.428 8.05 14.3 9.81
5/5/2021 11:00:00 AM 14.34 57.812 0.42 8.04 15.27 9.76
5/5/2021 11:15:00 AM 14.37 57.866 0.418 8.05 20.88 9.83
5/5/2021 11:30:00 AM 14.44 57.992 0.417 8.04 18.54 9.95
5/5/2021 11:45:00 AM 14.53 58.154 0.412 8.04 18.66 10.05
5/5/2021 12:00:00 PM 14.62 58.316 0.409 8.05 22.32 10.09
5/5/2021 12:15:00 PM 14.82 58.676 0.406 8.06 21.73 10.2
5/5/2021 12:30:00 PM 14.99 58.982 0.405 8.07 21.74 10.3
5/5/2021 12:45:00 PM 15.22 59.396 0.406 8.08 27.64 10.28
5/5/2021 1:00:00 PM 15.56 60.008 0.406 8.08 24.79 10.42
5/5/2021 1:15:00 PM 15.86 60.548 0.408 8.12 23.01 10.59
5/5/2021 1:30:00 PM 15.94 60.692 0.41 8.14 17.61 10.57
5/5/2021 1:45:00 PM 16.17 61.106 0.41 8.16 37.42 10.62
5/5/2021 2:00:00 PM 16.41 61.538 0.404 8.17 19.41 10.52
5/5/2021 2:15:00 PM 16.49 61.682 0.399 8.14 27.44 10.21
5/5/2021 2:30:00 PM 16.68 62.024 0.393 8.1 25.14 10.05
5/5/2021 2:45:00 PM 16.82 62.276 0.387 8.09 29.37 9.93
5/5/2021 3:00:00 PM 16.86 62.348 0.383 8.06 24.55 9.74
5/5/2021 3:15:00 PM 17.13 62.834 0.384 8.06 26.46 9.77
5/5/2021 3:30:00 PM 17.33 63.194 0.389 8.04 27.38 9.63
5/5/2021 3:45:00 PM 17.61 63.698 0.394 8.07 25.26 9.64
5/5/2021 4:00:00 PM 17.76 63.968 0.4 8.09 24.94 9.57
5/5/2021 4:15:00 PM 17.8 64.04 0.405 8.08 19.46 9.47
5/5/2021 4:30:00 PM 17.79 64.022 0.409 8.08 19.21 9.38
5/5/2021 4:45:00 PM 17.76 63.968 0.409 8.08 19.66 9.29
5/5/2021 5:00:00 PM 17.71 63.878 0.407 8.06 18.03 9.2
5/5/2021 5:15:00 PM 17.63 63.734 0.403 8.04 18.22 9.05
5/5/2021 5:30:00 PM 17.58 63.644 0.396 8.04 17.06 9.05
5/5/2021 5:45:00 PM 17.51 63.518 0.39 8.04 17.57 9.05
5/5/2021 6:00:00 PM 17.42 63.356 0.386 8.02 16.99 8.95
5/5/2021 6:15:00 PM 17.32 63.176 0.383 8.01 16.46 8.91
5/5/2021 6:30:00 PM 17.23 63.014 0.381 8.01 14.88 8.96
5/5/2021 6:45:00 PM 17.08 62.744 0.377 7.99 18.87 8.91
5/5/2021 7:00:00 PM 16.96 62.528 0.373 7.99 15.1 8.85
5/5/2021 7:15:00 PM 16.83 62.294 0.37 7.98 14.91 8.83
5/5/2021 7:30:00 PM 16.7 62.06 0.367 7.97 14.81 8.8
5/5/2021 7:45:00 PM 16.56 61.808 0.366 7.95 14.92 8.8
5/5/2021 8:00:00 PM 16.41 61.538 0.37 7.95 14.6 8.78
5/5/2021 8:15:00 PM 16.25 61.25 0.372 7.94 13.3 8.77
5/5/2021 8:30:00 PM 16.08 60.944 0.374 7.91 14.29 8.76
5/5/2021 8:45:00 PM 15.92 60.656 0.376 7.91 15.26 8.76
5/5/2021 9:00:00 PM 15.77 60.386 0.375 7.91 15.27 8.76
5/5/2021 9:15:00 PM 15.63 60.134 0.377 7.93 16.39 8.78
5/5/2021 9:30:00 PM 15.47 59.846 0.38 7.92 12.66 8.79
5/5/2021 9:45:00 PM 15.3 59.54 0.384 7.91 15.96 8.82
5/5/2021 10:00:00 PM 15.14 59.252 0.387 7.91 16.17 8.85
5/5/2021 10:15:00 PM 14.99 58.982 0.39 7.91 13.72 8.88
5/5/2021 10:30:00 PM 14.85 58.73 0.392 7.91 13.68 8.91
5/5/2021 10:45:00 PM 14.7 58.46 0.396 7.92 13.14 8.92
5/5/2021 11:00:00 PM 14.56 58.208 0.398 7.93 16.6 8.97
5/5/2021 11:15:00 PM 14.42 57.956 0.402 7.92 12.43 9
5/5/2021 11:30:00 PM 14.27 57.686 0.403 7.92 13.63 9.03
5/5/2021 11:45:00 PM 14.11 57.398 0.406 7.92 12.27 9.07
5/6/2021 12:00:00 AM 13.99 57.182 0.408 7.92 12.48 9.1
5/6/2021 12:15:00 AM 13.87 56.966 0.41 7.88 13.27 9.15
5/6/2021 12:30:00 AM 13.74 56.732 0.416 7.92 12.33 9.18
5/6/2021 12:45:00 AM 13.61 56.498 0.414 7.93 12.05 9.21
5/6/2021 1:00:00 AM 13.51 56.318 0.415 7.94 12.71 9.25
5/6/2021 1:15:00 AM 13.39 56.102 0.417 7.94 12.23 9.28
5/6/2021 1:30:00 AM 13.26 55.868 0.419 7.95 11.76 9.33
5/6/2021 1:45:00 AM 13.12 55.616 0.42 7.94 11.92 9.36
5/6/2021 2:00:00 AM 12.99 55.382 0.422 7.94 11.42 9.39
5/6/2021 2:15:00 AM 12.86 55.148 0.423 7.96 11.13 9.43
5/6/2021 2:30:00 AM 12.74 54.932 0.424 7.97 11.41 9.47
5/6/2021 2:45:00 AM 12.6 54.68 0.425 7.96 10.36 9.51
5/6/2021 3:00:00 AM 12.48 54.464 0.427 7.96 10.06 9.56
5/6/2021 3:15:00 AM 12.35 54.23 0.427 7.96 10.43 9.59
5/6/2021 3:30:00 AM 12.23 54.014 0.429 7.97 10.23 9.63
5/6/2021 3:45:00 AM 12.11 53.798 0.43 7.98 10.84 9.67
5/6/2021 4:00:00 AM 12 53.6 0.43 7.97 9.73 9.71
5/6/2021 4:15:00 AM 11.88 53.384 0.432 7.98 11.08 9.75
5/6/2021 4:30:00 AM 11.77 53.186 0.433 7.99 9.01 9.78
5/6/2021 4:45:00 AM 11.67 53.006 0.433 7.99 9.91 9.81
5/6/2021 5:00:00 AM 11.59 52.862 0.434 7.99 8.43 9.83
5/6/2021 5:15:00 AM 11.49 52.682 0.435 8 9.62 9.84
5/6/2021 5:30:00 AM 11.4 52.52 0.436 8 8.74 9.88
5/6/2021 5:45:00 AM 11.32 52.376 0.436 8 10.79 9.91
5/6/2021 6:00:00 AM 11.24 52.232 0.438 7.99 9.62 9.94
5/6/2021 6:15:00 AM 11.15 52.07 0.439 7.99 10.77 9.99
5/6/2021 6:30:00 AM 11.08 51.944 0.437 8.01 10.11 10.03
5/6/2021 6:45:00 AM 11.03 51.854 0.44 8.01 10.35 10.08
5/6/2021 7:00:00 AM 11 51.8 0.44 8.01 8.81 10.17
5/6/2021 7:15:00 AM 10.96 51.728 0.44 8.02 10.02 10.25
5/6/2021 7:30:00 AM 10.96 51.728 0.441 8.03 9.9 10.34
5/6/2021 7:45:00 AM 10.95 51.71 0.441 8.05 8.92 10.42
5/6/2021 8:00:00 AM 10.94 51.692 0.441 8.06 8.38 10.51
5/6/2021 8:15:00 AM 10.93 51.674 0.441 8.06 8.44 10.56
5/6/2021 8:30:00 AM 10.96 51.728 0.442 8.08 8.33 10.69
5/6/2021 8:45:00 AM 11.01 51.818 0.441 8.1 7.96 10.84
5/6/2021 9:00:00 AM 11.04 51.872 0.441 8.11 8.59 10.93
5/6/2021 9:15:00 AM 11.07 51.926 0.443 8.12 7.31 11.01
5/6/2021 9:30:00 AM 11.08 51.944 0.443 8.13 7.8 11.04
5/6/2021 9:45:00 AM 11.16 52.088 0.442 8.15 7.5 11.18
5/6/2021 10:00:00 AM 11.3 52.34 0.442 8.17 6.66 11.29
5/6/2021 10:15:00 AM 11.37 52.466 0.442 8.17 7.3 11.34
5/6/2021 10:30:00 AM 11.56 52.808 0.442 8.2 7 11.44
5/6/2021 10:45:00 AM 11.71 53.078 0.442 8.21 6.47 11.59
5/6/2021 11:00:00 AM 11.94 53.492 0.441 8.23 6.65 11.66
5/6/2021 11:15:00 AM 12.14 53.852 0.442 8.24 6.5 11.7
5/6/2021 11:30:00 AM 12.35 54.23 0.442 8.25 6.88 11.74
5/6/2021 11:45:00 AM 12.62 54.716 0.442 8.28 6.86 11.78
5/6/2021 12:00:00 PM 12.87 55.166 0.441 8.31 6.69 11.83
5/6/2021 12:15:00 PM 13.19 55.742 0.44 8.32 6.82 11.85
5/6/2021 12:30:00 PM 13.53 56.354 0.44 8.34 6.68 11.87
5/6/2021 12:45:00 PM 13.88 56.984 0.44 8.35 6.64 11.89
5/6/2021 1:00:00 PM 14.27 57.686 0.44 8.38 7.37 11.9
5/6/2021 1:15:00 PM 14.63 58.334 0.439 8.4 7.57 11.9
5/6/2021 1:30:00 PM 14.96 58.928 0.439 8.4 6.9 11.91
5/6/2021 1:45:00 PM 15.17 59.306 0.439 8.43 7.22 11.88
5/6/2021 2:00:00 PM 15.47 59.846 0.439 8.44 7.1 11.87
5/6/2021 2:15:00 PM 15.71 60.278 0.439 8.45 6.56 11.85
5/6/2021 2:30:00 PM 15.97 60.746 0.439 8.46 7.56 11.8
5/6/2021 2:45:00 PM 16.24 61.232 0.439 8.46 7.76 11.75
5/6/2021 3:00:00 PM 16.47 61.646 0.439 8.47 6.65 11.7
5/6/2021 3:15:00 PM 16.56 61.808 0.439 8.48 7.74 11.61
5/6/2021 3:30:00 PM 16.69 62.042 0.439 8.47 8.14 11.54
5/6/2021 3:45:00 PM 16.86 62.348 0.439 8.48 7.58 11.47
5/6/2021 4:00:00 PM 16.96 62.528 0.44 8.47 7.81 11.35
5/6/2021 4:15:00 PM 16.99 62.582 0.44 8.47 7.82 11.24
5/6/2021 4:30:00 PM 17.02 62.636 0.44 8.47 8.11 11.12
5/6/2021 4:45:00 PM 17.05 62.69 0.44 8.46 7.61 11
5/6/2021 5:00:00 PM 17.05 62.69 0.441 8.45 8.11 10.86
5/6/2021 5:15:00 PM 17.06 62.708 0.441 8.44 7.53 10.76
5/6/2021 5:30:00 PM 17.03 62.654 0.441 8.42 7.43 10.63
5/6/2021 5:45:00 PM 17 62.6 0.441 8.42 7.24 10.53
5/6/2021 6:00:00 PM 16.96 62.528 0.442 8.39 6.24 10.36
5/6/2021 6:15:00 PM 16.9 62.42 0.442 8.38 8.14 10.18
5/6/2021 6:30:00 PM 16.85 62.33 0.443 8.35 7.09 10.06
5/6/2021 6:45:00 PM 16.8 62.24 0.443 8.33 7.09 9.93
5/6/2021 7:00:00 PM 16.76 62.168 0.445 8.32 6.97 9.82
5/6/2021 7:15:00 PM 16.68 62.024 0.445 8.29 7.17 9.65
5/6/2021 7:30:00 PM 16.58 61.844 0.445 8.27 6.31 9.51
5/6/2021 7:45:00 PM 16.48 61.664 0.446 8.24 7.77 9.39
5/6/2021 8:00:00 PM 16.36 61.448 0.446 8.21 7.93 9.28
5/6/2021 8:15:00 PM 16.22 61.196 0.447 8.19 7.9 9.19
5/6/2021 8:30:00 PM 16.06 60.908 0.447 8.17 8.19 9.13
5/6/2021 8:45:00 PM 15.9 60.62 0.448 8.17 8.64 9.09
5/6/2021 9:00:00 PM 15.73 60.314 0.448 8.15 7.35 9.07
5/6/2021 9:15:00 PM 15.54 59.972 0.448 8.12 8.33 9.06
5/6/2021 9:30:00 PM 15.35 59.63 0.448 8.12 8.96 9.07
5/6/2021 9:45:00 PM 15.16 59.288 0.449 8.12 7.05 9.08
5/6/2021 10:00:00 PM 14.98 58.964 0.45 8.11 8.52 9.09
5/6/2021 10:15:00 PM 14.8 58.64 0.45 8.09 9.8 9.11
5/6/2021 10:30:00 PM 14.61 58.298 0.45 8.1 9.19 9.14
5/6/2021 10:45:00 PM 14.43 57.974 0.451 8.09 9.57 9.17
5/6/2021 11:00:00 PM 14.26 57.668 0.451 8.07 9.58 9.2
5/6/2021 11:15:00 PM 14.08 57.344 0.452 8.06 9.47 9.23
5/6/2021 11:30:00 PM 13.9 57.02 0.452 8.06 8.96 9.27
5/6/2021 11:45:00 PM 13.71 56.678 0.452 8.07 9.31 9.3
5/7/2021 12:00:00 AM 13.53 56.354 0.453 8.06 8.3 9.34
5/7/2021 12:15:00 AM 13.36 56.048 0.453 8.04 8.44 9.36
5/7/2021 12:30:00 AM 13.19 55.742 0.453 8.03 9.53 9.4
5/7/2021 12:45:00 AM 13.03 55.454 0.454 8.03 10.26 9.44
5/7/2021 1:00:00 AM 12.86 55.148 0.454 8.03 8.64 9.47
5/7/2021 1:15:00 AM 12.71 54.878 0.454 8.02 8.59 9.5
5/7/2021 1:30:00 AM 12.56 54.608 0.454 8.03 8.64 9.54
5/7/2021 1:45:00 AM 12.42 54.356 0.455 8.02 9.05 9.57
5/7/2021 2:00:00 AM 12.28 54.104 0.454 8.02 6.38 9.6
5/7/2021 2:15:00 AM 12.15 53.87 0.455 8.02 9.15 9.64
5/7/2021 2:30:00 AM 12.03 53.654 0.455 8.01 10.35 9.67
5/7/2021 2:45:00 AM 11.91 53.438 0.455 8.02 10.39 9.71
5/7/2021 3:00:00 AM 11.8 53.24 0.454 8.02 9.96 9.74
5/7/2021 3:15:00 AM 11.69 53.042 0.454 8.02 10.42 9.77
5/7/2021 3:30:00 AM 11.58 52.844 0.455 8.02 9.47 9.8
5/7/2021 3:45:00 AM 11.47 52.646 0.455 8.02 9.12 9.83
5/7/2021 4:00:00 AM 11.37 52.466 0.454 8.02 9.53 9.86
5/7/2021 4:15:00 AM 11.26 52.268 0.455 8.02 9.45 9.89
5/7/2021 4:30:00 AM 11.16 52.088 0.455 8.02 10.11 9.92
5/7/2021 4:45:00 AM 11.05 51.89 0.455 8.03 10.1 9.95
5/7/2021 5:00:00 AM 10.95 51.71 0.455 8.03 10.52 9.98
5/7/2021 5:15:00 AM 10.85 51.53 0.455 8.03 10.57 10.01
5/7/2021 5:30:00 AM 10.75 51.35 0.455 8.02 11.81 10.04
5/7/2021 5:45:00 AM 10.66 51.188 0.455 8.02 10.82 10.07
5/7/2021 6:00:00 AM 10.57 51.026 0.455 8.03 10.77 10.09
5/7/2021 6:15:00 AM 10.48 50.864 0.455 8.04 9.69 10.14
5/7/2021 6:30:00 AM 10.41 50.738 0.455 8.04 8.78 10.18
5/7/2021 6:45:00 AM 10.34 50.612 0.455 8.04 9.58 10.25
5/7/2021 7:00:00 AM 10.28 50.504 0.455 8.05 8.1 10.31
5/7/2021 7:15:00 AM 10.23 50.414 0.455 8.06 8.28 10.38
5/7/2021 7:30:00 AM 10.2 50.36 0.455 8.06 8.29 10.44
5/7/2021 7:45:00 AM 10.17 50.306 0.455 8.05 7.85 10.52
5/7/2021 8:00:00 AM 10.17 50.306 0.454 8.06 7.1 10.6
5/7/2021 8:15:00 AM 10.21 50.378 0.454 8.08 7.52 10.73
5/7/2021 8:30:00 AM 10.26 50.468 0.454 8.1 6 10.9
5/7/2021 8:45:00 AM 10.29 50.522 0.454 8.11 6.6 10.96
5/7/2021 9:00:00 AM 10.33 50.594 0.453 8.13 6.09 11.03
5/7/2021 9:15:00 AM 10.44 50.792 0.455 8.13 6.55 11.15
5/7/2021 9:30:00 AM 10.55 50.99 0.453 8.15 5.8 11.27
5/7/2021 9:45:00 AM 10.67 51.206 0.453 8.18 5.83 11.4
5/7/2021 10:00:00 AM 10.75 51.35 0.452 8.2 5.6 11.52
5/7/2021 10:15:00 AM 10.89 51.602 0.452 8.21 6.01 11.61
5/7/2021 10:30:00 AM 10.97 51.746 0.452 8.23 6.15 11.71
5/7/2021 10:45:00 AM 11.21 52.178 0.451 8.25 5.22 11.85
5/7/2021 11:00:00 AM 11.34 52.412 0.451 8.26 6.27 11.93
5/7/2021 11:15:00 AM 11.52 52.736 0.45 8.29 5.51 12
5/7/2021 11:30:00 AM 11.72 53.096 0.45 8.31 6.12 12.1
5/7/2021 11:45:00 AM 11.96 53.528 0.449 8.34 6.1 12.19
5/7/2021 12:00:00 PM 12.18 53.924 0.448 8.36 5.89 12.21
5/7/2021 12:15:00 PM 12.33 54.194 0.448 8.37 6.06 12.2
5/7/2021 12:30:00 PM 12.52 54.536 0.447 8.39 5.76 12.19
5/7/2021 12:45:00 PM 12.73 54.914 0.447 8.41 5.88 12.2
5/7/2021 1:00:00 PM 12.93 55.274 0.446 8.42 5.99 12.2
5/7/2021 1:15:00 PM 13.12 55.616 0.446 8.43 5.44 12.17
5/7/2021 1:30:00 PM 13.31 55.958 0.445 8.45 5.8 12.11
5/7/2021 1:45:00 PM 13.5 56.3 0.445 8.45 5.6 12.08
5/7/2021 2:00:00 PM 13.67 56.606 0.445 8.46 5.65 12
5/7/2021 2:15:00 PM 13.8 56.84 0.445 8.46 5.62 11.88
5/7/2021 2:30:00 PM 13.92 57.056 0.445 8.46 5.52 11.72
5/7/2021 2:45:00 PM 14.02 57.236 0.445 8.44 5.97 11.61
5/7/2021 3:00:00 PM 14.09 57.362 0.446 8.43 5.37 11.43
5/7/2021 3:15:00 PM 14.11 57.398 0.446 8.42 5.58 11.16
5/7/2021 3:30:00 PM 14.15 57.47 0.446 8.39 5.75 10.92
5/7/2021 3:45:00 PM 14.23 57.614 0.447 8.39 5.99 10.82
5/7/2021 4:00:00 PM 14.29 57.722 0.447 8.38 6.02 10.76
5/7/2021 4:15:00 PM 14.35 57.83 0.447 8.36 5.72 10.64
5/7/2021 4:30:00 PM 14.37 57.866 0.447 8.35 6.36 10.48
5/7/2021 4:45:00 PM 14.4 57.92 0.447 8.34 5.85 10.44
5/7/2021 5:00:00 PM 14.44 57.992 0.447 8.34 6.47 10.5
5/7/2021 5:15:00 PM 14.43 57.974 0.448 8.33 5.99 10.48
5/7/2021 5:30:00 PM 14.39 57.902 0.448 8.32 6.28 10.4
5/7/2021 5:45:00 PM 14.35 57.83 0.448 8.31 6.35 10.29
5/7/2021 6:00:00 PM 14.31 57.758 0.449 8.3 6.36 10.22
5/7/2021 6:15:00 PM 14.26 57.668 0.448 8.29 6.06 10.19
5/7/2021 6:30:00 PM 14.18 57.524 0.449 8.28 6.45 10.11
5/7/2021 6:45:00 PM 14.09 57.362 0.449 8.26 6.42 10.02
5/7/2021 7:00:00 PM 14 57.2 0.449 8.23 6.83 9.93
5/7/2021 7:15:00 PM 13.9 57.02 0.45 8.21 6.52 9.85
5/7/2021 7:30:00 PM 13.78 56.804 0.45 8.2 6.63 9.79
5/7/2021 7:45:00 PM 13.67 56.606 0.45 8.18 6.68 9.75
5/7/2021 8:00:00 PM 13.56 56.408 0.45 8.17 7.1 9.71
5/7/2021 8:15:00 PM 13.45 56.21 0.45 8.16 7.13 9.67
5/7/2021 8:30:00 PM 13.33 55.994 0.45 8.13 7.76 9.65
5/7/2021 8:45:00 PM 13.23 55.814 0.45 8.12 7.6 9.63
5/7/2021 9:00:00 PM 13.11 55.598 0.451 8.12 8.04 9.62
5/7/2021 9:15:00 PM 13.01 55.418 0.451 8.11 8.23 9.62
5/7/2021 9:30:00 PM 12.91 55.238 0.451 8.1 8.41 9.62
5/7/2021 9:45:00 PM 12.81 55.058 0.451 8.09 8.87 9.62
5/7/2021 10:00:00 PM 12.72 54.896 0.45 8.09 8.41 9.62
5/7/2021 10:15:00 PM 12.62 54.716 0.45 8.07 8.81 9.63
5/7/2021 10:30:00 PM 12.54 54.572 0.45 8.06 8.91 9.63
5/7/2021 10:45:00 PM 12.45 54.41 0.45 8.07 8.61 9.65
5/7/2021 11:00:00 PM 12.37 54.266 0.45 8.07 9.69 9.66
5/7/2021 11:15:00 PM 12.29 54.122 0.45 8.06 9.35 9.67
5/7/2021 11:30:00 PM 12.2 53.96 0.449 8.06 8.39 9.68
5/7/2021 11:45:00 PM 12.12 53.816 0.449 8.05 8.68 9.7
5/8/2021 12:00:00 AM 12.05 53.69 0.45 8.05 8.6 9.71
5/8/2021 12:15:00 AM 11.97 53.546 0.45 8.05 9.53 9.74
5/8/2021 12:30:00 AM 11.89 53.402 0.45 8.05 9.49 9.75
5/8/2021 12:45:00 AM 11.82 53.276 0.45 8.05 8.65 9.77
5/8/2021 1:00:00 AM 11.75 53.15 0.451 8.05 8.95 9.79
5/8/2021 1:15:00 AM 11.68 53.024 0.451 8.05 9.78 9.81
5/8/2021 1:30:00 AM 11.6 52.88 0.451 8.04 9 9.82
5/8/2021 1:45:00 AM 11.52 52.736 0.451 8.04 8.74 9.84
5/8/2021 2:00:00 AM 11.44 52.592 0.451 8.04 8.22 9.86
5/8/2021 2:15:00 AM 11.36 52.448 0.451 8.04 9.03 9.88
5/8/2021 2:30:00 AM 11.28 52.304 0.451 8.04 9.19 9.91
5/8/2021 2:45:00 AM 11.2 52.16 0.449 8.04 8.77 9.93
5/8/2021 3:00:00 AM 11.13 52.034 0.451 8.04 8.65 9.94
5/8/2021 3:15:00 AM 11.05 51.89 0.451 8.04 8.92 9.96
5/8/2021 3:30:00 AM 10.98 51.764 0.45 8.04 9.1 9.98
5/8/2021 3:45:00 AM 10.9 51.62 0.451 8.04 9.55 10
5/8/2021 4:00:00 AM 10.82 51.476 0.451 8.04 7.6 10.02
5/8/2021 4:15:00 AM 10.75 51.35 0.451 8.04 8.62 10.04
5/8/2021 4:30:00 AM 10.67 51.206 0.451 8.04 8.44 10.06
5/8/2021 4:45:00 AM 10.6 51.08 0.451 8.04 8.92 10.08
5/8/2021 5:00:00 AM 10.53 50.954 0.451 8.04 8.5 10.1
5/8/2021 5:15:00 AM 10.46 50.828 0.451 8.04 8.43 10.12
5/8/2021 5:30:00 AM 10.4 50.72 0.451 8.03 9.36 10.13
5/8/2021 5:45:00 AM 10.33 50.594 0.451 8.04 10.14 10.15
5/8/2021 6:00:00 AM 10.26 50.468 0.452 8.05 9.14 10.17
5/8/2021 6:15:00 AM 10.19 50.342 0.452 8.04 9.7 10.21
5/8/2021 6:30:00 AM 10.13 50.234 0.45 8.05 9.22 10.27
5/8/2021 6:45:00 AM 10.07 50.126 0.452 8.06 8.23 10.34
5/8/2021 7:00:00 AM 10.02 50.036 0.452 8.07 7.91 10.42
5/8/2021 7:15:00 AM 9.99 49.982 0.451 8.07 7.14 10.51
5/8/2021 7:30:00 AM 9.97 49.946 0.451 8.08 7.26 10.6
5/8/2021 7:45:00 AM 9.95 49.91 0.451 8.09 7.47 10.68
5/8/2021 8:00:00 AM 9.95 49.91 0.451 8.1 7.3 10.79
5/8/2021 8:15:00 AM 10.01 50.018 0.45 8.11 6.98 11.01
5/8/2021 8:30:00 AM 10.06 50.108 0.45 8.13 6.45 11.19
5/8/2021 8:45:00 AM 10.11 50.198 0.45 8.15 6.26 11.33
5/8/2021 9:00:00 AM 10.1 50.18 0.45 8.18 5.59 11.34
5/8/2021 9:15:00 AM 10.1 50.18 0.449 8.18 6.08 11.31
5/8/2021 9:30:00 AM 10.14 50.252 0.449 8.19 5.5 11.41
5/8/2021 9:45:00 AM 10.2 50.36 0.449 8.21 5.41 11.56
5/8/2021 10:00:00 AM 10.32 50.576 0.449 8.23 6.12 11.73
5/8/2021 10:15:00 AM 10.49 50.882 0.448 8.26 5.15 11.92
5/8/2021 10:30:00 AM 10.7 51.26 0.447 8.29 6.01 12.08
5/8/2021 10:45:00 AM 10.74 51.332 0.447 8.3 5.04 12.14
5/8/2021 11:00:00 AM 10.88 51.584 0.447 8.31 5.08 12.2
5/8/2021 11:15:00 AM 10.96 51.728 0.447 8.33 5.69 12.25
5/8/2021 11:30:00 AM 11 51.8 0.447 8.34 5.92 12.21
5/8/2021 11:45:00 AM 11.07 51.926 0.446 8.35 5.68 12.19
5/8/2021 12:00:00 PM 11.16 52.088 0.446 8.36 5.36 12.22
5/8/2021 12:15:00 PM 11.28 52.304 0.446 8.37 6.32 12.2
5/8/2021 12:30:00 PM 11.4 52.52 0.446 8.4 5.97 12.21
5/8/2021 12:45:00 PM 11.54 52.772 0.446 8.4 5.72 12.15
5/8/2021 1:00:00 PM 11.72 53.096 0.445 8.4 5.34 12.15
5/8/2021 1:15:00 PM 11.88 53.384 0.445 8.42 5.19 12.15
5/8/2021 1:30:00 PM 12.06 53.708 0.445 8.44 5.08 12.21
5/8/2021 1:45:00 PM 12.31 54.158 0.446 8.45 5.31 12.27
5/8/2021 2:00:00 PM 12.42 54.356 0.446 8.45 5.34 12.23
5/8/2021 2:15:00 PM 12.64 54.752 0.446 8.45 5.26 12.16
5/8/2021 2:30:00 PM 12.47 54.446 0.443 8.44 6.27 11.77
5/8/2021 2:45:00 PM 12.48 54.464 0.442 8.42 6.61 11.68
5/8/2021 3:00:00 PM 12.62 54.716 0.441 8.43 6.36 11.76
5/8/2021 3:15:00 PM 12.77 54.986 0.44 8.44 6.68 11.81
5/8/2021 3:30:00 PM 12.98 55.364 0.441 8.44 6.37 11.79
5/8/2021 3:45:00 PM 12.93 55.274 0.441 8.42 6.54 11.55
5/8/2021 4:00:00 PM 13 55.4 0.441 8.41 6.77 11.55
5/8/2021 4:15:00 PM 13.25 55.85 0.441 8.41 6.4 11.67
5/8/2021 4:30:00 PM 13.39 56.102 0.441 8.42 5.81 11.65
5/8/2021 4:45:00 PM 13.38 56.084 0.442 8.43 5.95 11.5
5/8/2021 5:00:00 PM 13.41 56.138 0.443 8.42 6.11 11.42
5/8/2021 5:15:00 PM 13.5 56.3 0.443 8.42 6.02 11.44
5/8/2021 5:30:00 PM 13.32 55.976 0.442 8.4 6.3 11.13
5/8/2021 5:45:00 PM 13.02 55.436 0.436 8.37 8.72 10.88
5/8/2021 6:00:00 PM 12.95 55.31 0.434 8.34 7.83 10.71
5/8/2021 6:15:00 PM 12.89 55.202 0.432 8.32 9.85 10.65
5/8/2021 6:30:00 PM 12.84 55.112 0.431 8.29 10.4 10.6
5/8/2021 6:45:00 PM 12.74 54.932 0.43 8.27 10.59 10.49
5/8/2021 7:00:00 PM 12.65 54.77 0.429 8.23 10.05 10.36
5/8/2021 7:15:00 PM 12.6 54.68 0.43 8.21 10.43 10.31
5/8/2021 7:30:00 PM 12.58 54.644 0.429 8.2 8.61 10.26
5/8/2021 7:45:00 PM 12.59 54.662 0.431 8.19 9.46 10.2
5/8/2021 8:00:00 PM 12.59 54.662 0.432 8.17 8.93 10.12
5/8/2021 8:15:00 PM 12.58 54.644 0.434 8.16 8.55 10.04
5/8/2021 8:30:00 PM 12.56 54.608 0.434 8.15 8.95 9.97
5/8/2021 8:45:00 PM 12.53 54.554 0.435 8.13 10.17 9.9
5/8/2021 9:00:00 PM 12.51 54.518 0.437 8.12 8.48 9.86
5/8/2021 9:15:00 PM 12.47 54.446 0.438 8.11 8.35 9.82
5/8/2021 9:30:00 PM 12.39 54.302 0.44 8.1 8.67 9.8
5/8/2021 9:45:00 PM 12.26 54.068 0.439 8.09 8.64 9.81
5/8/2021 10:00:00 PM 12.1 53.78 0.438 8.09 8.9 9.84
5/8/2021 10:15:00 PM 11.92 53.456 0.437 8.08 8.43 9.88
5/8/2021 10:30:00 PM 11.76 53.168 0.433 8.08 8.45 9.92
5/8/2021 10:45:00 PM 11.62 52.916 0.432 8.07 8.77 9.95
5/8/2021 11:00:00 PM 11.5 52.7 0.432 8.05 9.78 9.97
5/8/2021 11:15:00 PM 11.39 52.502 0.432 8.05 9.36 9.98
5/8/2021 11:30:00 PM 11.27 52.286 0.434 8.04 9.48 9.98
5/8/2021 11:45:00 PM 11.15 52.07 0.435 8.04 10.23 9.98
5/9/2021 12:00:00 AM 11.03 51.854 0.436 8.03 10.01 9.97
5/9/2021 12:15:00 AM 10.91 51.638 0.438 8.02 9.89 9.98
5/9/2021 12:30:00 AM 10.78 51.404 0.439 8.01 10.33 10
5/9/2021 12:45:00 AM 10.67 51.206 0.44 8.01 9.38 10.04
5/9/2021 1:00:00 AM 10.55 50.99 0.44 8.02 10.16 10.08
5/9/2021 1:15:00 AM 10.45 50.81 0.439 8.02 9.27 10.12
5/9/2021 1:30:00 AM 10.35 50.63 0.44 8.01 9.92 10.16
5/9/2021 1:45:00 AM 10.25 50.45 0.439 8.01 9.88 10.2
5/9/2021 2:00:00 AM 10.16 50.288 0.442 8 9.18 10.23
5/9/2021 2:15:00 AM 10.09 50.162 0.439 8 9.47 10.25
5/9/2021 2:30:00 AM 10.02 50.036 0.45 8.01 9.37 10.27
5/9/2021 2:45:00 AM 9.94 49.892 0.413 8 9.2 10.3
5/9/2021 3:00:00 AM 9.88 49.784 0.414 7.99 9.75 10.31
5/9/2021 3:15:00 AM 9.82 49.676 0.413 7.99 9.77 10.33
5/9/2021 3:30:00 AM 9.76 49.568 0.412 7.99 8.9 10.34
5/9/2021 3:45:00 AM 9.71 49.478 0.411 7.99 8.86 10.36
5/9/2021 4:00:00 AM 9.66 49.388 0.411 8 9.44 10.38
5/9/2021 4:15:00 AM 9.6 49.28 0.412 7.99 8.56 10.4
5/9/2021 4:30:00 AM 9.55 49.19 0.413 7.98 8.97 10.42
5/9/2021 4:45:00 AM 9.49 49.082 0.415 7.98 8.84 10.43
5/9/2021 5:00:00 AM 9.44 48.992 0.417 7.99 8.52 10.45
5/9/2021 5:15:00 AM 9.39 48.902 0.419 8 8.91 10.47
5/9/2021 5:30:00 AM 9.34 48.812 0.42 7.99 9.47 10.48
5/9/2021 5:45:00 AM 9.29 48.722 0.422 7.99 8.88 10.5
5/9/2021 6:00:00 AM 9.25 48.65 0.421 8.01 8.85 10.52
5/9/2021 6:15:00 AM 9.2 48.56 0.422 8.01 8.8 10.55
5/9/2021 6:30:00 AM 9.17 48.506 0.423 8.02 8.15 10.62
5/9/2021 6:45:00 AM 9.15 48.47 0.51 8.02 7.66 10.68
5/9/2021 7:00:00 AM 9.14 48.452 0.46 8.03 7.69 10.75
5/9/2021 7:15:00 AM 9.15 48.47 0.461 8.05 7.73 10.86
5/9/2021 7:30:00 AM 9.16 48.488 0.462 8.06 7.05 10.98
5/9/2021 7:45:00 AM 9.18 48.524 0.463 8.06 6.66 11.04
5/9/2021 8:00:00 AM 9.21 48.578 0.449 8.08 6.33 11.11
5/9/2021 8:15:00 AM 9.24 48.632 0.449 8.08 6.49 11.18
5/9/2021 8:30:00 AM 9.27 48.686 0.45 8.1 6.04 11.23
5/9/2021 8:45:00 AM 9.32 48.776 0.45 8.12 6.01 11.35
5/9/2021 9:00:00 AM 9.4 48.92 0.45 8.13 5.98 11.52
5/9/2021 9:15:00 AM 9.47 49.046 0.451 8.15 5.56 11.63
5/9/2021 9:30:00 AM 9.54 49.172 0.446 8.17 5.35 11.69
5/9/2021 9:45:00 AM 9.6 49.28 0.446 8.18 5.1 11.74
5/9/2021 10:00:00 AM 9.65 49.37 0.447 8.19 4.98 11.74
5/9/2021 10:15:00 AM 9.69 49.442 0.446 8.2 5.37 11.75
5/9/2021 10:30:00 AM 9.74 49.532 0.447 8.21 5.18 11.75
5/9/2021 10:45:00 AM 9.84 49.712 0.447 8.22 5.3 11.87
5/9/2021 11:00:00 AM 9.98 49.964 0.445 8.25 5.14 12.07
5/9/2021 11:15:00 AM 10.05 50.09 0.445 8.27 5.3 12.13
5/9/2021 11:30:00 AM 10.12 50.216 0.445 8.28 5.37 12.13
5/9/2021 11:45:00 AM 10.23 50.414 0.444 8.3 5.31 12.2
5/9/2021 12:00:00 PM 10.34 50.612 0.444 8.31 4.84 12.29
5/9/2021 12:15:00 PM 10.41 50.738 0.442 8.31 5.34 12.28
5/9/2021 12:30:00 PM 10.48 50.864 0.444 8.33 5.75 12.21
5/9/2021 12:45:00 PM 10.53 50.954 0.443 8.32 5.63 12.08
5/9/2021 1:00:00 PM 10.56 51.008 0.444 8.32 4.72 11.94
5/9/2021 1:15:00 PM 10.61 51.098 0.443 8.32 5.69 11.89
5/9/2021 1:30:00 PM 10.66 51.188 0.443 8.32 5.43 11.81
5/9/2021 1:45:00 PM 10.7 51.26 0.443 8.31 5.45 11.69
5/9/2021 2:00:00 PM 10.75 51.35 0.444 8.31 5.18 11.64
5/9/2021 2:15:00 PM 10.82 51.476 0.445 8.31 4.66 11.67
5/9/2021 2:30:00 PM 10.85 51.53 0.444 8.31 4.63 11.58
5/9/2021 2:45:00 PM 10.86 51.548 0.444 8.28 4.54 11.41
5/9/2021 3:00:00 PM 10.91 51.638 0.444 8.29 4.7 11.41
5/9/2021 3:15:00 PM 11.02 51.836 0.444 8.31 4.83 11.62
5/9/2021 3:30:00 PM 11.07 51.926 0.444 8.32 5.36 11.61
5/9/2021 3:45:00 PM 11.12 52.016 0.444 8.31 5.65 11.5
5/9/2021 4:00:00 PM 11.2 52.16 0.443 8.33 5.15 11.6
5/9/2021 4:15:00 PM 11.26 52.268 0.444 8.33 5.31 11.61
5/9/2021 4:30:00 PM 11.31 52.358 0.444 8.33 6.53 11.59
5/9/2021 4:45:00 PM 11.34 52.412 0.445 8.33 5.94 11.56
5/9/2021 5:00:00 PM 11.36 52.448 0.445 8.33 5.53 11.52
5/9/2021 5:15:00 PM 11.35 52.43 0.444 8.33 4.92 11.43
5/9/2021 5:30:00 PM 11.33 52.394 0.444 8.32 5.62 11.28
5/9/2021 5:45:00 PM 11.3 52.34 0.444 8.29 4.98 11.19
5/9/2021 6:00:00 PM 11.28 52.304 0.444 8.29 5.9 11.1
5/9/2021 6:15:00 PM 11.25 52.25 0.445 8.27 6.2 11.02
5/9/2021 6:30:00 PM 11.23 52.214 0.445 8.26 5.21 10.95
5/9/2021 6:45:00 PM 11.21 52.178 0.446 8.24 5.34 10.84
5/9/2021 7:00:00 PM 11.18 52.124 0.446 8.23 5.89 10.75
5/9/2021 7:15:00 PM 11.15 52.07 0.447 8.21 5.47 10.7
5/9/2021 7:30:00 PM 11.13 52.034 0.447 8.2 5.48 10.65
5/9/2021 7:45:00 PM 11.11 51.998 0.447 8.19 5.54 10.59
5/9/2021 8:00:00 PM 11.09 51.962 0.447 8.18 6.23 10.53
5/9/2021 8:15:00 PM 11.07 51.926 0.447 8.17 5.38 10.46
5/9/2021 8:30:00 PM 11.06 51.908 0.448 8.15 6.58 10.39
5/9/2021 8:45:00 PM 11.04 51.872 0.447 8.15 6.4 10.34
5/9/2021 9:00:00 PM 11.02 51.836 0.448 8.14 6.36 10.3
5/9/2021 9:15:00 PM 11 51.8 0.448 8.12 6.53 10.27
5/9/2021 9:30:00 PM 10.98 51.764 0.448 8.13 8.52 10.24
5/9/2021 9:45:00 PM 10.95 51.71 0.449 8.11 7.7 10.21
5/9/2021 10:00:00 PM 10.92 51.656 0.449 8.11 6.88 10.19
5/9/2021 10:15:00 PM 10.89 51.602 0.449 8.1 9.36 10.18
5/9/2021 10:30:00 PM 10.85 51.53 0.449 8.1 7.22 10.17
5/9/2021 10:45:00 PM 10.82 51.476 0.448 8.09 6.8 10.16
5/9/2021 11:00:00 PM 10.79 51.422 0.449 8.08 7.26 10.17
5/9/2021 11:15:00 PM 10.76 51.368 0.45 8.07 7.78 10.16
5/9/2021 11:30:00 PM 10.73 51.314 0.449 8.07 7.13 10.16
5/9/2021 11:45:00 PM 10.7 51.26 0.449 8.07 7.25 10.17
5/10/2021 12:00:00 AM 10.67 51.206 0.448 8.07 6.95 10.17
5/10/2021 12:15:00 AM 10.64 51.152 0.449 8.07 7.44 10.16
5/10/2021 12:30:00 AM 10.61 51.098 0.449 8.06 7.44 10.16
5/10/2021 12:45:00 AM 10.59 51.062 0.449 8.05 7.02 10.16
5/10/2021 1:00:00 AM 10.56 51.008 0.449 8.06 7.08 10.16
5/10/2021 1:15:00 AM 10.54 50.972 0.449 8.06 6.89 10.15
5/10/2021 1:30:00 AM 10.52 50.936 0.449 8.05 6.74 10.16
5/10/2021 1:45:00 AM 10.51 50.918 0.45 8.05 7.12 10.15
5/10/2021 2:00:00 AM 10.49 50.882 0.45 8.05 6.89 10.16
5/10/2021 2:15:00 AM 10.47 50.846 0.449 8.05 6.9 10.16
5/10/2021 2:30:00 AM 10.46 50.828 0.45 8.05 7.18 10.17
5/10/2021 2:45:00 AM 10.44 50.792 0.45 8.04 7.29 10.16
5/10/2021 3:00:00 AM 10.43 50.774 0.45 8.05 7.72 10.17
5/10/2021 3:15:00 AM 10.41 50.738 0.45 8.04 6.83 10.18
5/10/2021 3:30:00 AM 10.4 50.72 0.451 8.03 7.83 10.18
5/10/2021 3:45:00 AM 10.38 50.684 0.45 8.04 6.44 10.19
5/10/2021 4:00:00 AM 10.37 50.666 0.451 8.04 6.95 10.19
5/10/2021 4:15:00 AM 10.36 50.648 0.449 8.05 6.77 10.2
5/10/2021 4:30:00 AM 10.34 50.612 0.451 8.05 7.52 10.2
5/10/2021 4:45:00 AM 10.32 50.576 0.451 8.04 7.76 10.2
5/10/2021 5:00:00 AM 10.3 50.54 0.451 8.04 7.74 10.21
5/10/2021 5:15:00 AM 10.27 50.486 0.451 8.04 8.06 10.21
5/10/2021 5:30:00 AM 10.26 50.468 0.451 8.04 7.97 10.22
5/10/2021 5:45:00 AM 10.24 50.432 0.451 8.05 8.3 10.23
5/10/2021 6:00:00 AM 10.22 50.396 0.452 8.04 7.76 10.25
5/10/2021 6:15:00 AM 10.19 50.342 0.452 8.05 7.85 10.27
5/10/2021 6:30:00 AM 10.18 50.324 0.452 8.05 7.31 10.32
5/10/2021 6:45:00 AM 10.16 50.288 0.452 8.06 7 10.38
5/10/2021 7:00:00 AM 10.16 50.288 0.451 8.07 6.91 10.44
5/10/2021 7:15:00 AM 10.17 50.306 0.451 8.07 7.62 10.53
5/10/2021 7:30:00 AM 10.16 50.288 0.45 8.09 7.06 10.62
5/10/2021 7:45:00 AM 10.18 50.324 0.45 8.11 6.45 10.72
5/10/2021 8:00:00 AM 10.2 50.36 0.451 8.12 5.55 10.84
5/10/2021 8:15:00 AM 10.2 50.36 0.451 8.12 5.93 10.92
5/10/2021 8:30:00 AM 10.23 50.414 0.451 8.13 5.7 11.06
5/10/2021 8:45:00 AM 10.27 50.486 0.451 8.15 5.45 11.19
5/10/2021 9:00:00 AM 10.3 50.54 0.45 8.17 5.12 11.3
5/10/2021 9:15:00 AM 10.37 50.666 0.451 8.2 6.57 11.47
5/10/2021 9:30:00 AM 10.5 50.9 0.45 8.21 5.63 11.63
5/10/2021 9:45:00 AM 10.56 51.008 0.449 8.22 6.04 11.74
5/10/2021 10:00:00 AM 10.71 51.278 0.449 8.24 5.39 11.8
5/10/2021 10:15:00 AM 10.81 51.458 0.448 8.26 4.99 11.88
5/10/2021 10:30:00 AM 10.88 51.584 0.448 8.29 4.87 11.96
5/10/2021 10:45:00 AM 11.05 51.89 0.447 8.3 4.78 12.1
5/10/2021 11:00:00 AM 11.18 52.124 0.447 8.33 4.47 12.22
5/10/2021 11:15:00 AM 11.32 52.376 0.447 8.34 5.3 12.22
5/10/2021 11:30:00 AM 11.41 52.538 0.447 8.35 5.43 12.3
5/10/2021 11:45:00 AM 11.66 52.988 0.446 8.38 4.98 12.45
5/10/2021 12:00:00 PM 11.86 53.348 0.444 8.4 4.81 12.54
5/10/2021 12:15:00 PM 12.12 53.816 0.445 8.42 5.17 12.59
5/10/2021 12:30:00 PM 12.48 54.464 0.444 8.44 4.92 12.7
5/10/2021 12:45:00 PM 12.75 54.95 0.444 8.46 5.13 12.72
5/10/2021 1:00:00 PM 12.97 55.346 0.442 8.46 4.75 12.73
5/10/2021 1:15:00 PM 13.02 55.436 0.443 8.48 5.14 12.65
5/10/2021 1:30:00 PM 13.39 56.102 0.443 8.51 5.63 12.67
5/10/2021 1:45:00 PM 13.69 56.642 0.442 8.52 8.07 12.63
5/10/2021 2:00:00 PM 14.09 57.362 0.441 8.52 5.52 12.64
5/10/2021 2:15:00 PM 14.46 58.028 0.441 8.53 5.16 12.6
5/10/2021 2:30:00 PM 14.71 58.478 0.441 8.53 4.88 12.48
5/10/2021 2:45:00 PM 14.96 58.928 0.441 8.54 5.18 12.42
5/10/2021 3:00:00 PM 15.09 59.162 0.441 8.55 5.81 12.27
5/10/2021 3:15:00 PM 15.15 59.27 0.441 8.54 6.03 12.09
5/10/2021 3:30:00 PM 15.29 59.522 0.441 8.53 5.46 11.95
5/10/2021 3:45:00 PM 15.48 59.864 0.441 8.53 5.28 11.92
5/10/2021 4:00:00 PM 15.5 59.9 0.441 8.52 5.48 11.73
5/10/2021 4:15:00 PM 15.65 60.17 0.441 8.52 5.59 11.69
5/10/2021 4:30:00 PM 15.85 60.53 0.441 8.52 5.05 11.63
5/10/2021 4:45:00 PM 15.95 60.71 0.442 8.52 5.58 11.48
5/10/2021 5:00:00 PM 15.98 60.764 0.442 8.5 5.45 11.31
5/10/2021 5:15:00 PM 16.02 60.836 0.443 8.5 5.87 11.21
5/10/2021 5:30:00 PM 16.06 60.908 0.443 8.49 5.32 11.04
5/10/2021 5:45:00 PM 16 60.8 0.445 8.46 5.59 10.73
5/10/2021 6:00:00 PM 16.03 60.854 0.444 8.45 5.57 10.66
5/10/2021 6:15:00 PM 15.99 60.782 0.445 8.42 6.04 10.43
5/10/2021 6:30:00 PM 15.94 60.692 0.446 8.4 5.79 10.21
5/10/2021 6:45:00 PM 15.9 60.62 0.447 8.38 5.82 10.05
5/10/2021 7:00:00 PM 15.86 60.548 0.447 8.35 3.45 9.93
5/10/2021 7:15:00 PM 15.78 60.404 0.448 8.32 6.06 9.77
5/10/2021 7:30:00 PM 15.7 60.26 0.449 8.29 6.07 9.62
5/10/2021 7:45:00 PM 15.62 60.116 0.45 8.26 6.43 9.48
5/10/2021 8:00:00 PM 15.53 59.954 0.45 8.24 5.7 9.39
5/10/2021 8:15:00 PM 15.42 59.756 0.45 8.22 6.13 9.3
5/10/2021 8:30:00 PM 15.3 59.54 0.451 8.21 6.3 9.24
5/10/2021 8:45:00 PM 15.17 59.306 0.452 8.19 7.08 9.21
5/10/2021 9:00:00 PM 15.03 59.054 0.452 8.18 6.95 9.18
5/10/2021 9:15:00 PM 14.88 58.784 0.452 8.16 8.26 9.17
5/10/2021 9:30:00 PM 14.72 58.496 0.452 8.15 7.4 9.18
5/10/2021 9:45:00 PM 14.55 58.19 0.452 8.14 8.21 9.19
5/10/2021 10:00:00 PM 14.37 57.866 0.453 8.13 8.22 9.21
5/10/2021 10:15:00 PM 14.21 57.578 0.453 8.13 8.08 9.23
5/10/2021 10:30:00 PM 14.04 57.272 0.453 8.12 8.25 9.25
5/10/2021 10:45:00 PM 13.86 56.948 0.453 8.11 8.05 9.28
5/10/2021 11:00:00 PM 13.68 56.624 0.454 8.1 8.71 9.32
5/10/2021 11:15:00 PM 13.48 56.264 0.454 8.1 8.28 9.36
5/10/2021 11:30:00 PM 13.28 55.904 0.455 8.1 7.86 9.4
5/10/2021 11:45:00 PM 13.08 55.544 0.456 8.09 8.49 9.45
5/11/2021 12:00:00 AM 12.89 55.202 0.456 8.09 8.55 9.49
5/11/2021 12:15:00 AM 12.7 54.86 0.456 8.08 7 9.54
5/11/2021 12:30:00 AM 12.52 54.536 0.457 8.08 8.34 9.59
5/11/2021 12:45:00 AM 12.34 54.212 0.457 8.07 7.93 9.63
5/11/2021 1:00:00 AM 12.18 53.924 0.457 8.07 7.93 9.67
5/11/2021 1:15:00 AM 12.03 53.654 0.457 8.06 7.85 9.71
5/11/2021 1:30:00 AM 11.88 53.384 0.458 8.06 8.42 9.75
5/11/2021 1:45:00 AM 11.75 53.15 0.458 8.06 7.89 9.79
5/11/2021 2:00:00 AM 11.63 52.934 0.457 8.04 8.26 9.82
5/11/2021 2:15:00 AM 11.52 52.736 0.458 8.05 8.12 9.85
5/11/2021 2:30:00 AM 11.41 52.538 0.458 8.04 7.61 9.89
5/11/2021 2:45:00 AM 11.3 52.34 0.458 8.03 8.02 9.93
5/11/2021 3:00:00 AM 11.2 52.16 0.459 8.04 8.03 9.95
5/11/2021 3:15:00 AM 11.1 51.98 0.459 8.04 7.72 9.98
5/11/2021 3:30:00 AM 11.02 51.836 0.459 8.04 9.39 10.01
5/11/2021 3:45:00 AM 10.94 51.692 0.46 8.04 7.74 10.03
5/11/2021 4:00:00 AM 10.85 51.53 0.46 8.04 7.88 10.06
5/11/2021 4:15:00 AM 10.77 51.386 0.46 8.04 7.93 10.09
5/11/2021 4:30:00 AM 10.69 51.242 0.459 8.03 7.48 10.11
5/11/2021 4:45:00 AM 10.62 51.116 0.46 8.03 7.51 10.13
5/11/2021 5:00:00 AM 10.56 51.008 0.46 8.04 7.26 10.15
5/11/2021 5:15:00 AM 10.5 50.9 0.459 8.04 7.69 10.17
5/11/2021 5:30:00 AM 10.44 50.792 0.458 8.04 7.56 10.18
5/11/2021 5:45:00 AM 10.38 50.684 0.46 8.04 8.18 10.2
5/11/2021 6:00:00 AM 10.31 50.558 0.459 8.03 7.83 10.22
5/11/2021 6:15:00 AM 10.26 50.468 0.459 8.04 7.09 10.27
5/11/2021 6:30:00 AM 10.2 50.36 0.46 8.05 6.81 10.32
5/11/2021 6:45:00 AM 10.15 50.27 0.46 8.06 7.05 10.39
5/11/2021 7:00:00 AM 10.1 50.18 0.459 8.07 6.52 10.46
5/11/2021 7:15:00 AM 10.06 50.108 0.46 8.07 6.08 10.54
5/11/2021 7:30:00 AM 10.03 50.054 0.459 8.08 6.08 10.62
5/11/2021 7:45:00 AM 10.01 50.018 0.459 8.09 5.84 10.71
5/11/2021 8:00:00 AM 10.01 50.018 0.459 8.1 5.74 10.82
5/11/2021 8:15:00 AM 10.04 50.072 0.459 8.1 5.68 10.94
5/11/2021 8:30:00 AM 10.08 50.144 0.459 8.12 5.72 11.05
5/11/2021 8:45:00 AM 10.13 50.234 0.459 8.14 5.24 11.17
5/11/2021 9:00:00 AM 10.18 50.324 0.458 8.15 5.2 11.29
5/11/2021 9:15:00 AM 10.27 50.486 0.458 8.17 5.23 11.42
5/11/2021 9:30:00 AM 10.38 50.684 0.457 8.19 5.07 11.54
5/11/2021 9:45:00 AM 10.49 50.882 0.457 8.21 5.37 11.65
5/11/2021 10:00:00 AM 10.62 51.116 0.457 8.23 5.14 11.77
5/11/2021 10:15:00 AM 10.78 51.404 0.457 8.24 4.73 11.89
5/11/2021 10:30:00 AM 10.97 51.746 0.456 8.26 4.71 12
5/11/2021 10:45:00 AM 11.16 52.088 0.456 8.28 4.67 12.13
5/11/2021 11:00:00 AM 11.37 52.466 0.454 8.3 4.84 12.24
5/11/2021 11:15:00 AM 11.61 52.898 0.454 8.33 4.76 12.35
5/11/2021 11:30:00 AM 11.86 53.348 0.453 8.35 5.2 12.43
5/11/2021 11:45:00 AM 12.07 53.726 0.453 8.37 5.02 12.45
5/11/2021 12:00:00 PM 12.31 54.158 0.452 8.39 4.51 12.46
5/11/2021 12:15:00 PM 12.64 54.752 0.452 8.4 4.82 12.55
5/11/2021 12:30:00 PM 13.08 55.544 0.451 8.44 5.21 12.64
5/11/2021 12:45:00 PM 13.49 56.282 0.45 8.45 4.77 12.7
5/11/2021 1:00:00 PM 13.89 57.002 0.449 8.48 4.82 12.78
5/11/2021 1:15:00 PM 14.02 57.236 0.448 8.5 4.8 12.63
5/11/2021 1:30:00 PM 14.14 57.452 0.449 8.5 4.91 12.5
5/11/2021 1:45:00 PM 14.36 57.848 0.448 8.51 4.98 12.42
5/11/2021 2:00:00 PM 14.68 58.424 0.448 8.53 5.06 12.45
5/11/2021 2:15:00 PM 14.91 58.838 0.447 8.53 4.93 12.39
5/11/2021 2:30:00 PM 14.99 58.982 0.447 8.53 6.1 12.21
5/11/2021 2:45:00 PM 15.09 59.162 0.447 8.53 5.63 12.09
5/11/2021 3:00:00 PM 15.22 59.396 0.447 8.54 6.12 12.09
5/11/2021 3:15:00 PM 15.29 59.522 0.447 8.54 5.51 12.03
5/11/2021 3:30:00 PM 15.43 59.774 0.446 8.55 5.15 12.07
5/11/2021 3:45:00 PM 15.57 60.026 0.446 8.56 4.96 12.06
5/11/2021 4:00:00 PM 15.74 60.332 0.447 8.55 6.12 12
5/11/2021 4:15:00 PM 15.88 60.584 0.447 8.55 4.72 11.97
5/11/2021 4:30:00 PM 15.86 60.548 0.446 8.55 4.87 11.81
5/11/2021 4:45:00 PM 15.88 60.584 0.447 8.54 5.13 11.62
5/11/2021 5:00:00 PM 15.95 60.71 0.447 8.54 5.25 11.51
5/11/2021 5:15:00 PM 16.01 60.818 0.447 8.52 5.07 11.4
5/11/2021 5:30:00 PM 15.95 60.71 0.448 8.52 4.87 11.14
5/11/2021 5:45:00 PM 15.91 60.638 0.449 8.49 5.41 10.94
5/11/2021 6:00:00 PM 15.82 60.476 0.45 8.47 5.25 10.74
5/11/2021 6:15:00 PM 15.73 60.314 0.45 8.45 4.82 10.56
5/11/2021 6:30:00 PM 15.6 60.08 0.451 8.42 5.78 10.36
5/11/2021 6:45:00 PM 15.51 59.918 0.451 8.39 5.72 10.19
5/11/2021 7:00:00 PM 15.42 59.756 0.452 8.37 5.52 10.05
5/11/2021 7:15:00 PM 15.33 59.594 0.453 8.36 5.95 9.95
5/11/2021 7:30:00 PM 15.25 59.45 0.454 8.34 5.27 9.85
5/11/2021 7:45:00 PM 15.12 59.216 0.454 8.3 5.73 9.74
5/11/2021 8:00:00 PM 15 59 0.455 8.28 5.44 9.63
5/11/2021 8:15:00 PM 14.87 58.766 0.455 8.25 5.54 9.53
5/11/2021 8:30:00 PM 14.74 58.532 0.456 8.23 5.84 9.45
5/11/2021 8:45:00 PM 14.6 58.28 0.456 8.2 6.28 9.4
5/11/2021 9:00:00 PM 14.45 58.01 0.457 8.18 7.56 9.37
5/11/2021 9:15:00 PM 14.29 57.722 0.457 8.18 7.58 9.36
5/11/2021 9:30:00 PM 14.12 57.416 0.458 8.17 7.14 9.36
5/11/2021 9:45:00 PM 13.94 57.092 0.458 8.16 24.56 9.38
5/11/2021 10:00:00 PM 13.76 56.768 0.459 8.16 7.81 9.4
5/11/2021 10:15:00 PM 13.59 56.462 0.459 8.14 7.51 9.42
5/11/2021 10:30:00 PM 13.43 56.174 0.46 8.12 9.42 9.44
5/11/2021 10:45:00 PM 13.28 55.904 0.46 8.11 7.3 9.48
5/11/2021 11:00:00 PM 13.12 55.616 0.46 8.12 7.21 9.52
5/11/2021 11:15:00 PM 12.96 55.328 0.46 8.11 6.61 9.55
5/11/2021 11:30:00 PM 12.8 55.04 0.461 8.1 7.21 9.58
5/11/2021 11:45:00 PM 12.63 54.734 0.461 8.1 7.04 9.62
5/12/2021 12:00:00 AM 12.46 54.428 0.462 8.1 7.31 9.67
5/12/2021 12:15:00 AM 12.29 54.122 0.461 8.09 6.68 9.71
5/12/2021 12:30:00 AM 12.11 53.798 0.463 8.09 7.37 9.74
5/12/2021 12:45:00 AM 11.93 53.474 0.463 8.08 6.7 9.79
5/12/2021 1:00:00 AM 11.76 53.168 0.463 8.08 7.05 9.83
5/12/2021 1:15:00 AM 11.59 52.862 0.463 8.07 7.32 9.87
5/12/2021 1:30:00 AM 11.43 52.574 0.463 8.08 6.67 9.91
5/12/2021 1:45:00 AM 11.28 52.304 0.464 8.07 6.76 9.96
5/12/2021 2:00:00 AM 11.14 52.052 0.464 8.06 6.47 10
5/12/2021 2:15:00 AM 11.01 51.818 0.464 8.06 6.71 10.03
5/12/2021 2:30:00 AM 10.89 51.602 0.464 8.07 7.22 10.07
5/12/2021 2:45:00 AM 10.76 51.368 0.464 8.06 6.77 10.11
5/12/2021 3:00:00 AM 10.64 51.152 0.464 8.06 6.78 10.14
5/12/2021 3:15:00 AM 10.53 50.954 0.464 8.07 7.09 10.18
5/12/2021 3:30:00 AM 10.43 50.774 0.464 8.07 6.86 10.21
5/12/2021 3:45:00 AM 10.33 50.594 0.465 8.06 6.82 10.24
5/12/2021 4:00:00 AM 10.23 50.414 0.465 8.06 6.53 10.27
5/12/2021 4:15:00 AM 10.14 50.252 0.465 8.06 6.4 10.3
5/12/2021 4:30:00 AM 10.05 50.09 0.465 8.06 6.62 10.34
5/12/2021 4:45:00 AM 9.96 49.928 0.465 8.06 6.13 10.36
5/12/2021 5:00:00 AM 9.88 49.784 0.465 8.06 6.64 10.39
5/12/2021 5:15:00 AM 9.8 49.64 0.465 8.07 7.07 10.41
5/12/2021 5:30:00 AM 9.72 49.496 0.464 8.07 6.3 10.44
5/12/2021 5:45:00 AM 9.64 49.352 0.465 8.07 7.15 10.46
5/12/2021 6:00:00 AM 9.56 49.208 0.465 8.07 6.73 10.49
5/12/2021 6:15:00 AM 9.49 49.082 0.465 8.07 6.02 10.55
5/12/2021 6:30:00 AM 9.42 48.956 0.466 8.07 5.39 10.61
5/12/2021 6:45:00 AM 9.37 48.866 0.466 8.07 5.68 10.68
5/12/2021 7:00:00 AM 9.32 48.776 0.466 8.08 5.67 10.74
5/12/2021 7:15:00 AM 9.29 48.722 0.465 8.1 5.35 10.81
5/12/2021 7:30:00 AM 9.27 48.686 0.463 8.1 5.36 10.9
5/12/2021 7:45:00 AM 9.25 48.65 0.463 8.11 5.32 10.99
5/12/2021 8:00:00 AM 9.26 48.668 0.464 8.13 4.58 11.1
5/12/2021 8:15:00 AM 9.28 48.704 0.465 8.14 4.58 11.22
5/12/2021 8:30:00 AM 9.3 48.74 0.465 8.16 4.38 11.32
5/12/2021 8:45:00 AM 9.35 48.83 0.464 8.16 4.52 11.44
5/12/2021 9:00:00 AM 9.41 48.938 0.464 8.18 4.42 11.56
5/12/2021 9:15:00 AM 9.47 49.046 0.464 8.18 4.49 11.7
5/12/2021 9:30:00 AM 9.56 49.208 0.463 8.21 4.17 11.83
5/12/2021 9:45:00 AM 9.65 49.37 0.462 8.23 5.15 11.94
5/12/2021 10:00:00 AM 9.78 49.604 0.462 8.25 4.17 12.06
5/12/2021 10:15:00 AM 9.92 49.856 0.462 8.25 4.31 12.19
5/12/2021 10:30:00 AM 10.11 50.198 0.461 8.28 4.54 12.31
5/12/2021 10:45:00 AM 10.32 50.576 0.461 8.3 4.34 12.42
5/12/2021 11:00:00 AM 10.56 51.008 0.46 8.32 4.3 12.52
5/12/2021 11:15:00 AM 10.8 51.44 0.46 8.34 8 12.62
5/12/2021 11:30:00 AM 11.08 51.944 0.459 8.36 4.57 12.69
5/12/2021 11:45:00 AM 11.38 52.484 0.458 8.39 4.38 12.78
5/12/2021 12:00:00 PM 11.7 53.06 0.457 8.41 6.83 12.83
5/12/2021 12:15:00 PM 12.06 53.708 0.456 8.43 4.03 12.88
5/12/2021 12:30:00 PM 12.42 54.356 0.456 8.45 4.1 12.92
5/12/2021 12:45:00 PM 12.8 55.04 0.455 8.47 4.19 12.93
5/12/2021 1:00:00 PM 13.19 55.742 0.454 8.49 4.19 12.94
5/12/2021 1:15:00 PM 13.65 56.57 0.453 8.52 4.19 12.98
5/12/2021 1:30:00 PM 13.99 57.182 0.453 8.53 4.24 12.92
5/12/2021 1:45:00 PM 14.42 57.956 0.452 8.55 4.76 12.92
5/12/2021 2:00:00 PM 14.67 58.406 0.452 8.56 4.98 12.74
5/12/2021 2:15:00 PM 14.98 58.964 0.451 8.56 4.94 12.61
5/12/2021 2:30:00 PM 15.37 59.666 0.451 8.58 4.14 12.59
5/12/2021 2:45:00 PM 15.91 60.638 0.45 8.6 4.31 12.77
5/12/2021 3:00:00 PM 16.26 61.268 0.449 8.61 4.22 12.74
5/12/2021 3:15:00 PM 16.34 61.412 0.45 8.6 4.21 12.35
5/12/2021 3:30:00 PM 16.49 61.682 0.45 8.59 4.46 12.21
5/12/2021 3:45:00 PM 16.7 62.06 0.449 8.6 4.42 12.21
5/12/2021 4:00:00 PM 16.73 62.114 0.449 8.59 4.58 12.06
5/12/2021 4:15:00 PM 16.78 62.204 0.449 8.59 4.59 11.95
5/12/2021 4:30:00 PM 16.89 62.402 0.45 8.58 4.88 11.85
5/12/2021 4:45:00 PM 16.84 62.312 0.45 8.56 5.25 11.56
5/12/2021 5:00:00 PM 16.75 62.15 0.452 8.54 4.7 11.25
5/12/2021 5:15:00 PM 16.74 62.132 0.452 8.52 4.71 11.09
5/12/2021 5:30:00 PM 16.63 61.934 0.453 8.49 4.49 10.81
5/12/2021 5:45:00 PM 16.5 61.7 0.454 8.46 4.89 10.56
5/12/2021 6:00:00 PM 16.41 61.538 0.455 8.44 4.45 10.4
5/12/2021 6:15:00 PM 16.34 61.412 0.456 8.41 4.8 10.18
5/12/2021 6:30:00 PM 16.26 61.268 0.456 8.39 5.07 10.05
5/12/2021 6:45:00 PM 16.18 61.124 0.457 8.37 4.61 9.9
5/12/2021 7:00:00 PM 16.11 60.998 0.457 8.35 5.17 9.83
5/12/2021 7:15:00 PM 16.03 60.854 0.458 8.33 4.92 9.73
5/12/2021 7:30:00 PM 15.92 60.656 0.459 8.31 5.92 9.63
5/12/2021 7:45:00 PM 15.8 60.44 0.459 8.28 5.25 9.51
5/12/2021 8:00:00 PM 15.69 60.242 0.46 8.26 5.46 9.4
5/12/2021 8:15:00 PM 15.59 60.062 0.46 8.24 4.72 9.31
5/12/2021 8:30:00 PM 15.49 59.882 0.461 8.22 6.19 9.23
5/12/2021 8:45:00 PM 15.37 59.666 0.461 8.2 6.11 9.18
5/12/2021 9:00:00 PM 15.23 59.414 0.461 8.19 5.76 9.16
5/12/2021 9:15:00 PM 15.07 59.126 0.461 8.18 6.48 9.15
5/12/2021 9:30:00 PM 14.89 58.802 0.461 8.17 6.44 9.16
5/12/2021 9:45:00 PM 14.7 58.46 0.462 8.16 7.25 9.17
5/12/2021 10:00:00 PM 14.51 58.118 0.462 8.15 6.56 9.2
5/12/2021 10:15:00 PM 14.33 57.794 0.462 8.14 7.87 9.22
5/12/2021 10:30:00 PM 14.15 57.47 0.463 8.13 7.33 9.24
5/12/2021 10:45:00 PM 13.97 57.146 0.463 8.13 8 9.28
5/12/2021 11:00:00 PM 13.78 56.804 0.463 8.12 6.36 9.32
5/12/2021 11:15:00 PM 13.59 56.462 0.464 8.11 6.69 9.35
5/12/2021 11:30:00 PM 13.4 56.12 0.464 8.11 7 9.39
5/12/2021 11:45:00 PM 13.21 55.778 0.465 8.1 6.67 9.44
5/13/2021 12:00:00 AM 13.02 55.436 0.465 8.1 7.38 9.48
5/13/2021 12:15:00 AM 12.83 55.094 0.465 8.09 6.72 9.53
5/13/2021 12:30:00 AM 12.64 54.752 0.465 8.09 6.85 9.58
5/13/2021 12:45:00 AM 12.44 54.392 0.465 8.09 6.78 9.63
5/13/2021 1:00:00 AM 12.25 54.05 0.466 8.08 6.49 9.67
5/13/2021 1:15:00 AM 12.07 53.726 0.466 8.08 6.26 9.72
5/13/2021 1:30:00 AM 11.89 53.402 0.466 8.08 6.15 9.77
5/13/2021 1:45:00 AM 11.72 53.096 0.466 8.07 6.45 9.82
5/13/2021 2:00:00 AM 11.56 52.808 0.466 8.07 5.99 9.86
5/13/2021 2:15:00 AM 11.4 52.52 0.467 8.07 6.21 9.91
5/13/2021 2:30:00 AM 11.25 52.25 0.467 8.07 6.16 9.95
5/13/2021 2:45:00 AM 11.11 51.998 0.467 8.06 6.38 9.99
5/13/2021 3:00:00 AM 10.97 51.746 0.467 8.07 6.12 10.03
5/13/2021 3:15:00 AM 10.84 51.512 0.467 8.06 5.82 10.07
5/13/2021 3:30:00 AM 10.7 51.26 0.467 8.06 6.41 10.11
5/13/2021 3:45:00 AM 10.57 51.026 0.467 8.06 6.18 10.16
5/13/2021 4:00:00 AM 10.45 50.81 0.467 8.05 6.26 10.19
5/13/2021 4:15:00 AM 10.33 50.594 0.467 8.05 6.43 10.23
5/13/2021 4:30:00 AM 10.21 50.378 0.467 8.06 6.86 10.26
5/13/2021 4:45:00 AM 10.1 50.18 0.468 8.06 9.01 10.3
5/13/2021 5:00:00 AM 9.99 49.982 0.467 8.06 8.01 10.34
5/13/2021 5:15:00 AM 9.88 49.784 0.468 8.06 6.87 10.37
5/13/2021 5:30:00 AM 9.78 49.604 0.468 8.07 6.89 10.4
5/13/2021 5:45:00 AM 9.68 49.424 0.468 8.06 6.13 10.43
5/13/2021 6:00:00 AM 9.59 49.262 0.467 8.07 6.43 10.47
5/13/2021 6:15:00 AM 9.5 49.1 0.468 8.07 6.22 10.53
5/13/2021 6:30:00 AM 9.42 48.956 0.468 8.07 5.44 10.6
5/13/2021 6:45:00 AM 9.35 48.83 0.468 8.07 5.87 10.67
5/13/2021 7:00:00 AM 9.28 48.704 0.467 8.09 5.49 10.75
5/13/2021 7:15:00 AM 9.23 48.614 0.468 8.09 5.13 10.82
5/13/2021 7:30:00 AM 9.19 48.542 0.468 8.09 5.13 10.91
5/13/2021 7:45:00 AM 9.17 48.506 0.468 8.11 5.11 11.01
5/13/2021 8:00:00 AM 9.18 48.524 0.468 8.11 4.6 11.13
5/13/2021 8:15:00 AM 9.22 48.596 0.467 8.13 4.94 11.27
5/13/2021 8:30:00 AM 9.27 48.686 0.466 8.14 4.18 11.38
5/13/2021 8:45:00 AM 9.34 48.812 0.466 8.16 4.84 11.5
5/13/2021 9:00:00 AM 9.43 48.974 0.466 8.18 4.48 11.62
5/13/2021 9:15:00 AM 9.54 49.172 0.465 8.2 4.23 11.76
5/13/2021 9:30:00 AM 9.65 49.37 0.465 8.21 5.58 11.88
5/13/2021 9:45:00 AM 9.78 49.604 0.465 8.22 5.19 12
5/13/2021 10:00:00 AM 9.94 49.892 0.464 8.24 3.71 12.12
5/13/2021 10:15:00 AM 10.13 50.234 0.464 8.26 7.91 12.26
5/13/2021 10:30:00 AM 10.35 50.63 0.463 8.29 6.94 12.38
5/13/2021 10:45:00 AM 10.58 51.044 0.462 8.31 6.51 12.49
5/13/2021 11:00:00 AM 10.83 51.494 0.462 8.33 7.34 12.61
5/13/2021 11:15:00 AM 11.1 51.98 0.461 8.35 6.81 12.71
5/13/2021 11:30:00 AM 11.38 52.484 0.46 8.37 6.67 12.8
5/13/2021 11:45:00 AM 11.71 53.078 0.459 8.4 3.77 12.89
5/13/2021 12:00:00 PM 12.04 53.672 0.459 8.42 3.96 12.96
5/13/2021 12:15:00 PM 12.41 54.338 0.458 8.45 5.49 13.03
5/13/2021 12:30:00 PM 12.78 55.004 0.457 8.47 3.85 13.06
5/13/2021 12:45:00 PM 13.17 55.706 0.456 8.49 4.08 13.11
5/13/2021 1:00:00 PM 13.55 56.39 0.455 8.51 4.25 13.09
5/13/2021 1:15:00 PM 13.8 56.84 0.455 8.53 4.52 12.94
5/13/2021 1:30:00 PM 14.19 57.542 0.454 8.54 3.93 12.94
5/13/2021 1:45:00 PM 14.58 58.244 0.453 8.57 3.98 12.99
5/13/2021 2:00:00 PM 15 59 0.453 8.58 4.09 12.91
5/13/2021 2:15:00 PM 15.46 59.828 0.453 8.6 4.37 12.96
5/13/2021 2:30:00 PM 15.91 60.638 0.452 8.62 3.95 12.96
5/13/2021 2:45:00 PM 16.08 60.944 0.452 8.61 4.66 12.7
5/13/2021 3:00:00 PM 16.4 61.52 0.452 8.62 4.26 12.68
5/13/2021 3:15:00 PM 16.71 62.078 0.451 8.63 3.97 12.66
5/13/2021 3:30:00 PM 16.75 62.15 0.451 8.61 4.57 12.27
5/13/2021 3:45:00 PM 16.76 62.168 0.452 8.6 4.41 11.97
5/13/2021 4:00:00 PM 16.85 62.33 0.452 8.6 4.76 11.8
5/13/2021 4:15:00 PM 16.89 62.402 0.452 8.59 4.44 11.58
5/13/2021 4:30:00 PM 16.92 62.456 0.452 8.58 4.61 11.43
5/13/2021 4:45:00 PM 16.89 62.402 0.453 8.55 5.02 11.2
5/13/2021 5:00:00 PM 16.87 62.366 0.454 8.53 4.57 11.03
5/13/2021 5:15:00 PM 16.9 62.42 0.454 8.53 5.05 11.02
5/13/2021 5:30:00 PM 16.88 62.384 0.455 8.52 5.16 11.06
5/13/2021 5:45:00 PM 16.94 62.492 0.455 8.52 5.15 11.04
5/13/2021 6:00:00 PM 16.85 62.33 0.456 8.49 5.36 10.69
5/13/2021 6:15:00 PM 16.83 62.294 0.456 8.46 5.09 10.4
5/13/2021 6:30:00 PM 16.82 62.276 0.457 8.44 5.16 10.26
5/13/2021 6:45:00 PM 16.8 62.24 0.457 8.43 4.55 10.15
5/13/2021 7:00:00 PM 16.72 62.096 0.459 8.39 5.75 9.94
5/13/2021 7:15:00 PM 16.62 61.916 0.46 8.37 5.37 9.79
5/13/2021 7:30:00 PM 16.51 61.718 0.46 8.34 6.3 9.66
5/13/2021 7:45:00 PM 16.38 61.484 0.461 8.31 6.63 9.51
5/13/2021 8:00:00 PM 16.25 61.25 0.462 8.29 6.11 9.37
5/13/2021 8:15:00 PM 16.13 61.034 0.462 8.27 5.22 9.26
5/13/2021 8:30:00 PM 16.01 60.818 0.462 8.24 6.3 9.18
5/13/2021 8:45:00 PM 15.89 60.602 0.463 8.22 5.63 9.12
5/13/2021 9:00:00 PM 15.74 60.332 0.464 8.21 6.6 9.09
5/13/2021 9:15:00 PM 15.56 60.008 0.464 8.19 6.09 9.07
5/13/2021 9:30:00 PM 15.38 59.684 0.464 8.18 6.65 9.06
5/13/2021 9:45:00 PM 15.22 59.396 0.464 8.17 6.4 9.06
5/13/2021 10:00:00 PM 15.07 59.126 0.465 8.15 6.41 9.07
5/13/2021 10:15:00 PM 14.94 58.892 0.464 8.14 6.15 9.07
5/13/2021 10:30:00 PM 14.81 58.658 0.465 8.14 6.75 9.08
5/13/2021 10:45:00 PM 14.66 58.388 0.465 8.13 6.53 9.09
5/13/2021 11:00:00 PM 14.5 58.1 0.465 8.12 6.25 9.12
5/13/2021 11:15:00 PM 14.34 57.812 0.466 8.11 5.72 9.15
5/13/2021 11:30:00 PM 14.18 57.524 0.466 8.11 6.45 9.18
5/13/2021 11:45:00 PM 14.02 57.236 0.467 8.1 6.42 9.21
5/14/2021 12:00:00 AM 13.84 56.912 0.467 8.1 6.35 9.25
5/14/2021 12:15:00 AM 13.66 56.588 0.467 8.1 6.45 9.29
5/14/2021 12:30:00 AM 13.48 56.264 0.468 8.09 7.58 9.33
5/14/2021 12:45:00 AM 13.3 55.94 0.468 8.08 6.39 9.37
5/14/2021 1:00:00 AM 13.11 55.598 0.468 8.08 6.64 9.42
5/14/2021 1:15:00 AM 12.93 55.274 0.469 8.07 6.25 9.46
5/14/2021 1:30:00 AM 12.76 54.968 0.468 8.07 6.18 9.5
5/14/2021 1:45:00 AM 12.59 54.662 0.469 8.07 7.47 9.55
5/14/2021 2:00:00 AM 12.43 54.374 0.469 8.07 6.71 9.59
5/14/2021 2:15:00 AM 12.28 54.104 0.469 8.06 6.63 9.63
5/14/2021 2:30:00 AM 12.12 53.816 0.47 8.05 6.43 9.67
5/14/2021 2:45:00 AM 11.97 53.546 0.469 8.05 7.28 9.72
5/14/2021 3:00:00 AM 11.83 53.294 0.47 8.05 7.05 9.76
5/14/2021 3:15:00 AM 11.69 53.042 0.469 8.05 6.64 9.79
5/14/2021 3:30:00 AM 11.56 52.808 0.47 8.06 6.82 9.83
5/14/2021 3:45:00 AM 11.43 52.574 0.47 8.06 7.61 9.87
5/14/2021 4:00:00 AM 11.31 52.358 0.47 8.06 7 9.91
5/14/2021 4:15:00 AM 11.2 52.16 0.47 8.06 6.55 9.94
5/14/2021 4:30:00 AM 11.09 51.962 0.47 8.05 6.62 9.98
5/14/2021 4:45:00 AM 10.98 51.764 0.47 8.05 6.38 10.01
5/14/2021 5:00:00 AM 10.88 51.584 0.47 8.05 6.25 10.05
5/14/2021 5:15:00 AM 10.77 51.386 0.47 8.06 11.62 10.08
5/14/2021 5:30:00 AM 10.67 51.206 0.47 8.06 6.33 10.11
5/14/2021 5:45:00 AM 10.57 51.026 0.47 8.06 7.32 10.15
5/14/2021 6:00:00 AM 10.47 50.846 0.47 8.06 7.03 10.19
5/14/2021 6:15:00 AM 10.38 50.684 0.47 8.07 6.39 10.25
5/14/2021 6:30:00 AM 10.29 50.522 0.47 8.06 5.94 10.32
5/14/2021 6:45:00 AM 10.21 50.378 0.47 8.07 6.24 10.4
5/14/2021 7:00:00 AM 10.13 50.234 0.47 8.09 6.07 10.48
5/14/2021 7:15:00 AM 10.07 50.126 0.47 8.08 5.64 10.57
5/14/2021 7:30:00 AM 10.03 50.054 0.47 8.09 4.99 10.65
5/14/2021 7:45:00 AM 10 50 0.469 8.1 5.55 10.76
5/14/2021 8:00:00 AM 10 50 0.469 8.12 5.09 10.89
5/14/2021 8:15:00 AM 10.03 50.054 0.469 8.13 4.88 11.03
5/14/2021 8:30:00 AM 10.07 50.126 0.469 8.14 4.41 11.14
5/14/2021 8:45:00 AM 10.13 50.234 0.468 8.15 5.05 11.28
5/14/2021 9:00:00 AM 10.22 50.396 0.468 8.17 5.04 11.41
5/14/2021 9:15:00 AM 10.33 50.594 0.468 8.19 4.51 11.55
5/14/2021 9:30:00 AM 10.45 50.81 0.468 8.21 4.78 11.69
5/14/2021 9:45:00 AM 10.57 51.026 0.467 8.23 4.51 11.81
5/14/2021 10:00:00 AM 10.71 51.278 0.466 8.24 5.45 11.94
5/14/2021 10:15:00 AM 10.89 51.602 0.465 8.27 4.41 12.08
5/14/2021 10:30:00 AM 11.09 51.962 0.465 8.29 4.81 12.22
5/14/2021 10:45:00 AM 11.33 52.394 0.465 8.31 4.73 12.37
5/14/2021 11:00:00 AM 11.57 52.826 0.464 8.33 4.55 12.48
5/14/2021 11:15:00 AM 11.82 53.276 0.463 8.36 4.93 12.6
5/14/2021 11:30:00 AM 12.1 53.78 0.462 8.39 4.26 12.7
5/14/2021 11:45:00 AM 12.4 54.32 0.461 8.41 4.47 12.8
5/14/2021 12:00:00 PM 12.73 54.914 0.46 8.43 4.63 12.86
5/14/2021 12:15:00 PM 13.09 55.562 0.459 8.46 4.61 12.94
5/14/2021 12:30:00 PM 13.47 56.246 0.459 8.47 4.36 13
5/14/2021 12:45:00 PM 13.85 56.93 0.457 8.51 4.39 13.1
5/14/2021 1:00:00 PM 13.98 57.164 0.457 8.52 4.17 12.85
5/14/2021 1:15:00 PM 14.4 57.92 0.457 8.53 4.12 12.9
5/14/2021 1:30:00 PM 14.91 58.838 0.455 8.57 4.16 13.03
5/14/2021 1:45:00 PM 15.17 59.306 0.454 8.57 5.11 12.88
5/14/2021 2:00:00 PM 15.49 59.882 0.454 8.59 4.9 12.77
5/14/2021 2:15:00 PM 15.96 60.728 0.453 8.61 4.93 12.87
5/14/2021 2:30:00 PM 16.33 61.394 0.452 8.62 5.05 12.86
5/14/2021 2:45:00 PM 16.64 61.952 0.451 8.63 5.06 12.79
5/14/2021 3:00:00 PM 16.71 62.078 0.452 8.6 5.23 12.27
5/14/2021 3:15:00 PM 17.04 62.672 0.452 8.62 4.42 12.35
5/14/2021 3:30:00 PM 17.4 63.32 0.451 8.63 4.62 12.45
5/14/2021 3:45:00 PM 17.44 63.392 0.451 8.62 5.06 12.16
5/14/2021 4:00:00 PM 17.42 63.356 0.452 8.6 4.73 11.85
5/14/2021 4:15:00 PM 17.57 63.626 0.452 8.59 4.66 11.7
5/14/2021 4:30:00 PM 17.63 63.734 0.453 8.58 4.71 11.38
5/14/2021 4:45:00 PM 17.57 63.626 0.453 8.55 4.88 10.99
5/14/2021 5:00:00 PM 17.5 63.5 0.454 8.52 4.57 10.67
5/14/2021 5:15:00 PM 17.55 63.59 0.455 8.51 4.85 10.61
5/14/2021 5:30:00 PM 17.65 63.77 0.455 8.5 4.47 10.6
5/14/2021 5:45:00 PM 17.65 63.77 0.456 8.47 4.4 10.34
5/14/2021 6:00:00 PM 17.62 63.716 0.457 8.45 4.57 10.14
5/14/2021 6:15:00 PM 17.68 63.824 0.457 8.44 5.34 10.15
5/14/2021 6:30:00 PM 17.72 63.896 0.457 8.44 5.21 10.04
5/14/2021 6:45:00 PM 17.73 63.914 0.458 8.42 5.2 9.92
5/14/2021 7:00:00 PM 17.74 63.932 0.458 8.41 6.01 9.84
5/14/2021 7:15:00 PM 17.73 63.914 0.459 8.4 4.67 9.73
5/14/2021 7:30:00 PM 17.68 63.824 0.46 8.36 5.11 9.53
5/14/2021 7:45:00 PM 17.6 63.68 0.461 8.33 5.63 9.33
5/14/2021 8:00:00 PM 17.51 63.518 0.461 8.31 4.85 9.15
5/14/2021 8:15:00 PM 17.43 63.374 0.462 8.28 5.02 9
5/14/2021 8:30:00 PM 17.34 63.212 0.462 8.25 6.12 8.87
5/14/2021 8:45:00 PM 17.24 63.032 0.463 8.22 6.23 8.78
5/14/2021 9:00:00 PM 17.12 62.816 0.463 8.19 5.98 8.72
5/14/2021 9:15:00 PM 16.97 62.546 0.464 8.19 6.22 8.68
5/14/2021 9:30:00 PM 16.8 62.24 0.464 8.18 7.24 8.68
5/14/2021 9:45:00 PM 16.61 61.898 0.465 8.17 6.97 8.68
5/14/2021 10:00:00 PM 16.42 61.556 0.465 8.16 7.46 8.69
5/14/2021 10:15:00 PM 16.23 61.214 0.466 8.15 7.88 8.71
5/14/2021 10:30:00 PM 16.03 60.854 0.467 8.14 7.14 8.74
5/14/2021 10:45:00 PM 15.83 60.494 0.467 8.13 8.92 8.78
5/14/2021 11:00:00 PM 15.62 60.116 0.467 8.12 7.62 8.82
5/14/2021 11:15:00 PM 15.41 59.738 0.467 8.12 8.27 8.86
5/14/2021 11:30:00 PM 15.19 59.342 0.468 8.11 7.09 8.91
5/14/2021 11:45:00 PM 14.97 58.946 0.468 8.1 7.1 8.95
5/15/2021 12:00:00 AM 14.76 58.568 0.468 8.1 8.14 9
5/15/2021 12:15:00 AM 14.54 58.172 0.468 8.1 6.91 9.05
5/15/2021 12:30:00 AM 14.33 57.794 0.469 8.09 7.31 9.11
5/15/2021 12:45:00 AM 14.12 57.416 0.469 8.08 7.71 9.15
5/15/2021 1:00:00 AM 13.91 57.038 0.469 8.07 6.81 9.19
5/15/2021 1:15:00 AM 13.71 56.678 0.47 8.07 8.76 9.24
5/15/2021 1:30:00 AM 13.51 56.318 0.47 8.07 7.44 9.28
5/15/2021 1:45:00 AM 13.32 55.976 0.471 8.06 8.58 9.32
5/15/2021 2:00:00 AM 13.14 55.652 0.471 8.06 9.48 9.38
5/15/2021 2:15:00 AM 12.96 55.328 0.471 8.07 8.28 9.43
5/15/2021 2:30:00 AM 12.79 55.022 0.472 8.06 8.16 9.47
5/15/2021 2:45:00 AM 12.63 54.734 0.471 8.05 7.68 9.52
5/15/2021 3:00:00 AM 12.47 54.446 0.471 8.05 8.42 9.57
5/15/2021 3:15:00 AM 12.32 54.176 0.471 8.05 8.71 9.61
5/15/2021 3:30:00 AM 12.18 53.924 0.471 8.05 8.56 9.65
5/15/2021 3:45:00 AM 12.03 53.654 0.471 8.06 9.07 9.7
5/15/2021 4:00:00 AM 11.9 53.42 0.471 8.06 7.86 9.75
5/15/2021 4:15:00 AM 11.77 53.186 0.471 8.05 7.46 9.78
5/15/2021 4:30:00 AM 11.64 52.952 0.471 8.06 8.04 9.82
5/15/2021 4:45:00 AM 11.51 52.718 0.471 8.06 7.92 9.86
5/15/2021 5:00:00 AM 11.39 52.502 0.471 8.06 8.19 9.9
5/15/2021 5:15:00 AM 11.27 52.286 0.471 8.06 8.4 9.94
5/15/2021 5:30:00 AM 11.16 52.088 0.471 8.06 7.51 9.97
5/15/2021 5:45:00 AM 11.05 51.89 0.471 8.05 7.35 10.02
5/15/2021 6:00:00 AM 10.94 51.692 0.471 8.06 7.06 10.06
5/15/2021 6:15:00 AM 10.85 51.53 0.471 8.07 6.98 10.12
5/15/2021 6:30:00 AM 10.76 51.368 0.471 8.06 6.41 10.19
5/15/2021 6:45:00 AM 10.68 51.224 0.472 8.07 7.22 10.28
5/15/2021 7:00:00 AM 10.61 51.098 0.471 8.08 6.61 10.36
5/15/2021 7:15:00 AM 10.56 51.008 0.47 8.1 6.05 10.44
5/15/2021 7:30:00 AM 10.51 50.918 0.47 8.1 5.65 10.54
5/15/2021 7:45:00 AM 10.49 50.882 0.47 8.11 6.09 10.64
5/15/2021 8:00:00 AM 10.49 50.882 0.47 8.12 5.38 10.76
5/15/2021 8:15:00 AM 10.51 50.918 0.47 8.13 5.05 10.9
5/15/2021 8:30:00 AM 10.55 50.99 0.47 8.15 5.47 11.02
5/15/2021 8:45:00 AM 10.6 51.08 0.47 8.16 5.32 11.16
5/15/2021 9:00:00 AM 10.67 51.206 0.469 8.18 4.91 11.31
5/15/2021 9:15:00 AM 10.78 51.404 0.468 8.19 4.87 11.45
5/15/2021 9:30:00 AM 10.89 51.602 0.468 8.21 4.86 11.58
5/15/2021 9:45:00 AM 11.02 51.836 0.468 8.24 5.5 11.7
5/15/2021 10:00:00 AM 11.16 52.088 0.467 8.25 4.93 11.83
5/15/2021 10:15:00 AM 11.35 52.43 0.467 8.27 4.73 11.98
5/15/2021 10:30:00 AM 11.56 52.808 0.466 8.3 4.66 12.13
5/15/2021 10:45:00 AM 11.78 53.204 0.465 8.32 4.93 12.27
5/15/2021 11:00:00 AM 12.02 53.636 0.465 8.34 5.52 12.39
5/15/2021 11:15:00 AM 12.28 54.104 0.464 8.37 5.41 12.52
5/15/2021 11:30:00 AM 12.56 54.608 0.463 8.39 4.86 12.62
5/15/2021 11:45:00 AM 12.88 55.184 0.462 8.41 5.33 12.74
5/15/2021 12:00:00 PM 13.22 55.796 0.461 8.45 4.62 12.89
5/15/2021 12:15:00 PM 13.6 56.48 0.46 8.47 4.63 13.02
5/15/2021 12:30:00 PM 14 57.2 0.459 8.5 4.84 13.15
5/15/2021 12:45:00 PM 14.21 57.578 0.458 8.51 4.98 13.07
5/15/2021 1:00:00 PM 14.44 57.992 0.457 8.53 4.85 12.94
5/15/2021 1:15:00 PM 14.71 58.478 0.457 8.56 4.75 12.83
5/15/2021 1:30:00 PM 15.07 59.126 0.456 8.56 5.01 12.74
5/15/2021 1:45:00 PM 15.19 59.342 0.456 8.56 4.82 12.54
5/15/2021 2:00:00 PM 15.52 59.936 0.455 8.59 4.8 12.65
5/15/2021 2:15:00 PM 15.93 60.674 0.454 8.62 5.12 12.81
5/15/2021 2:30:00 PM 16.33 61.394 0.453 8.63 4.88 12.91
5/15/2021 2:45:00 PM 16.58 61.844 0.453 8.64 4.58 12.87
5/15/2021 3:00:00 PM 16.71 62.078 0.453 8.65 4.98 12.75
5/15/2021 3:15:00 PM 16.85 62.33 0.453 8.64 4.67 12.52
5/15/2021 3:30:00 PM 17 62.6 0.453 8.63 4.71 12.36
5/15/2021 3:45:00 PM 17.23 63.014 0.452 8.64 4.57 12.37
5/15/2021 4:00:00 PM 17.39 63.302 0.452 8.64 5.44 12.32
5/15/2021 4:15:00 PM 17.39 63.302 0.453 8.63 5.64 12.1
5/15/2021 4:30:00 PM 17.4 63.32 0.453 8.6 5.35 11.88
5/15/2021 4:45:00 PM 17.4 63.32 0.454 8.59 5.14 11.59
5/15/2021 5:00:00 PM 17.38 63.284 0.455 8.56 5.69 11.25
5/15/2021 5:15:00 PM 17.33 63.194 0.456 8.54 5.45 10.98
5/15/2021 5:30:00 PM 17.26 63.068 0.457 8.51 5.51 10.87
5/15/2021 5:45:00 PM 17.16 62.888 0.459 8.49 5.63 10.73
5/15/2021 6:00:00 PM 17.09 62.762 0.459 8.48 5.59 10.65
5/15/2021 6:15:00 PM 17 62.6 0.46 8.44 10.97 10.46
5/15/2021 6:30:00 PM 16.94 62.492 0.461 8.42 11.03 10.26
5/15/2021 6:45:00 PM 16.87 62.366 0.462 8.4 6.12 10.05
5/15/2021 7:00:00 PM 16.8 62.24 0.462 8.37 6.2 9.8
5/15/2021 7:15:00 PM 16.77 62.186 0.463 8.34 6.33 9.61
5/15/2021 7:30:00 PM 16.76 62.168 0.463 8.31 5.69 9.42
5/15/2021 7:45:00 PM 16.77 62.186 0.464 8.27 6.16 9.22
5/15/2021 8:00:00 PM 16.78 62.204 0.465 8.24 5.89 9.04
5/15/2021 8:15:00 PM 16.78 62.204 0.466 8.21 6.2 8.89
5/15/2021 8:30:00 PM 16.78 62.204 0.466 8.19 9.74 8.77
5/15/2021 8:45:00 PM 16.77 62.186 0.466 8.17 7.92 8.69
5/15/2021 9:00:00 PM 16.73 62.114 0.466 8.15 7.35 8.65
5/15/2021 9:15:00 PM 16.65 61.97 0.466 8.14 7.41 8.64
5/15/2021 9:30:00 PM 16.54 61.772 0.466 8.14 8.26 8.64
5/15/2021 9:45:00 PM 16.42 61.556 0.467 8.12 7.64 8.65
5/15/2021 10:00:00 PM 16.27 61.286 0.467 8.13 7.34 8.67
5/15/2021 10:15:00 PM 16.11 60.998 0.467 8.11 7.48 8.7
5/15/2021 10:30:00 PM 15.95 60.71 0.467 8.11 7.26 8.72
5/15/2021 10:45:00 PM 15.79 60.422 0.467 8.1 8.07 8.75
5/15/2021 11:00:00 PM 15.63 60.134 0.468 8.1 8.03 8.78
5/15/2021 11:15:00 PM 15.47 59.846 0.468 8.09 7.85 8.81
5/15/2021 11:30:00 PM 15.32 59.576 0.468 8.09 8.14 8.83
5/15/2021 11:45:00 PM 15.17 59.306 0.469 8.08 8 8.87
5/16/2021 12:00:00 AM 15.01 59.018 0.469 8.09 7.74 8.91
5/16/2021 12:15:00 AM 14.85 58.73 0.469 8.08 8.52 8.94
5/16/2021 12:30:00 AM 14.68 58.424 0.47 8.08 8.17 8.99
5/16/2021 12:45:00 AM 14.52 58.136 0.47 8.07 8.68 9.03
5/16/2021 1:00:00 AM 14.36 57.848 0.471 8.06 7.91 9.07
5/16/2021 1:15:00 AM 14.21 57.578 0.471 8.07 8.04 9.11
5/16/2021 1:30:00 AM 14.06 57.308 0.472 8.06 8.5 9.15
5/16/2021 1:45:00 AM 13.92 57.056 0.471 8.06 8.04 9.18
5/16/2021 2:00:00 AM 13.77 56.786 0.472 8.06 7.74 9.23
5/16/2021 2:15:00 AM 13.64 56.552 0.472 8.04 7.98 9.26
5/16/2021 2:30:00 AM 13.5 56.3 0.472 8.04 8.81 9.3
5/16/2021 2:45:00 AM 13.38 56.084 0.472 8.04 8.47 9.34
5/16/2021 3:00:00 AM 13.25 55.85 0.472 8.04 8.52 9.37
5/16/2021 3:15:00 AM 13.14 55.652 0.472 8.05 7.7 9.4
5/16/2021 3:30:00 AM 13.03 55.454 0.472 8.05 8.84 9.44
5/16/2021 3:45:00 AM 12.91 55.238 0.472 8.05 8.27 9.47
5/16/2021 4:00:00 AM 12.8 55.04 0.472 8.05 8.05 9.5
5/16/2021 4:15:00 AM 12.69 54.842 0.472 8.05 7.37 9.54
5/16/2021 4:30:00 AM 12.58 54.644 0.472 8.05 8.67 9.57
5/16/2021 4:45:00 AM 12.47 54.446 0.472 8.06 8.72 9.6
5/16/2021 5:00:00 AM 12.37 54.266 0.472 8.05 8.89 9.63
5/16/2021 5:15:00 AM 12.27 54.086 0.472 8.05 9.7 9.66
5/16/2021 5:30:00 AM 12.17 53.906 0.472 8.06 8.22 9.69
5/16/2021 5:45:00 AM 12.08 53.744 0.472 8.06 8.26 9.72
5/16/2021 6:00:00 AM 11.99 53.582 0.472 8.07 8.12 9.75
5/16/2021 6:15:00 AM 11.91 53.438 0.472 8.07 8.37 9.81
5/16/2021 6:30:00 AM 11.84 53.312 0.472 8.07 8.27 9.92
5/16/2021 6:45:00 AM 11.79 53.222 0.472 8.08 8.13 10.03
5/16/2021 7:00:00 AM 11.75 53.15 0.471 8.09 7.26 10.14
5/16/2021 7:15:00 AM 11.72 53.096 0.472 8.11 6.94 10.27
5/16/2021 7:30:00 AM 11.69 53.042 0.471 8.13 7.46 10.42
5/16/2021 7:45:00 AM 11.7 53.06 0.471 8.13 6.66 10.62
5/16/2021 8:00:00 AM 11.7 53.06 0.471 8.16 6.33 10.78
5/16/2021 8:15:00 AM 11.73 53.114 0.47 8.18 6.08 11
5/16/2021 8:30:00 AM 11.77 53.186 0.47 8.2 5.61 11.19
5/16/2021 8:45:00 AM 11.81 53.258 0.469 8.22 8.38 11.35
5/16/2021 9:00:00 AM 11.86 53.348 0.469 8.24 6.43 11.48
5/16/2021 9:15:00 AM 11.9 53.42 0.468 8.26 6.89 11.6
5/16/2021 9:30:00 AM 11.96 53.528 0.468 8.28 6.51 11.72
5/16/2021 9:45:00 AM 12.03 53.654 0.467 8.3 5.87 11.87
5/16/2021 10:00:00 AM 12.1 53.78 0.467 8.31 5.53 12
5/16/2021 10:15:00 AM 12.17 53.906 0.466 8.34 5.45 12.12
5/16/2021 10:30:00 AM 12.24 54.032 0.466 8.36 5.25 12.19
5/16/2021 10:45:00 AM 12.32 54.176 0.466 8.37 6.37 12.27
5/16/2021 11:00:00 AM 12.4 54.32 0.466 8.39 4.68 12.38
5/16/2021 11:15:00 AM 12.5 54.5 0.465 8.41 4.85 12.49
5/16/2021 11:30:00 AM 12.62 54.716 0.464 8.44 5.24 12.63
5/16/2021 11:45:00 AM 12.73 54.914 0.463 8.46 5.35 12.69
5/16/2021 12:00:00 PM 12.84 55.112 0.462 8.47 4.83 12.72
5/16/2021 12:15:00 PM 13 55.4 0.461 8.5 4.85 12.87
5/16/2021 12:30:00 PM 13.13 55.634 0.461 8.52 4.96 12.89
5/16/2021 12:45:00 PM 13.31 55.958 0.46 8.54 5.51 13
5/16/2021 1:00:00 PM 13.45 56.21 0.46 8.54 5.52 12.97
5/16/2021 1:15:00 PM 13.66 56.588 0.459 8.57 5.26 13.01
5/16/2021 1:30:00 PM 13.84 56.912 0.457 8.58 5.82 13.09
5/16/2021 1:45:00 PM 13.99 57.182 0.457 8.59 5.39 13.01
5/16/2021 2:00:00 PM 14.17 57.506 0.457 8.61 6.46 12.99
5/16/2021 2:15:00 PM 14.43 57.974 0.455 8.63 6.07 13.14
5/16/2021 2:30:00 PM 14.61 58.298 0.455 8.64 5.17 13.12
5/16/2021 2:45:00 PM 14.72 58.496 0.455 8.64 5.57 12.94
5/16/2021 3:00:00 PM 14.81 58.658 0.455 8.63 5.58 12.74
5/16/2021 3:15:00 PM 14.95 58.91 0.455 8.63 5.78 12.69
5/16/2021 3:30:00 PM 15.05 59.09 0.455 8.63 5.9 12.53
5/16/2021 3:45:00 PM 15.12 59.216 0.455 8.62 5.56 12.31
5/16/2021 4:00:00 PM 15.17 59.306 0.456 8.6 6.37 12.04
5/16/2021 4:15:00 PM 15.25 59.45 0.456 8.58 6.24 11.86
5/16/2021 4:30:00 PM 15.31 59.558 0.457 8.55 8.06 11.62
5/16/2021 4:45:00 PM 15.35 59.63 0.458 8.53 6.32 11.35
5/16/2021 5:00:00 PM 15.37 59.666 0.458 8.51 6.93 11.06
5/16/2021 5:15:00 PM 15.39 59.702 0.459 8.48 6.26 10.82
5/16/2021 5:30:00 PM 15.42 59.756 0.459 8.46 6.4 10.66
5/16/2021 5:45:00 PM 15.45 59.81 0.46 8.44 7.2 10.5
5/16/2021 6:00:00 PM 15.47 59.846 0.46 8.43 6.51 10.37
5/16/2021 6:15:00 PM 15.49 59.882 0.46 8.42 6.54 10.3
5/16/2021 6:30:00 PM 15.51 59.918 0.461 8.41 6.1 10.21
5/16/2021 6:45:00 PM 15.52 59.936 0.462 8.4 6.41 10.11
5/16/2021 7:00:00 PM 15.53 59.954 0.462 8.37 6.76 9.98
5/16/2021 7:15:00 PM 15.55 59.99 0.463 8.35 6.64 9.88
5/16/2021 7:30:00 PM 15.54 59.972 0.464 8.33 6.31 9.76
5/16/2021 7:45:00 PM 15.5 59.9 0.464 8.3 6.98 9.6
5/16/2021 8:00:00 PM 15.45 59.81 0.465 8.28 6.42 9.48
5/16/2021 8:15:00 PM 15.39 59.702 0.465 8.26 8.03 9.37
5/16/2021 8:30:00 PM 15.31 59.558 0.465 8.24 7.24 9.3
5/16/2021 8:45:00 PM 15.21 59.378 0.466 8.22 7.72 9.25
5/16/2021 9:00:00 PM 15.11 59.198 0.466 8.2 7.88 9.21
5/16/2021 9:15:00 PM 15 59 0.466 8.19 7.59 9.19
5/16/2021 9:30:00 PM 14.88 58.784 0.467 8.18 7.6 9.18
5/16/2021 9:45:00 PM 14.76 58.568 0.467 8.17 7.97 9.17
5/16/2021 10:00:00 PM 14.63 58.334 0.468 8.16 8.1 9.18
5/16/2021 10:15:00 PM 14.49 58.082 0.468 8.15 8.39 9.18
5/16/2021 10:30:00 PM 14.35 57.83 0.469 8.14 10.1 9.19
5/16/2021 10:45:00 PM 14.2 57.56 0.469 8.13 7.88 9.2
5/16/2021 11:00:00 PM 14.05 57.29 0.469 8.12 8.48 9.23
5/16/2021 11:15:00 PM 13.91 57.038 0.469 8.11 8.41 9.27
5/16/2021 11:30:00 PM 13.78 56.804 0.47 8.11 9.06 9.3
5/16/2021 11:45:00 PM 13.64 56.552 0.47 8.11 8.26 9.33
5/17/2021 12:00:00 AM 13.51 56.318 0.47 8.1 5.22 9.35
5/17/2021 12:15:00 AM 13.39 56.102 0.47 8.1 8.94 9.37
5/17/2021 12:30:00 AM 13.27 55.886 0.47 8.09 8.61 9.4
5/17/2021 12:45:00 AM 13.14 55.652 0.471 8.09 9.68 9.43
5/17/2021 1:00:00 AM 13.02 55.436 0.471 8.08 10.3 9.46
5/17/2021 1:15:00 AM 12.9 55.22 0.471 8.08 8.38 9.49
5/17/2021 1:30:00 AM 12.78 55.004 0.471 8.08 9.05 9.51
5/17/2021 1:45:00 AM 12.66 54.788 0.472 8.07 8.27 9.55
5/17/2021 2:00:00 AM 12.56 54.608 0.472 8.08 8.89 9.57
5/17/2021 2:15:00 AM 12.46 54.428 0.472 8.08 8.84 9.61
5/17/2021 2:30:00 AM 12.35 54.23 0.472 8.07 10.06 9.63
5/17/2021 2:45:00 AM 12.25 54.05 0.472 8.07 8.62 9.66
5/17/2021 3:00:00 AM 12.15 53.87 0.473 8.06 9.14 9.69
5/17/2021 3:15:00 AM 12.04 53.672 0.473 8.07 5.55 9.73
5/17/2021 3:30:00 AM 11.94 53.492 0.473 8.06 9.06 9.76
5/17/2021 3:45:00 AM 11.83 53.294 0.473 8.07 9.7 9.79
5/17/2021 4:00:00 AM 11.72 53.096 0.473 8.07 8.51 9.83
5/17/2021 4:15:00 AM 11.62 52.916 0.473 8.07 9.16 9.85
5/17/2021 4:30:00 AM 11.51 52.718 0.472 8.07 10 9.88
5/17/2021 4:45:00 AM 11.41 52.538 0.473 8.08 9.16 9.92
5/17/2021 5:00:00 AM 11.31 52.358 0.473 8.08 8.39 9.96
5/17/2021 5:15:00 AM 11.21 52.178 0.473 8.07 8.72 9.98
5/17/2021 5:30:00 AM 11.12 52.016 0.473 8.07 10.01 10.01
5/17/2021 5:45:00 AM 11.04 51.872 0.473 8.07 7.18 10.03
5/17/2021 6:00:00 AM 10.96 51.728 0.473 8.07 9.02 10.08
5/17/2021 6:15:00 AM 10.88 51.584 0.473 8.08 9.17 10.13
5/17/2021 6:30:00 AM 10.81 51.458 0.473 8.08 8.42 10.21
5/17/2021 6:45:00 AM 10.75 51.35 0.473 8.09 8.91 10.28
5/17/2021 7:00:00 AM 10.69 51.242 0.473 8.1 6.67 10.37
5/17/2021 7:15:00 AM 10.65 51.17 0.472 8.1 7.15 10.46
5/17/2021 7:30:00 AM 10.62 51.116 0.473 8.1 6.78 10.59
5/17/2021 7:45:00 AM 10.62 51.116 0.472 8.13 6.34 10.77
5/17/2021 8:00:00 AM 10.65 51.17 0.472 8.15 5.8 10.94
5/17/2021 8:15:00 AM 10.69 51.242 0.471 8.17 6.13 11.12
5/17/2021 8:30:00 AM 10.74 51.332 0.472 8.19 5.99 11.26
5/17/2021 8:45:00 AM 10.78 51.404 0.47 8.2 6.11 11.34
5/17/2021 9:00:00 AM 10.85 51.53 0.471 8.22 6.86 11.48
5/17/2021 9:15:00 AM 10.96 51.728 0.47 8.24 5.89 11.63
5/17/2021 9:30:00 AM 11.07 51.926 0.469 8.26 5.12 11.78
5/17/2021 9:45:00 AM 11.2 52.16 0.469 8.28 5.55 11.92
5/17/2021 10:00:00 AM 11.35 52.43 0.469 8.3 5.89 12.09
5/17/2021 10:15:00 AM 11.49 52.682 0.468 8.32 6.32 12.27
5/17/2021 10:30:00 AM 11.66 52.988 0.468 8.35 6.17 12.44
5/17/2021 10:45:00 AM 11.84 53.312 0.466 8.38 6.11 12.62
5/17/2021 11:00:00 AM 12.02 53.636 0.466 8.4 6.2 12.76
5/17/2021 11:15:00 AM 12.24 54.032 0.465 8.43 6.23 12.9
5/17/2021 11:30:00 AM 12.48 54.464 0.464 8.46 5.47 13.02
5/17/2021 11:45:00 AM 12.68 54.824 0.463 8.48 5.48 13.11
5/17/2021 12:00:00 PM 12.93 55.274 0.462 8.51 5.09 13.21
5/17/2021 12:15:00 PM 13.17 55.706 0.461 8.53 5.63 13.26
5/17/2021 12:30:00 PM 13.5 56.3 0.46 8.55 5.49 13.3
5/17/2021 12:45:00 PM 13.86 56.948 0.46 8.58 5.29 13.35
5/17/2021 1:00:00 PM 14.22 57.596 0.458 8.6 6.1 13.36
5/17/2021 1:15:00 PM 14.63 58.334 0.457 8.62 5.81 13.41
5/17/2021 1:30:00 PM 14.9 58.82 0.457 8.63 8.76 13.3
5/17/2021 1:45:00 PM 15.23 59.414 0.456 8.65 6.17 13.24
5/17/2021 2:00:00 PM 15.53 59.954 0.456 8.65 5.16 13.13
5/17/2021 2:15:00 PM 15.95 60.71 0.455 8.67 5.83 13.16
5/17/2021 2:30:00 PM 16.32 61.376 0.454 8.67 6.31 13.12
5/17/2021 2:45:00 PM 16.71 62.078 0.454 8.69 5.37 13.07
5/17/2021 3:00:00 PM 17.01 62.618 0.454 8.69 5.42 12.92
5/17/2021 3:15:00 PM 17.3 63.14 0.453 8.68 5.56 12.76
5/17/2021 3:30:00 PM 17.45 63.41 0.454 8.67 6.5 12.48
5/17/2021 3:45:00 PM 17.68 63.824 0.454 8.67 5.97 12.36
5/17/2021 4:00:00 PM 17.84 64.112 0.454 8.66 6.18 12.21
5/17/2021 4:15:00 PM 17.98 64.364 0.455 8.65 6.37 12.07
5/17/2021 4:30:00 PM 18.09 64.562 0.455 8.63 6.87 11.86
5/17/2021 4:45:00 PM 18.16 64.688 0.455 8.62 6.36 11.6
5/17/2021 5:00:00 PM 18.24 64.832 0.456 8.6 6.31 11.38
5/17/2021 5:15:00 PM 18.25 64.85 0.457 8.58 6.35 11.14
5/17/2021 5:30:00 PM 18.27 64.886 0.457 8.56 6.33 10.97
5/17/2021 5:45:00 PM 18.24 64.832 0.458 8.54 9.75 10.77
5/17/2021 6:00:00 PM 18.18 64.724 0.459 8.51 6.15 10.49
5/17/2021 6:15:00 PM 18.11 64.598 0.46 8.48 6.04 10.2
5/17/2021 6:30:00 PM 18.03 64.454 0.46 8.45 5.8 9.92
5/17/2021 6:45:00 PM 17.95 64.31 0.461 8.42 6 9.71
5/17/2021 7:00:00 PM 17.88 64.184 0.462 8.4 6.05 9.53
5/17/2021 7:15:00 PM 17.81 64.058 0.463 8.37 5.63 9.35
5/17/2021 7:30:00 PM 17.75 63.95 0.464 8.34 6.52 9.16
5/17/2021 7:45:00 PM 17.68 63.824 0.465 8.31 6.41 8.99
5/17/2021 8:00:00 PM 17.62 63.716 0.465 8.27 6.47 8.85
5/17/2021 8:15:00 PM 17.55 63.59 0.466 8.24 6.14 8.73
5/17/2021 8:30:00 PM 17.48 63.464 0.467 8.23 6.29 8.63
5/17/2021 8:45:00 PM 17.39 63.302 0.467 8.2 7.51 8.56
5/17/2021 9:00:00 PM 17.29 63.122 0.467 8.2 7.54 8.52
5/17/2021 9:15:00 PM 17.19 62.942 0.467 8.18 5.91 8.49
5/17/2021 9:30:00 PM 17.08 62.744 0.468 8.18 7.76 8.47
5/17/2021 9:45:00 PM 16.96 62.528 0.467 8.16 7.87 8.47
5/17/2021 10:00:00 PM 16.83 62.294 0.468 8.15 8.45 8.47
5/17/2021 10:15:00 PM 16.69 62.042 0.468 8.14 8.6 8.48
5/17/2021 10:30:00 PM 16.53 61.754 0.469 8.14 9.03 8.5
5/17/2021 10:45:00 PM 16.36 61.448 0.469 8.12 5.03 8.53
5/17/2021 11:00:00 PM 16.19 61.142 0.469 8.11 8.74 8.55
5/17/2021 11:15:00 PM 16 60.8 0.471 8.11 8.92 8.58
5/17/2021 11:30:00 PM 15.81 60.458 0.471 8.1 9.09 8.62
5/17/2021 11:45:00 PM 15.61 60.098 0.471 8.09 10.34 8.68
5/18/2021 12:00:00 AM 15.4 59.72 0.472 8.09 9.89 8.73
5/18/2021 12:15:00 AM 15.18 59.324 0.472 8.09 9.1 8.8
5/18/2021 12:30:00 AM 14.97 58.946 0.473 8.08 9.32 8.87
5/18/2021 12:45:00 AM 14.75 58.55 0.473 8.07 9.63 8.93
5/18/2021 1:00:00 AM 14.54 58.172 0.474 8.08 8.73 8.97
5/18/2021 1:15:00 AM 14.34 57.812 0.474 8.07 8.18 9.04
5/18/2021 1:30:00 AM 14.14 57.452 0.475 8.08 9.29 9.09
5/18/2021 1:45:00 AM 13.95 57.11 0.475 8.07 8.71 9.14
5/18/2021 2:00:00 AM 13.77 56.786 0.475 8.06 8.57 9.19
5/18/2021 2:15:00 AM 13.6 56.48 0.475 8.05 8.12 9.24
5/18/2021 2:30:00 AM 13.44 56.192 0.476 8.05 8.87 9.29
5/18/2021 2:45:00 AM 13.29 55.922 0.476 8.05 8.92 9.34
5/18/2021 3:00:00 AM 13.14 55.652 0.476 8.05 8.32 9.39
5/18/2021 3:15:00 AM 13 55.4 0.476 8.06 8.98 9.43
5/18/2021 3:30:00 AM 12.86 55.148 0.476 8.06 8.42 9.47
5/18/2021 3:45:00 AM 12.73 54.914 0.477 8.06 8.88 9.5
5/18/2021 4:00:00 AM 12.61 54.698 0.477 8.05 9.27 9.54
5/18/2021 4:15:00 AM 12.49 54.482 0.477 8.06 8.07 9.58
5/18/2021 4:30:00 AM 12.37 54.266 0.477 8.06 7.93 9.62
5/18/2021 4:45:00 AM 12.26 54.068 0.477 8.05 8.9 9.64
5/18/2021 5:00:00 AM 12.15 53.87 0.477 8.06 7.91 9.68
5/18/2021 5:15:00 AM 12.05 53.69 0.476 8.05 8.72 9.71
5/18/2021 5:30:00 AM 11.95 53.51 0.477 8.06 7.87 9.74
5/18/2021 5:45:00 AM 11.85 53.33 0.477 8.06 8.09 9.78
5/18/2021 6:00:00 AM 11.76 53.168 0.477 8.06 8.35 9.82
5/18/2021 6:15:00 AM 11.68 53.024 0.477 8.06 8.13 9.88
5/18/2021 6:30:00 AM 11.6 52.88 0.477 8.05 8.41 9.95
5/18/2021 6:45:00 AM 11.53 52.754 0.477 8.07 7.39 10.03
5/18/2021 7:00:00 AM 11.46 52.628 0.476 8.08 7.31 10.12
5/18/2021 7:15:00 AM 11.41 52.538 0.476 8.09 7.13 10.2
5/18/2021 7:30:00 AM 11.36 52.448 0.476 8.09 6.89 10.3
5/18/2021 7:45:00 AM 11.34 52.412 0.476 8.11 6.87 10.41
5/18/2021 8:00:00 AM 11.33 52.394 0.475 8.12 6.57 10.53
5/18/2021 8:15:00 AM 11.34 52.412 0.475 8.13 6.06 10.67
5/18/2021 8:30:00 AM 11.37 52.466 0.475 8.15 5.81 10.81
5/18/2021 8:45:00 AM 11.42 52.556 0.475 8.17 6.13 10.95
5/18/2021 9:00:00 AM 11.48 52.664 0.474 8.19 6.21 11.08
5/18/2021 9:15:00 AM 11.57 52.826 0.474 8.2 6.37 11.23
5/18/2021 9:30:00 AM 11.67 53.006 0.473 8.21 6.4 11.37
5/18/2021 9:45:00 AM 11.79 53.222 0.473 8.23 5.23 11.48
5/18/2021 10:00:00 AM 11.93 53.474 0.473 8.25 6.67 11.63
5/18/2021 10:15:00 AM 12.11 53.798 0.472 8.27 5.67 11.78
5/18/2021 10:30:00 AM 12.31 54.158 0.471 8.29 5.26 11.93
5/18/2021 10:45:00 AM 12.52 54.536 0.471 8.31 6.05 12.09
5/18/2021 11:00:00 AM 12.75 54.95 0.47 8.34 7.6 12.24
5/18/2021 11:15:00 AM 12.99 55.382 0.469 8.36 6.1 12.36
5/18/2021 11:30:00 AM 13.26 55.868 0.469 8.39 5.36 12.5
5/18/2021 11:45:00 AM 13.55 56.39 0.468 8.41 5.32 12.58
5/18/2021 12:00:00 PM 13.84 56.912 0.467 8.44 7 12.68
5/18/2021 12:15:00 PM 14.17 57.506 0.466 8.47 6.24 12.76
5/18/2021 12:30:00 PM 14.53 58.154 0.465 8.49 11.27 12.84
5/18/2021 12:45:00 PM 14.89 58.802 0.464 8.51 6.34 12.88
5/18/2021 1:00:00 PM 15.27 59.486 0.463 8.53 5.32 12.91
5/18/2021 1:15:00 PM 15.68 60.224 0.462 8.56 5.73 12.93
5/18/2021 1:30:00 PM 16.09 60.962 0.461 8.57 5.76 12.91
5/18/2021 1:45:00 PM 16.5 61.7 0.46 8.59 7.57 12.89
5/18/2021 2:00:00 PM 16.91 62.438 0.46 8.6 6.33 12.87
5/18/2021 2:15:00 PM 17.32 63.176 0.459 8.61 5.91 12.86
5/18/2021 2:30:00 PM 17.72 63.896 0.459 8.63 6.56 12.84
5/18/2021 2:45:00 PM 18.1 64.58 0.458 8.65 6.13 12.8
5/18/2021 3:00:00 PM 18.42 65.156 0.458 8.66 6.34 12.73
5/18/2021 3:15:00 PM 18.7 65.66 0.457 8.66 6.94 12.6
5/18/2021 3:30:00 PM 18.96 66.128 0.458 8.65 6.67 12.47
5/18/2021 3:45:00 PM 19.12 66.416 0.458 8.66 6.94 12.23
5/18/2021 4:00:00 PM 19.21 66.578 0.458 8.62 6.81 11.82
5/18/2021 4:15:00 PM 19.36 66.848 0.458 8.62 6.75 11.71
5/18/2021 4:30:00 PM 19.47 67.046 0.46 8.6 6.7 11.45
5/18/2021 4:45:00 PM 19.51 67.118 0.459 8.58 7.3 11.15
5/18/2021 5:00:00 PM 19.53 67.154 0.46 8.55 6.69 10.84
5/18/2021 5:15:00 PM 19.51 67.118 0.461 8.53 7.26 10.56
5/18/2021 5:30:00 PM 19.51 67.118 0.462 8.51 6.26 10.33
5/18/2021 5:45:00 PM 19.5 67.1 0.462 8.49 6.38 10.09
5/18/2021 6:00:00 PM 19.43 66.974 0.463 8.45 8.07 9.84
5/18/2021 6:15:00 PM 19.37 66.866 0.465 8.42 6.95 9.57
5/18/2021 6:30:00 PM 19.3 66.74 0.465 8.38 6.08 9.32
5/18/2021 6:45:00 PM 19.22 66.596 0.467 8.36 7.18 9.1
5/18/2021 7:00:00 PM 19.13 66.434 0.468 8.32 6.83 8.95
5/18/2021 7:15:00 PM 19 66.2 0.468 8.3 7.99 8.83
5/18/2021 7:30:00 PM 18.86 65.948 0.469 8.27 6.94 8.7
5/18/2021 7:45:00 PM 18.71 65.67799 0.469 8.25 6.99 8.59
5/18/2021 8:00:00 PM 18.58 65.444 0.47 8.22 6.85 8.5
5/18/2021 8:15:00 PM 18.47 65.246 0.47 8.2 7.34 8.42
5/18/2021 8:30:00 PM 18.37 65.066 0.47 8.19 7.5 8.35
5/18/2021 8:45:00 PM 18.28 64.904 0.47 8.17 6.94 8.29
5/18/2021 9:00:00 PM 18.19 64.742 0.47 8.15 7.2 8.23
5/18/2021 9:15:00 PM 18.11 64.598 0.47 8.15 8.43 8.18
5/18/2021 9:30:00 PM 18.01 64.418 0.471 8.13 7.87 8.15
5/18/2021 9:45:00 PM 17.91 64.238 0.471 8.12 8.7 8.14
5/18/2021 10:00:00 PM 17.79 64.022 0.471 8.12 8.34 8.15
5/18/2021 10:15:00 PM 17.66 63.788 0.472 8.11 8.8 8.18
5/18/2021 10:30:00 PM 17.51 63.518 0.472 8.1 8.82 8.22
5/18/2021 10:45:00 PM 17.34 63.212 0.472 8.1 9.27 8.25
5/18/2021 11:00:00 PM 17.17 62.906 0.473 8.09 9.56 8.29
5/18/2021 11:15:00 PM 16.99 62.582 0.474 8.09 8.98 8.32
5/18/2021 11:30:00 PM 16.8 62.24 0.475 8.08 9.42 8.36
5/18/2021 11:45:00 PM 16.61 61.898 0.476 8.08 9.15 8.41
5/19/2021 12:00:00 AM 16.41 61.538 0.477 8.08 8.81 8.48
5/19/2021 12:15:00 AM 16.2 61.16 0.478 8.09 8.26 8.54
5/19/2021 12:30:00 AM 16 60.8 0.479 8.07 10.08 8.6
5/19/2021 12:45:00 AM 15.79 60.422 0.48 8.08 10.81 8.67
5/19/2021 1:00:00 AM 15.58 60.044 0.481 8.07 9.6 8.72
5/19/2021 1:15:00 AM 15.37 59.666 0.481 8.07 10.42 8.78
5/19/2021 1:30:00 AM 15.17 59.306 0.482 8.07 9.53 8.84
5/19/2021 1:45:00 AM 14.97 58.946 0.482 8.06 6.96 8.89
5/19/2021 2:00:00 AM 14.79 58.622 0.482 8.07 5.57 8.94
5/19/2021 2:15:00 AM 14.61 58.298 0.482 8.06 9.83 8.99
5/19/2021 2:30:00 AM 14.44 57.992 0.482 8.04 10.18 9.04
5/19/2021 2:45:00 AM 14.28 57.704 0.482 8.05 10.21 9.1
5/19/2021 3:00:00 AM 14.13 57.434 0.482 8.05 9.75 9.14
5/19/2021 3:15:00 AM 13.99 57.182 0.481 8.05 10.05 9.18
5/19/2021 3:30:00 AM 13.85 56.93 0.481 8.06 10.03 9.22
5/19/2021 3:45:00 AM 13.72 56.696 0.48 8.06 10.19 9.27
5/19/2021 4:00:00 AM 13.59 56.462 0.48 8.05 10.29 9.3
5/19/2021 4:15:00 AM 13.47 56.246 0.479 8.06 10.47 9.34
5/19/2021 4:30:00 AM 13.35 56.03 0.479 8.05 9.77 9.38
5/19/2021 4:45:00 AM 13.24 55.832 0.48 8.05 10.11 9.42
5/19/2021 5:00:00 AM 13.13 55.634 0.48 8.06 9.75 9.45
5/19/2021 5:15:00 AM 13.03 55.454 0.48 8.06 10.44 9.47
5/19/2021 5:30:00 AM 12.93 55.274 0.479 8.06 10.45 9.5
5/19/2021 5:45:00 AM 12.83 55.094 0.479 8.05 9.88 9.53
5/19/2021 6:00:00 AM 12.74 54.932 0.479 8.06 6.36 9.58
5/19/2021 6:15:00 AM 12.65 54.77 0.479 8.07 9.29 9.64
5/19/2021 6:30:00 AM 12.57 54.626 0.479 8.06 7.52 9.71
5/19/2021 6:45:00 AM 12.5 54.5 0.479 8.08 10.87 9.79
5/19/2021 7:00:00 AM 12.44 54.392 0.479 8.08 7.58 9.87
5/19/2021 7:15:00 AM 12.38 54.284 0.478 8.08 7.46 9.95
5/19/2021 7:30:00 AM 12.34 54.212 0.478 8.09 7.23 10.04
5/19/2021 7:45:00 AM 12.31 54.158 0.478 8.1 7.06 10.14
5/19/2021 8:00:00 AM 12.3 54.14 0.478 8.11 6.65 10.26
5/19/2021 8:15:00 AM 12.32 54.176 0.477 8.14 6.61 10.41
5/19/2021 8:30:00 AM 12.34 54.212 0.477 8.14 6.23 10.53
5/19/2021 8:45:00 AM 12.38 54.284 0.477 8.15 6.47 10.67
5/19/2021 9:00:00 AM 12.43 54.374 0.476 8.17 6.21 10.81
5/19/2021 9:15:00 AM 12.51 54.518 0.477 8.19 6.32 10.96
5/19/2021 9:30:00 AM 12.59 54.662 0.476 8.2 6.14 11.09
5/19/2021 9:45:00 AM 12.7 54.86 0.476 8.22 5.73 11.21
5/19/2021 10:00:00 AM 12.83 55.094 0.474 8.24 5.75 11.34
5/19/2021 10:15:00 AM 12.99 55.382 0.474 8.27 6.36 11.51
5/19/2021 10:30:00 AM 13.18 55.724 0.474 8.28 5.98 11.67
5/19/2021 10:45:00 AM 13.38 56.084 0.473 8.31 6.27 11.8
5/19/2021 11:00:00 AM 13.6 56.48 0.473 8.33 6.33 11.98
5/19/2021 11:15:00 AM 13.83 56.894 0.472 8.36 5.98 12.11
5/19/2021 11:30:00 AM 14.08 57.344 0.471 8.38 6.45 12.22
5/19/2021 11:45:00 AM 14.36 57.848 0.47 8.39 6.36 12.33
5/19/2021 12:00:00 PM 14.66 58.388 0.47 8.41 6.64 12.43
5/19/2021 12:15:00 PM 14.99 58.982 0.469 8.45 4.52 12.54
5/19/2021 12:30:00 PM 15.34 59.612 0.468 8.47 7.4 12.63
5/19/2021 12:45:00 PM 15.7 60.26 0.467 8.49 6.95 12.66
5/19/2021 1:00:00 PM 16.08 60.944 0.466 8.52 6.48 12.72
5/19/2021 1:15:00 PM 16.48 61.664 0.464 8.54 6 12.75
5/19/2021 1:30:00 PM 16.88 62.384 0.464 8.55 5.97 12.72
5/19/2021 1:45:00 PM 17.3 63.14 0.462 8.57 6.67 12.7
5/19/2021 2:00:00 PM 17.71 63.878 0.462 8.58 6.38 12.64
5/19/2021 2:15:00 PM 18.11 64.598 0.461 8.61 6.49 12.65
5/19/2021 2:30:00 PM 18.51 65.318 0.46 8.62 6.55 12.62
5/19/2021 2:45:00 PM 18.87 65.966 0.46 8.63 6.7 12.55
5/19/2021 3:00:00 PM 19.21 66.578 0.459 8.62 7.89 12.46
5/19/2021 3:15:00 PM 19.48 67.064 0.46 8.64 6.68 12.31
5/19/2021 3:30:00 PM 19.73 67.514 0.459 8.61 7.08 12.13
5/19/2021 3:45:00 PM 19.94 67.892 0.46 8.61 7.4 11.89
5/19/2021 4:00:00 PM 20.1 68.18 0.46 8.61 6.95 11.67
5/19/2021 4:15:00 PM 20.25 68.45 0.461 8.6 6.92 11.47
5/19/2021 4:30:00 PM 20.36 68.648 0.461 8.57 6.59 11.2
5/19/2021 4:45:00 PM 20.45 68.81 0.462 8.55 7.17 10.91
5/19/2021 5:00:00 PM 20.5 68.9 0.462 8.53 7.61 10.6
5/19/2021 5:15:00 PM 20.5 68.9 0.463 8.5 7.36 10.32
5/19/2021 5:30:00 PM 20.52 68.936 0.464 8.49 6.88 10.13
5/19/2021 5:45:00 PM 20.54 68.972 0.464 8.47 6.51 10
5/19/2021 6:00:00 PM 20.52 68.936 0.465 8.44 7.87 9.78
5/19/2021 6:15:00 PM 20.47 68.846 0.466 8.42 6.65 9.49
5/19/2021 6:30:00 PM 20.43 68.774 0.467 8.39 6.67 9.26
5/19/2021 6:45:00 PM 20.4 68.72 0.468 8.36 7.36 9.1
5/19/2021 7:00:00 PM 20.36 68.648 0.469 8.33 7.94 8.94
5/19/2021 7:15:00 PM 20.31 68.558 0.47 8.3 7.08 8.74
5/19/2021 7:30:00 PM 20.26 68.468 0.471 8.27 7.52 8.56
5/19/2021 7:45:00 PM 20.2 68.36 0.472 8.24 7.05 8.37
5/19/2021 8:00:00 PM 20.14 68.252 0.473 8.19 7.87 8.2
5/19/2021 8:15:00 PM 20.06 68.108 0.473 8.19 8.1 8.07
5/19/2021 8:30:00 PM 19.97 67.946 0.473 8.16 9.23 7.98
5/19/2021 8:45:00 PM 19.87 67.766 0.473 8.15 8.02 7.91
5/19/2021 9:00:00 PM 19.76 67.568 0.473 8.14 8.47 7.86
5/19/2021 9:15:00 PM 19.64 67.352 0.474 8.12 8.72 7.84
5/19/2021 9:30:00 PM 19.51 67.118 0.474 8.11 9.13 7.82
5/19/2021 9:45:00 PM 19.36 66.848 0.475 8.1 4.38 7.8
5/19/2021 10:00:00 PM 19.19 66.542 0.475 8.08 9.59 7.81
5/19/2021 10:15:00 PM 19.02 66.236 0.475 8.08 9.39 7.82
5/19/2021 10:30:00 PM 18.83 65.894 0.476 8.07 6.31 7.86
5/19/2021 10:45:00 PM 18.64 65.552 0.476 8.08 9.88 7.89
5/19/2021 11:00:00 PM 18.45 65.21 0.476 8.07 9.64 7.94
5/19/2021 11:15:00 PM 18.26 64.868 0.477 8.07 8.92 7.98
5/19/2021 11:30:00 PM 18.05 64.49 0.477 8.05 9.68 8.03
5/19/2021 11:45:00 PM 17.85 64.13 0.477 8.05 9.59 8.09
5/20/2021 12:00:00 AM 17.63 63.734 0.478 8.05 8.54 8.16
5/20/2021 12:15:00 AM 17.42 63.356 0.478 8.06 7.24 8.22
5/20/2021 12:30:00 AM 17.2 62.96 0.478 8.05 8.81 8.29
5/20/2021 12:45:00 AM 16.99 62.582 0.479 8.05 7.97 8.35
5/20/2021 1:00:00 AM 16.77 62.186 0.479 8.04 10.27 8.4
5/20/2021 1:15:00 AM 16.56 61.808 0.48 8.03 8.98 8.47
5/20/2021 1:30:00 AM 16.35 61.43 0.48 8.03 9.59 8.54
5/20/2021 1:45:00 AM 16.14 61.052 0.48 8.03 8.41 8.59
5/20/2021 2:00:00 AM 15.94 60.692 0.481 8.04 10.16 8.64
5/20/2021 2:15:00 AM 15.75 60.35 0.482 8.04 5.74 8.71
5/20/2021 2:30:00 AM 15.56 60.008 0.482 8.04 10.49 8.75
5/20/2021 2:45:00 AM 15.39 59.702 0.482 8.03 5.66 8.81
5/20/2021 3:00:00 AM 15.22 59.396 0.482 8.04 10.08 8.86
5/20/2021 3:15:00 AM 15.06 59.108 0.483 8.03 6.44 8.91
5/20/2021 3:30:00 AM 14.91 58.838 0.483 8.04 7.34 8.96
5/20/2021 3:45:00 AM 14.77 58.586 0.483 8.03 5.79 9
5/20/2021 4:00:00 AM 14.64 58.352 0.483 8.03 6.55 9.04
5/20/2021 4:15:00 AM 14.51 58.118 0.484 8.04 9.39 9.08
5/20/2021 4:30:00 AM 14.39 57.902 0.483 8.04 10.53 9.12
5/20/2021 4:45:00 AM 14.28 57.704 0.483 8.04 9.12 9.16
5/20/2021 5:00:00 AM 14.18 57.524 0.483 8.03 6.33 9.18
5/20/2021 5:15:00 AM 14.08 57.344 0.483 8.04 11.02 9.21
5/20/2021 5:30:00 AM 13.99 57.182 0.483 8.04 9.48 9.24
5/20/2021 5:45:00 AM 14.02 57.236 0.482 8.04 10.67 9.23
5/20/2021 6:00:00 AM 13.93 57.074 0.482 8.04 10.66 9.27
5/20/2021 6:15:00 AM 13.84 56.912 0.482 8.04 6.22 9.33
5/20/2021 6:30:00 AM 13.75 56.75 0.482 8.05 5.89 9.4
5/20/2021 6:45:00 AM 13.67 56.606 0.482 8.06 9.21 9.48
5/20/2021 7:00:00 AM 13.6 56.48 0.482 8.06 9.2 9.55
5/20/2021 7:15:00 AM 13.55 56.39 0.482 8.06 8.03 9.64
5/20/2021 7:30:00 AM 13.5 56.3 0.481 8.08 9.33 9.72
5/20/2021 7:45:00 AM 13.47 56.246 0.481 8.09 7.76 9.84
5/20/2021 8:00:00 AM 13.45 56.21 0.48 8.11 8.36 10
5/20/2021 8:15:00 AM 13.45 56.21 0.48 8.12 8.17 10.13
5/20/2021 8:30:00 AM 13.48 56.264 0.48 8.13 8.85 10.28
5/20/2021 8:45:00 AM 13.52 56.336 0.479 8.14 7.63 10.42
5/20/2021 9:00:00 AM 13.56 56.408 0.479 8.16 7.15 10.56
5/20/2021 9:15:00 AM 13.62 56.516 0.479 8.18 7.67 10.71
5/20/2021 9:30:00 AM 13.7 56.66 0.478 8.2 6.32 10.88
5/20/2021 9:45:00 AM 13.79 56.822 0.478 8.21 6.73 11.05
5/20/2021 10:00:00 AM 13.91 57.038 0.477 8.23 6.63 11.25
5/20/2021 10:15:00 AM 14.04 57.272 0.476 8.26 6.99 11.47
5/20/2021 10:30:00 AM 14.22 57.596 0.476 8.29 6.65 11.69
5/20/2021 10:45:00 AM 14.39 57.902 0.475 8.32 6.59 11.92
5/20/2021 11:00:00 AM 14.58 58.244 0.474 8.35 6.26 12.09
5/20/2021 11:15:00 AM 14.77 58.586 0.473 8.38 6.41 12.24
5/20/2021 11:30:00 AM 15.03 59.054 0.472 8.4 6.55 12.37
5/20/2021 11:45:00 AM 15.32 59.576 0.472 8.42 7.14 12.43
5/20/2021 12:00:00 PM 15.49 59.882 0.471 8.44 6.95 12.43
5/20/2021 12:15:00 PM 15.84 60.512 0.47 8.46 6.56 12.54
5/20/2021 12:30:00 PM 16.14 61.052 0.47 8.49 6.93 12.56
5/20/2021 12:45:00 PM 16.51 61.718 0.469 8.51 7.1 12.61
5/20/2021 1:00:00 PM 16.86 62.348 0.468 8.51 6.31 12.62
5/20/2021 1:15:00 PM 17.16 62.888 0.468 8.54 6.96 12.61
5/20/2021 1:30:00 PM 17.57 63.626 0.467 8.55 7.43 12.62
5/20/2021 1:45:00 PM 17.96 64.328 0.466 8.57 7.77 12.59
5/20/2021 2:00:00 PM 18.32 64.976 0.465 8.58 7.66 12.57
5/20/2021 2:15:00 PM 18.68 65.624 0.465 8.6 7.34 12.49
5/20/2021 2:30:00 PM 19.08 66.344 0.463 8.6 7.22 12.45
5/20/2021 2:45:00 PM 19.43 66.974 0.463 8.61 7.53 12.36
5/20/2021 3:00:00 PM 19.76 67.568 0.462 8.62 6.64 12.26
5/20/2021 3:15:00 PM 20.04 68.07201 0.462 8.62 7.93 12.11
5/20/2021 3:30:00 PM 20.25 68.45 0.462 8.62 8.45 11.88
5/20/2021 3:45:00 PM 20.45 68.81 0.462 8.6 7.85 11.64
5/20/2021 4:00:00 PM 20.63 69.134 0.462 8.59 7.82 11.43
5/20/2021 4:15:00 PM 20.78 69.404 0.463 8.57 8.04 11.19
5/20/2021 4:30:00 PM 20.89 69.602 0.464 8.55 8.26 10.92
5/20/2021 4:45:00 PM 20.97 69.746 0.464 8.54 7.52 10.65
5/20/2021 5:00:00 PM 21.01 69.818 0.465 8.52 7.1 10.39
5/20/2021 5:15:00 PM 21.03 69.854 0.465 8.49 7.54 10.13
5/20/2021 5:30:00 PM 21.02 69.836 0.466 8.47 7.26 9.86
5/20/2021 5:45:00 PM 20.99 69.782 0.467 8.44 6.76 9.61
5/20/2021 6:00:00 PM 20.94 69.692 0.468 8.42 7.95 9.35
5/20/2021 6:15:00 PM 20.9 69.62 0.469 8.4 7.49 9.12
5/20/2021 6:30:00 PM 20.82 69.476 0.469 8.37 6.72 8.88
5/20/2021 6:45:00 PM 20.73 69.314 0.47 8.34 7.48 8.67
5/20/2021 7:00:00 PM 20.66 69.188 0.471 8.3 7.01 8.51
5/20/2021 7:15:00 PM 20.57 69.026 0.472 8.28 7.38 8.37
5/20/2021 7:30:00 PM 20.48 68.864 0.473 8.25 7.39 8.25
5/20/2021 7:45:00 PM 20.38 68.684 0.473 8.23 6.89 8.14
5/20/2021 8:00:00 PM 20.29 68.522 0.474 8.2 7.05 8.04
5/20/2021 8:15:00 PM 20.18 68.324 0.474 8.2 7.77 7.95
5/20/2021 8:30:00 PM 20.07 68.126 0.475 8.17 10.92 7.87
5/20/2021 8:45:00 PM 19.95 67.91 0.475 8.15 9.27 7.82
5/20/2021 9:00:00 PM 19.82 67.676 0.475 8.15 8.93 7.8
5/20/2021 9:15:00 PM 19.68 67.424 0.475 8.14 8.48 7.8
5/20/2021 9:30:00 PM 19.54 67.172 0.475 8.13 10.14 7.81
5/20/2021 9:45:00 PM 19.38 66.884 0.476 8.13 9.28 7.83
5/20/2021 10:00:00 PM 19.21 66.578 0.476 8.12 9.86 7.86
5/20/2021 10:15:00 PM 19.03 66.254 0.477 8.12 5.24 7.89
5/20/2021 10:30:00 PM 18.84 65.912 0.477 8.1 10.22 7.91
5/20/2021 10:45:00 PM 18.65 65.57 0.478 8.1 6.16 7.94
5/20/2021 11:00:00 PM 18.45 65.21 0.479 8.09 10.48 7.98
5/20/2021 11:15:00 PM 18.24 64.832 0.48 8.09 6.76 8.04
5/20/2021 11:30:00 PM 18.03 64.454 0.48 8.09 10.56 8.09
5/20/2021 11:45:00 PM 17.81 64.058 0.48 8.08 8.75 8.16
5/21/2021 12:00:00 AM 17.58 63.644 0.48 8.08 6.68 8.23
5/21/2021 12:15:00 AM 17.35 63.23 0.481 8.08 10.29 8.29
5/21/2021 12:30:00 AM 17.11 62.798 0.483 8.07 7.52 8.36
5/21/2021 12:45:00 AM 16.86 62.348 0.482 8.08 6.84 8.43
5/21/2021 1:00:00 AM 16.61 61.898 0.483 8.07 7.85 8.5
5/21/2021 1:15:00 AM 16.36 61.448 0.484 8.07 7.17 8.58
5/21/2021 1:30:00 AM 16.1 60.98 0.484 8.07 6.8 8.65
5/21/2021 1:45:00 AM 15.86 60.548 0.484 8.06 10.1 8.71
5/21/2021 2:00:00 AM 15.63 60.134 0.485 8.06 9.67 8.78
5/21/2021 2:15:00 AM 15.41 59.738 0.485 8.07 11.41 8.84
5/21/2021 2:30:00 AM 15.21 59.378 0.485 8.06 11.23 8.9
5/21/2021 2:45:00 AM 15.01 59.018 0.486 8.06 9.76 8.96
5/21/2021 3:00:00 AM 14.82 58.676 0.486 8.07 10.11 9.02
5/21/2021 3:15:00 AM 14.65 58.37 0.486 8.07 7.71 9.07
5/21/2021 3:30:00 AM 14.48 58.064 0.487 8.07 9.17 9.12
5/21/2021 3:45:00 AM 14.32 57.776 0.487 8.07 10.39 9.18
5/21/2021 4:00:00 AM 14.17 57.506 0.487 8.08 11.1 9.21
5/21/2021 4:15:00 AM 14.04 57.272 0.487 8.07 6.13 9.26
5/21/2021 4:30:00 AM 14.04 57.272 0.485 8.07 11.11 9.25
5/21/2021 4:45:00 AM 13.91 57.038 0.485 8.08 9.58 9.29
5/21/2021 5:00:00 AM 13.8 56.84 0.486 8.08 6.57 9.33
5/21/2021 5:15:00 AM 13.68 56.624 0.486 8.07 7.34 9.36
5/21/2021 5:30:00 AM 13.57 56.426 0.486 8.08 6.28 9.39
5/21/2021 5:45:00 AM 13.46 56.228 0.486 8.08 10.25 9.42
5/21/2021 6:00:00 AM 13.36 56.048 0.485 8.08 10.47 9.47
5/21/2021 6:15:00 AM 13.26 55.868 0.485 8.08 9.84 9.54
5/21/2021 6:30:00 AM 13.17 55.706 0.485 8.08 8.78 9.6
5/21/2021 6:45:00 AM 13.09 55.562 0.485 8.1 8.78 9.68
5/21/2021 7:00:00 AM 13.01 55.418 0.485 8.1 7.72 9.75
5/21/2021 7:15:00 AM 12.95 55.31 0.485 8.1 8.81 9.83
5/21/2021 7:30:00 AM 12.9 55.22 0.485 8.11 8.32 9.91
5/21/2021 7:45:00 AM 12.87 55.166 0.484 8.13 9.81 10.02
5/21/2021 8:00:00 AM 12.85 55.13 0.484 8.13 7.79 10.14
5/21/2021 8:15:00 AM 12.86 55.148 0.483 8.14 7.6 10.27
5/21/2021 8:30:00 AM 12.88 55.184 0.483 8.15 7.33 10.41
5/21/2021 8:45:00 AM 12.91 55.238 0.483 8.17 6.9 10.52
5/21/2021 9:00:00 AM 12.96 55.328 0.483 8.19 7.21 10.65
5/21/2021 9:15:00 AM 13.04 55.472 0.483 8.19 5.42 10.79
5/21/2021 9:30:00 AM 13.12 55.616 0.482 8.22 7.9 10.91
5/21/2021 9:45:00 AM 13.21 55.778 0.482 8.23 6.73 11.03
5/21/2021 10:00:00 AM 13.33 55.994 0.481 8.24 6.42 11.15
5/21/2021 10:15:00 AM 13.47 56.246 0.48 8.28 6.4 11.28
5/21/2021 10:30:00 AM 13.63 56.534 0.48 8.29 6.26 11.43
5/21/2021 10:45:00 AM 13.8 56.84 0.48 8.31 6.38 11.56
5/21/2021 11:00:00 AM 14 57.2 0.479 8.33 6.67 11.7
5/21/2021 11:15:00 AM 14.2 57.56 0.479 8.35 6.39 11.81
5/21/2021 11:30:00 AM 14.43 57.974 0.478 8.37 6.13 11.93
5/21/2021 11:45:00 AM 14.68 58.424 0.477 8.4 6.36 12.03
5/21/2021 12:00:00 PM 14.94 58.892 0.476 8.41 6.24 12.12
5/21/2021 12:15:00 PM 15.23 59.414 0.475 8.44 6.07 12.19
5/21/2021 12:30:00 PM 15.54 59.972 0.474 8.45 7.06 12.28
5/21/2021 12:45:00 PM 15.88 60.584 0.474 8.47 6.4 12.35
5/21/2021 1:00:00 PM 16.22 61.196 0.473 8.49 6.85 12.39
5/21/2021 1:15:00 PM 16.59 61.862 0.471 8.52 6.45 12.41
5/21/2021 1:30:00 PM 16.96 62.528 0.471 8.53 7.03 12.41
5/21/2021 1:45:00 PM 17.34 63.212 0.47 8.56 6.76 12.38
5/21/2021 2:00:00 PM 17.72 63.896 0.469 8.57 6.7 12.36
5/21/2021 2:15:00 PM 18.08 64.544 0.468 8.59 6.41 12.31
5/21/2021 2:30:00 PM 18.47 65.246 0.468 8.58 7.19 12.28
5/21/2021 2:45:00 PM 18.83 65.894 0.467 8.59 7.35 12.19
5/21/2021 3:00:00 PM 19.14 66.452 0.467 8.6 6.79 12.08
5/21/2021 3:15:00 PM 19.43 66.974 0.466 8.6 7.43 11.96
5/21/2021 3:30:00 PM 19.65 67.37 0.466 8.59 7.74 11.8
5/21/2021 3:45:00 PM 19.84 67.712 0.466 8.59 7.47 11.61
5/21/2021 4:00:00 PM 20.02 68.036 0.466 8.59 7.18 11.41
5/21/2021 4:15:00 PM 20.18 68.324 0.465 8.58 8.18 11.22
5/21/2021 4:30:00 PM 20.3 68.54 0.466 8.57 8.79 10.99
5/21/2021 4:45:00 PM 20.38 68.684 0.466 8.57 7.58 10.75
5/21/2021 5:00:00 PM 20.45 68.81 0.467 8.54 8.09 10.51
5/21/2021 5:15:00 PM 20.51 68.918 0.467 8.52 7.76 10.28
5/21/2021 5:30:00 PM 20.52 68.936 0.468 8.49 8.32 10
5/21/2021 5:45:00 PM 20.52 68.936 0.469 8.48 8.73 9.76
5/21/2021 6:00:00 PM 20.52 68.936 0.469 8.46 7.85 9.55
5/21/2021 6:15:00 PM 20.49 68.882 0.47 8.42 9.02 9.32
5/21/2021 6:30:00 PM 20.48 68.864 0.47 8.4 8.1 9.17
5/21/2021 6:45:00 PM 20.44 68.792 0.472 8.37 9.86 8.93
5/21/2021 7:00:00 PM 20.41 68.738 0.473 8.34 7.57 8.73
5/21/2021 7:15:00 PM 20.37 68.666 0.474 8.31 8.48 8.55
5/21/2021 7:30:00 PM 20.31 68.558 0.475 8.27 4.04 8.38
5/21/2021 7:45:00 PM 20.25 68.45 0.475 8.25 8.82 8.26
5/21/2021 8:00:00 PM 20.19 68.342 0.475 8.22 8.01 8.17
5/21/2021 8:15:00 PM 20.13 68.234 0.476 8.2 7.48 8.08
5/21/2021 8:30:00 PM 20.06 68.108 0.476 8.18 7.78 8
5/21/2021 8:45:00 PM 19.97 67.946 0.476 8.17 9.82 7.93
5/21/2021 9:00:00 PM 19.88 67.784 0.477 8.16 8.02 7.89
5/21/2021 9:15:00 PM 19.78 67.604 0.477 8.15 5.08 7.85
5/21/2021 9:30:00 PM 19.66 67.388 0.478 8.13 8.32 7.82
5/21/2021 9:45:00 PM 19.53 67.154 0.479 8.13 5.09 7.82
5/21/2021 10:00:00 PM 19.4 66.92 0.479 8.11 10.41 7.83
5/21/2021 10:15:00 PM 19.25 66.65 0.479 8.11 9.47 7.86
5/21/2021 10:30:00 PM 19.09 66.362 0.48 8.1 10.66 7.89
5/21/2021 10:45:00 PM 18.93 66.074 0.48 8.09 10.73 7.91
5/21/2021 11:00:00 PM 18.76 65.768 0.48 8.09 7.58 7.94
5/21/2021 11:15:00 PM 18.58 65.444 0.481 8.09 10.64 7.98
5/21/2021 11:30:00 PM 18.4 65.12 0.481 8.08 7.05 8.03
5/21/2021 11:45:00 PM 18.21 64.778 0.482 8.08 9.02 8.09
5/22/2021 12:00:00 AM 18.01 64.418 0.482 8.07 9.61 8.14
5/22/2021 12:15:00 AM 17.82 64.076 0.483 8.08 6.71 8.2
5/22/2021 12:30:00 AM 17.62 63.716 0.483 8.07 6.19 8.25
5/22/2021 12:45:00 AM 17.42 63.356 0.483 8.08 9.02 8.31
5/22/2021 1:00:00 AM 17.21 62.978 0.484 8.07 6.78 8.36
5/22/2021 1:15:00 AM 17.01 62.618 0.484 8.06 6.49 8.42
5/22/2021 1:30:00 AM 16.8 62.24 0.485 8.07 8.9 8.48
5/22/2021 1:45:00 AM 16.61 61.898 0.485 8.06 7.31 8.53
5/22/2021 2:00:00 AM 16.41 61.538 0.486 8.06 5.95 8.59
5/22/2021 2:15:00 AM 16.22 61.196 0.486 8.05 7.37 8.65
5/22/2021 2:30:00 AM 16.05 60.89 0.487 8.06 9.92 8.69
5/22/2021 2:45:00 AM 15.88 60.584 0.487 8.05 6.61 8.74
5/22/2021 3:00:00 AM 15.71 60.278 0.487 8.05 7.18 8.78
5/22/2021 3:15:00 AM 15.56 60.008 0.488 8.05 9.61 8.84
5/22/2021 3:30:00 AM 15.41 59.738 0.487 8.04 8.73 8.88
5/22/2021 3:45:00 AM 15.27 59.486 0.487 8.05 8.19 8.92
5/22/2021 4:00:00 AM 15.13 59.234 0.488 8.06 8.83 8.96
5/22/2021 4:15:00 AM 15.01 59.018 0.488 8.05 7.68 9
5/22/2021 4:30:00 AM 14.89 58.802 0.488 8.04 10.67 9.03
5/22/2021 4:45:00 AM 14.78 58.604 0.488 8.05 6.34 9.07
5/22/2021 5:00:00 AM 14.67 58.406 0.488 8.05 10.45 9.1
5/22/2021 5:15:00 AM 14.57 58.226 0.487 8.05 7.91 9.12
5/22/2021 5:30:00 AM 14.47 58.046 0.487 8.05 9 9.15
5/22/2021 5:45:00 AM 14.38 57.884 0.487 8.05 7.17 9.19
5/22/2021 6:00:00 AM 14.29 57.722 0.487 8.05 8.88 9.23
5/22/2021 6:15:00 AM 14.21 57.578 0.487 8.06 6.59 9.28
5/22/2021 6:30:00 AM 14.15 57.47 0.487 8.06 6.34 9.35
5/22/2021 6:45:00 AM 14.09 57.362 0.487 8.07 6 9.42
5/22/2021 7:00:00 AM 14.04 57.272 0.487 8.07 9.42 9.48
5/22/2021 7:15:00 AM 13.99 57.182 0.487 8.08 9.76 9.56
5/22/2021 7:30:00 AM 13.97 57.146 0.486 8.1 8.65 9.68
5/22/2021 7:45:00 AM 13.95 57.11 0.486 8.1 9.37 9.79
5/22/2021 8:00:00 AM 13.95 57.11 0.486 8.11 8.26 9.94
5/22/2021 8:15:00 AM 13.98 57.164 0.485 8.13 7.82 10.2
5/22/2021 8:30:00 AM 14.02 57.236 0.485 8.16 7.95 10.42
5/22/2021 8:45:00 AM 14.07 57.326 0.484 8.18 8.29 10.6
5/22/2021 9:00:00 AM 14.09 57.362 0.483 8.19 7.19 10.66
5/22/2021 9:15:00 AM 14.15 57.47 0.483 8.21 7.11 10.81
5/22/2021 9:30:00 AM 14.2 57.56 0.482 8.23 6.96 10.99
5/22/2021 9:45:00 AM 14.29 57.722 0.482 8.25 8.05 11.17
5/22/2021 10:00:00 AM 14.39 57.902 0.481 8.28 6.95 11.3
5/22/2021 10:15:00 AM 14.51 58.118 0.481 8.3 7.16 11.47
5/22/2021 10:30:00 AM 14.65 58.37 0.48 8.32 6.8 11.62
5/22/2021 10:45:00 AM 14.79 58.622 0.479 8.35 8.05 11.7
5/22/2021 11:00:00 AM 14.95 58.91 0.479 8.36 7.27 11.85
5/22/2021 11:15:00 AM 15.13 59.234 0.477 8.39 7.53 11.92
5/22/2021 11:30:00 AM 15.34 59.612 0.477 8.42 8.01 12
5/22/2021 11:45:00 AM 15.5 59.9 0.476 8.43 7.98 12.1
5/22/2021 12:00:00 PM 15.77 60.386 0.475 8.45 8.23 12.19
5/22/2021 12:15:00 PM 16.01 60.818 0.474 8.47 7.16 12.26
5/22/2021 12:30:00 PM 16.42 61.556 0.472 8.49 6.35 12.37
5/22/2021 12:45:00 PM 16.76 62.168 0.471 8.51 6.44 12.38
5/22/2021 1:00:00 PM 17.12 62.816 0.47 8.53 7.11 12.44
5/22/2021 1:15:00 PM 17.41 63.338 0.468 8.55 6.89 12.43
5/22/2021 1:30:00 PM 17.69 63.842 0.468 8.57 7.22 12.42
5/22/2021 1:45:00 PM 17.88 64.184 0.467 8.58 7.28 12.28
5/22/2021 2:00:00 PM 18.06 64.508 0.467 8.58 5.23 12.14
5/22/2021 2:15:00 PM 18.3 64.94 0.466 8.59 5.76 12.08
5/22/2021 2:30:00 PM 18.57 65.426 0.466 8.61 8.19 12.07
5/22/2021 2:45:00 PM 18.82 65.876 0.465 8.62 8.06 12.03
5/22/2021 3:00:00 PM 19.08 66.344 0.465 8.62 7.89 11.98
5/22/2021 3:15:00 PM 19.23 66.614 0.464 8.62 8.5 11.76
5/22/2021 3:30:00 PM 19.34 66.812 0.465 8.6 9.85 11.49
5/22/2021 3:45:00 PM 19.51 67.118 0.464 8.61 8.61 11.38
5/22/2021 4:00:00 PM 19.62 67.316 0.465 8.59 9.21 11.16
5/22/2021 4:15:00 PM 19.7 67.46 0.465 8.58 7.56 10.92
5/22/2021 4:30:00 PM 19.77 67.586 0.465 8.57 21.63 10.75
5/22/2021 4:45:00 PM 19.86 67.748 0.466 8.54 9.19 10.57
5/22/2021 5:00:00 PM 19.92 67.856 0.466 8.52 8.33 10.28
5/22/2021 5:15:00 PM 19.98 67.964 0.467 8.52 8.07 10.1
5/22/2021 5:30:00 PM 20 68 0.468 8.48 8.25 9.78
5/22/2021 5:45:00 PM 20.06 68.108 0.468 8.46 8.27 9.64
5/22/2021 6:00:00 PM 20.11 68.198 0.468 8.45 8.04 9.47
5/22/2021 6:15:00 PM 20.16 68.288 0.47 8.43 4.87 9.34
5/22/2021 6:30:00 PM 20.19 68.342 0.471 8.4 7.96 9.12
5/22/2021 6:45:00 PM 20.2 68.36 0.471 8.36 9.37 8.91
5/22/2021 7:00:00 PM 20.18 68.324 0.472 8.33 8.68 8.7
5/22/2021 7:15:00 PM 20.16 68.288 0.472 8.29 7.87 8.58
5/22/2021 7:30:00 PM 20.11 68.198 0.473 8.29 10.15 8.45
5/22/2021 7:45:00 PM 20.05 68.09 0.473 8.27 7.99 8.33
5/22/2021 8:00:00 PM 19.98 67.964 0.474 8.25 8.79 8.21
5/22/2021 8:15:00 PM 19.91 67.838 0.474 8.23 8.78 8.13
5/22/2021 8:30:00 PM 19.82 67.676 0.475 8.2 8.87 8.06
5/22/2021 8:45:00 PM 19.73 67.514 0.475 8.19 6.13 8.01
5/22/2021 9:00:00 PM 19.63 67.334 0.476 8.17 11.32 7.97
5/22/2021 9:15:00 PM 19.51 67.118 0.476 8.16 9.56 7.93
5/22/2021 9:30:00 PM 19.39 66.902 0.477 8.14 9.05 7.9
5/22/2021 9:45:00 PM 19.26 66.668 0.478 8.12 7.6 7.9
5/22/2021 10:00:00 PM 19.14 66.452 0.478 8.11 5.57 7.89
5/22/2021 10:15:00 PM 19 66.2 0.479 8.1 5.62 7.91
5/22/2021 10:30:00 PM 18.86 65.948 0.479 8.09 6.99 7.92
5/22/2021 10:45:00 PM 18.73 65.714 0.479 8.09 7.46 7.96
5/22/2021 11:00:00 PM 18.59 65.462 0.48 8.09 9.11 7.99
5/22/2021 11:15:00 PM 18.45 65.21 0.48 8.07 6.85 8.03
5/22/2021 11:30:00 PM 18.3 64.94 0.481 8.07 10.59 8.06
5/22/2021 11:45:00 PM 18.16 64.688 0.481 8.06 6.16 8.1
5/23/2021 12:00:00 AM 18.01 64.418 0.482 8.07 7.05 8.12
5/23/2021 12:15:00 AM 17.88 64.184 0.482 8.07 10.7 8.15
5/23/2021 12:30:00 AM 17.73 63.914 0.483 8.06 6.83 8.18
5/23/2021 12:45:00 AM 17.59 63.662 0.484 8.05 7.41 8.21
5/23/2021 1:00:00 AM 17.45 63.41 0.484 8.06 7.51 8.24
5/23/2021 1:15:00 AM 17.31 63.158 0.484 8.05 6.66 8.27
5/23/2021 1:30:00 AM 17.18 62.924 0.484 8.05 10.04 8.3
5/23/2021 1:45:00 AM 17.06 62.708 0.485 8.04 8.16 8.35
5/23/2021 2:00:00 AM 16.94 62.492 0.485 8.05 7.85 8.39
5/23/2021 2:15:00 AM 16.83 62.294 0.485 8.05 6.85 8.43
5/23/2021 2:30:00 AM 16.72 62.096 0.485 8.05 9.55 8.46
5/23/2021 2:45:00 AM 16.61 61.898 0.486 8.05 7.03 8.49
5/23/2021 3:00:00 AM 16.5 61.7 0.486 8.05 6.92 8.51
5/23/2021 3:15:00 AM 16.39 61.502 0.486 8.04 6.51 8.55
5/23/2021 3:30:00 AM 16.29 61.322 0.486 8.04 7.44 8.58
5/23/2021 3:45:00 AM 16.2 61.16 0.486 8.03 7.75 8.62
5/23/2021 4:00:00 AM 16.11 60.998 0.486 8.03 7.41 8.64
5/23/2021 4:15:00 AM 16.03 60.854 0.486 8.03 8.14 8.66
5/23/2021 4:30:00 AM 15.95 60.71 0.486 8.02 11.63 8.7
5/23/2021 4:45:00 AM 15.86 60.548 0.486 8.03 9.23 8.72
5/23/2021 5:00:00 AM 15.78 60.404 0.486 8.02 8.61 8.75
5/23/2021 5:15:00 AM 15.7 60.26 0.486 8.02 7.29 8.75
5/23/2021 5:30:00 AM 15.63 60.134 0.486 8.03 7.74 8.79
5/23/2021 5:45:00 AM 15.55 59.99 0.486 8.04 9.32 8.8
5/23/2021 6:00:00 AM 15.47 59.846 0.486 8.04 9.47 8.84
5/23/2021 6:15:00 AM 15.39 59.702 0.486 8.04 6.52 8.84
5/23/2021 6:30:00 AM 15.32 59.576 0.486 8.04 7.75 8.92
5/23/2021 6:45:00 AM 15.26 59.468 0.486 8.05 5.72 8.98
5/23/2021 7:00:00 AM 15.21 59.378 0.486 8.05 10.49 9.05
5/23/2021 7:15:00 AM 15.16 59.288 0.486 8.07 10.19 9.12
5/23/2021 7:30:00 AM 15.13 59.234 0.484 8.07 7.8 9.19
5/23/2021 7:45:00 AM 15.1 59.18 0.485 8.08 8.48 9.28
5/23/2021 8:00:00 AM 15.09 59.162 0.485 8.09 8.38 9.4
5/23/2021 8:15:00 AM 15.09 59.162 0.485 8.1 8.63 9.51
5/23/2021 8:30:00 AM 15.11 59.198 0.484 8.11 6.96 9.63
5/23/2021 8:45:00 AM 15.13 59.234 0.484 8.12 6.6 9.74
5/23/2021 9:00:00 AM 15.18 59.324 0.483 8.14 6.66 9.87
5/23/2021 9:15:00 AM 15.24 59.432 0.483 8.16 4.24 9.99
5/23/2021 9:30:00 AM 15.32 59.576 0.483 8.17 7.46 10.08
5/23/2021 9:45:00 AM 15.42 59.756 0.482 8.19 7.2 10.15
5/23/2021 10:00:00 AM 15.55 59.99 0.482 8.21 7.39 10.28
5/23/2021 10:15:00 AM 15.69 60.242 0.482 8.22 7.24 10.39
5/23/2021 10:30:00 AM 15.87 60.566 0.481 8.24 6.57 10.52
5/23/2021 10:45:00 AM 16.06 60.908 0.48 8.25 37.46 10.62
5/23/2021 11:00:00 AM 16.26 61.268 0.479 8.27 7.59 10.75
5/23/2021 11:15:00 AM 16.47 61.646 0.479 8.29 18.07 10.86
5/23/2021 11:30:00 AM 16.7 62.06 0.478 8.31 3.83 10.96
5/23/2021 11:45:00 AM 16.98 62.564 0.478 8.33 9.12 11.07
5/23/2021 12:00:00 PM 17.27 63.086 0.477 8.36 10.82 11.15
5/23/2021 12:15:00 PM 17.52 63.536 0.476 8.38 3.55 11.24
5/23/2021 12:30:00 PM 17.82 64.076 0.475 8.4 8.12 11.33
5/23/2021 12:45:00 PM 18.03 64.454 0.474 8.41 9.73 11.28
5/23/2021 1:00:00 PM 18.42 65.156 0.473 8.43 5.86 11.41
5/23/2021 1:15:00 PM 18.65 65.57 0.473 8.45 3.65 11.34
5/23/2021 1:30:00 PM 18.99 66.182 0.471 8.46 8.15 11.32
5/23/2021 1:45:00 PM 19.4 66.92 0.471 8.48 9.77 11.27
5/23/2021 2:00:00 PM 19.56 67.208 0.47 8.49 4.97 11.02
5/23/2021 2:15:00 PM 19.95 67.91 0.47 8.5 9.11 11.12
5/23/2021 2:30:00 PM 20.28 68.504 0.469 8.52 3.66 11.13
5/23/2021 2:45:00 PM 20.64 69.152 0.469 8.52 11.03 11.08
5/23/2021 3:00:00 PM 20.97 69.746 0.468 8.53 9.67 11.09
5/23/2021 3:15:00 PM 21.16 70.088 0.468 8.53 9.35 10.82
5/23/2021 3:30:00 PM 21.36 70.448 0.469 8.51 5.14 10.66
5/23/2021 3:45:00 PM 21.4 70.52 0.469 8.52 8.43 10.33
5/23/2021 4:00:00 PM 21.56 70.808 0.469 8.5 8.67 10.17
5/23/2021 4:15:00 PM 21.73 71.114 0.468 8.51 7.87 10.17
5/23/2021 4:30:00 PM 21.84 71.312 0.469 8.51 3.95 9.99
5/23/2021 4:45:00 PM 21.95 71.51 0.469 8.5 8.57 9.74
5/23/2021 5:00:00 PM 22.08 71.744 0.469 8.49 8.86 9.56
5/23/2021 5:15:00 PM 22.22 71.996 0.469 8.47 8.68 9.4
5/23/2021 5:30:00 PM 22.25 72.05 0.47 8.44 9.65 9.14
5/23/2021 5:45:00 PM 22.27 72.086 0.47 8.41 8.64 8.92
5/23/2021 6:00:00 PM 22.29 72.122 0.471 8.39 7.33 8.73
5/23/2021 6:15:00 PM 22.28 72.104 0.472 8.36 9.78 8.53
5/23/2021 6:30:00 PM 22.25 72.05 0.472 8.34 7.6 8.28
5/23/2021 6:45:00 PM 22.22 71.996 0.473 8.32 8.41 8.08
5/23/2021 7:00:00 PM 22.17 71.906 0.473 8.29 8.81 8.01
5/23/2021 7:15:00 PM 22.09 71.762 0.474 8.27 9.45 7.93
5/23/2021 7:30:00 PM 22 71.6 0.474 8.24 9.48 7.77
5/23/2021 7:45:00 PM 21.91 71.438 0.475 8.22 9.73 7.64
5/23/2021 8:00:00 PM 21.83 71.294 0.476 8.2 10.27 7.58
5/23/2021 8:15:00 PM 21.75 71.15 0.476 8.17 10.12 7.49
5/23/2021 8:30:00 PM 21.68 71.024 0.477 8.16 7.49 7.3
5/23/2021 8:45:00 PM 21.61 70.898 0.477 8.14 5.73 7.37
5/23/2021 9:00:00 PM 21.52 70.736 0.477 8.13 7.8 7.23
5/23/2021 9:15:00 PM 21.43 70.574 0.477 8.12 15 7.32
5/23/2021 9:30:00 PM 21.32 70.376 0.478 8.11 14.63 7.29
5/23/2021 9:45:00 PM 21.19 70.142 0.478 8.1 9.27 7.2
5/23/2021 10:00:00 PM 21.05 69.89 0.478 8.09 9.61 7.37
5/23/2021 10:15:00 PM 20.91 69.638 0.479 8.09 5.85 7.34
5/23/2021 10:30:00 PM 20.76 69.368 0.479 8.09 7.68 7.4
5/23/2021 10:45:00 PM 20.62 69.116 0.48 8.08 6.89 7.41
5/23/2021 11:00:00 PM 20.47 68.846 0.481 8.07 42.83 7.42
5/23/2021 11:15:00 PM 20.32 68.576 0.481 8.06 7.07 7.38
5/23/2021 11:30:00 PM 20.16 68.288 0.481 8.06 9.61 7.49
5/23/2021 11:45:00 PM 20.01 68.018 0.482 8.05 11.5 7.53
5/24/2021 12:00:00 AM 19.84 67.712 0.483 8.05 6.37 7.61
5/24/2021 12:15:00 AM 19.67 67.406 0.483 8.05 10.46 7.55
5/24/2021 12:30:00 AM 19.49 67.082 0.484 8.05 9.41 7.64
5/24/2021 12:45:00 AM 19.31 66.758 0.484 8.05 10.62 7.68
5/24/2021 1:00:00 AM 19.12 66.416 0.485 8.05 12.75 7.75
5/24/2021 1:15:00 AM 18.93 66.074 0.485 8.05 12.41 7.82
5/24/2021 1:30:00 AM 18.75 65.75 0.485 8.05 8.29 7.79
5/24/2021 1:45:00 AM 18.56 65.408 0.486 8.04 10.75 7.88
5/24/2021 2:00:00 AM 18.39 65.102 0.486 8.04 12.52 7.91
5/24/2021 2:15:00 AM 18.21 64.778 0.486 8.04 10.35 7.9
5/24/2021 2:30:00 AM 18.05 64.49 0.487 8.05 10.67 7.93
5/24/2021 2:45:00 AM 17.89 64.202 0.487 8.05 12.59 8.03
5/24/2021 3:00:00 AM 17.74 63.932 0.488 8.04 7.73 8.14
5/24/2021 3:15:00 AM 17.59 63.662 0.487 8.04 11.4 8.03
5/24/2021 3:30:00 AM 17.46 63.428 0.487 8.06 8.72 8.17
5/24/2021 3:45:00 AM 17.33 63.194 0.488 8.05 10.98 8.25
5/24/2021 4:00:00 AM 17.21 62.978 0.488 8.04 12.52 8.29
5/24/2021 4:15:00 AM 17.1 62.78 0.488 8.05 12.87 8.32
5/24/2021 4:30:00 AM 17 62.6 0.488 8.06 9.55 8.31
5/24/2021 4:45:00 AM 16.89 62.402 0.488 8.06 12.64 8.43
5/24/2021 5:00:00 AM 16.8 62.24 0.489 8.06 12.01 8.45
5/24/2021 5:15:00 AM 16.69 62.042 0.489 8.06 16.45 8.37
5/24/2021 5:30:00 AM 16.59 61.862 0.489 8.06 10.42 8.37
5/24/2021 5:45:00 AM 16.49 61.682 0.488 8.06 7.17 8.5
5/24/2021 6:00:00 AM 16.39 61.502 0.488 8.06 18.3 8.49
5/24/2021 6:15:00 AM 16.29 61.322 0.488 8.07 10.51 8.63
5/24/2021 6:30:00 AM 16.2 61.16 0.488 8.08 7.36 8.75
5/24/2021 6:45:00 AM 16.11 60.998 0.488 8.07 7.6 8.78
5/24/2021 7:00:00 AM 16.03 60.854 0.488 8.08 12.3 8.84
5/24/2021 7:15:00 AM 15.95 60.71 0.487 8.08 9.85 8.91
5/24/2021 7:30:00 AM 15.87 60.566 0.487 8.08 10.88 8.82
5/24/2021 7:45:00 AM 15.8 60.44 0.487 8.09 4.72 8.89
5/24/2021 8:00:00 AM 15.72 60.296 0.487 8.08 9.77 8.99
5/24/2021 8:15:00 AM 15.65 60.17 0.486 8.08 8.12 8.93
5/24/2021 8:30:00 AM 15.59 60.062 0.486 8.09 9.55 9.06
5/24/2021 8:45:00 AM 15.52 59.936 0.486 8.1 9.41 9.03
5/24/2021 9:00:00 AM 15.46 59.828 0.486 8.11 9.54 9.21
5/24/2021 9:15:00 AM 15.37 59.666 0.486 8.11 9.08 9.25
5/24/2021 9:30:00 AM 15.31 59.558 0.485 8.12 8.43 9.28
5/24/2021 9:45:00 AM 15.25 59.45 0.485 8.11 7.93 9.36
5/24/2021 10:00:00 AM 15.19 59.342 0.485 8.12 8.16 9.47
5/24/2021 10:15:00 AM 15.15 59.27 0.484 8.13 4.55 9.57
5/24/2021 10:30:00 AM 15.09 59.162 0.484 8.14 25.92 9.64
5/24/2021 10:45:00 AM 15.06 59.108 0.484 8.15 8.91 9.73
5/24/2021 11:00:00 AM 15 59 0.484 8.15 8.37 9.73
5/24/2021 11:15:00 AM 14.98 58.964 0.484 8.18 8.28 9.93
5/24/2021 11:30:00 AM 14.98 58.964 0.36 8.21 3.95 10.12
5/24/2021 11:45:00 AM 14.96 58.928 0.483 8.21 8.75 10.18
5/24/2021 12:00:00 PM 14.94 58.892 0.483 8.22 5.5 10.18
5/24/2021 12:15:00 PM 14.94 58.892 0.482 8.24 6.16 10.28
5/24/2021 12:30:00 PM 14.92 58.856 0.482 8.25 5.96 10.22
5/24/2021 12:45:00 PM 14.9 58.82 0.482 8.25 6.81 10.19
5/24/2021 1:00:00 PM 14.88 58.784 0.482 8.24 6.51 10.18
5/24/2021 1:15:00 PM 14.86 58.748 0.482 8.25 5.84 10.22
5/24/2021 1:30:00 PM 14.84 58.712 0.482 8.25 7.41 10.24
5/24/2021 1:45:00 PM 14.81 58.658 0.481 8.25 6.41 10.23
5/24/2021 2:00:00 PM 14.8 58.64 0.481 8.26 6.32 10.28
5/24/2021 2:15:00 PM 14.81 58.658 0.48 8.27 6.2 10.41
5/24/2021 2:30:00 PM 14.82 58.676 0.48 8.29 6.51 10.54
5/24/2021 2:45:00 PM 14.81 58.658 0.48 8.31 5.71 10.52
5/24/2021 3:00:00 PM 14.82 58.676 0.48 8.3 5.76 10.58
5/24/2021 3:15:00 PM 14.81 58.658 0.48 8.31 5.88 10.56
5/24/2021 3:30:00 PM 14.81 58.658 0.48 8.32 6.7 10.58
5/24/2021 3:45:00 PM 14.81 58.658 0.48 8.33 6.52 10.6
5/24/2021 4:00:00 PM 14.82 58.676 0.479 8.34 6.25 10.63
5/24/2021 4:15:00 PM 14.84 58.712 0.479 8.34 6.39 10.61
5/24/2021 4:30:00 PM 14.84 58.712 0.479 8.34 6.52 10.52
5/24/2021 4:45:00 PM 14.85 58.73 0.48 8.34 6.59 10.45
5/24/2021 5:00:00 PM 14.86 58.748 0.478 8.34 6.14 10.4
5/24/2021 5:15:00 PM 14.86 58.748 0.479 8.33 7.34 10.34
5/24/2021 5:30:00 PM 14.86 58.748 0.479 8.34 6.28 10.29
5/24/2021 5:45:00 PM 14.86 58.748 0.478 8.33 6.77 10.29
5/24/2021 6:00:00 PM 14.87 58.766 0.478 8.33 6.77 10.28
5/24/2021 6:15:00 PM 14.86 58.748 0.479 8.33 6.67 10.21
5/24/2021 6:30:00 PM 14.84 58.712 0.479 8.32 6.84 10.12
5/24/2021 6:45:00 PM 14.81 58.658 0.479 8.31 5.94 10.05
5/24/2021 7:00:00 PM 14.78 58.604 0.479 8.3 7.62 9.97
5/24/2021 7:15:00 PM 14.75 58.55 0.48 8.29 6.67 9.87
5/24/2021 7:30:00 PM 14.71 58.478 0.48 8.27 6.62 9.77
5/24/2021 7:45:00 PM 14.69 58.442 0.48 8.26 6.65 9.7
5/24/2021 8:00:00 PM 14.67 58.406 0.48 8.26 6.65 9.64
5/24/2021 8:15:00 PM 14.64 58.352 0.48 8.24 7.45 9.57
5/24/2021 8:30:00 PM 14.62 58.316 0.481 8.24 7.3 9.53
5/24/2021 8:45:00 PM 14.59 58.262 0.481 8.23 10.33 9.49
5/24/2021 9:00:00 PM 14.57 58.226 0.481 8.22 9.15 9.45
5/24/2021 9:15:00 PM 14.54 58.172 0.481 8.21 9.58 9.43
5/24/2021 9:30:00 PM 14.52 58.136 0.482 8.21 9.5 9.41
5/24/2021 9:45:00 PM 14.48 58.064 0.481 8.19 10.51 9.39
5/24/2021 10:00:00 PM 14.45 58.01 0.482 8.19 8.88 9.39
5/24/2021 10:15:00 PM 14.41 57.938 0.482 8.18 4.76 9.38
5/24/2021 10:30:00 PM 14.37 57.866 0.482 8.18 5.22 9.38
5/24/2021 10:45:00 PM 14.32 57.776 0.482 8.18 9.75 9.38
5/24/2021 11:00:00 PM 14.28 57.704 0.482 8.18 5.71 9.39
5/24/2021 11:15:00 PM 14.23 57.614 0.483 8.16 10.44 9.39
5/24/2021 11:30:00 PM 14.17 57.506 0.483 8.15 10.76 9.39
5/24/2021 11:45:00 PM 14.12 57.416 0.483 8.15 7.74 9.4
5/25/2021 12:00:00 AM 14.07 57.326 0.484 8.15 7.62 9.4
5/25/2021 12:15:00 AM 14.02 57.236 0.484 8.14 5.44 9.41
5/25/2021 12:30:00 AM 13.97 57.146 0.484 8.14 7.17 9.42
5/25/2021 12:45:00 AM 14.04 57.272 0.482 8.14 6.81 9.39
5/25/2021 1:00:00 AM 13.98 57.164 0.482 8.13 5.04 9.39
5/25/2021 1:15:00 AM 13.93 57.074 0.483 8.13 5.52 9.4
5/25/2021 1:30:00 AM 13.87 56.966 0.483 8.13 6.35 9.41
5/25/2021 1:45:00 AM 13.82 56.876 0.483 8.13 9.1 9.42
5/25/2021 2:00:00 AM 13.76 56.768 0.483 8.12 7.77 9.44
5/25/2021 2:15:00 AM 13.72 56.696 0.483 8.12 2114.41 9.45
5/25/2021 2:30:00 AM 13.67 56.606 0.483 8.12 5.91 9.46
5/25/2021 2:45:00 AM 13.62 56.516 0.483 8.12 8.91 9.48
5/25/2021 3:00:00 AM 13.58 56.444 0.483 8.12 6.6 9.5
5/25/2021 3:15:00 AM 13.53 56.354 0.483 8.12 6.26 9.51
5/25/2021 3:30:00 AM 13.49 56.282 0.483 8.13 8.4 9.52
5/25/2021 3:45:00 AM 13.45 56.21 0.483 8.13 6.19 9.54
5/25/2021 4:00:00 AM 13.42 56.156 0.483 8.12 5.1 9.54
5/25/2021 4:15:00 AM 13.38 56.084 0.483 8.12 9.11 9.53
5/25/2021 4:30:00 AM 13.34 56.012 0.484 8.13 10.3 9.52
5/25/2021 4:45:00 AM 13.31 55.958 0.483 8.12 4.99 9.57
5/25/2021 5:00:00 AM 13.28 55.904 0.483 8.12 5.93 9.59
5/25/2021 5:15:00 AM 13.25 55.85 0.484 8.12 7.48 9.59
5/25/2021 5:30:00 AM 13.23 55.814 0.484 8.12 4.7 9.6
5/25/2021 5:45:00 AM 13.2 55.76 0.484 8.12 10.37 9.62
5/25/2021 6:00:00 AM 13.18 55.724 0.484 8.12 5.33 9.62
5/25/2021 6:15:00 AM 13.15 55.67 0.484 8.12 6.28 9.63
5/25/2021 6:30:00 AM 13.14 55.652 0.484 8.12 10.08 9.68
5/25/2021 6:45:00 AM 13.13 55.634 0.484 8.13 9.22 9.74
5/25/2021 7:00:00 AM 13.12 55.616 0.483 8.14 8.75 9.8
5/25/2021 7:15:00 AM 13.12 55.616 0.484 8.14 8.42 9.88
5/25/2021 7:30:00 AM 13.13 55.634 0.483 8.16 7.86 9.98
5/25/2021 7:45:00 AM 13.15 55.67 0.483 8.17 8.79 10.06
5/25/2021 8:00:00 AM 13.17 55.706 0.483 8.18 9.74 10.15
5/25/2021 8:15:00 AM 13.19 55.742 0.483 8.18 8.71 10.24
5/25/2021 8:30:00 AM 13.23 55.814 0.483 8.2 7.29 10.37
5/25/2021 8:45:00 AM 13.28 55.904 0.483 8.21 7.2 10.49
5/25/2021 9:00:00 AM 13.33 55.994 0.482 8.23 7.46 10.62
5/25/2021 9:15:00 AM 13.36 56.048 0.482 8.24 6.99 10.67
5/25/2021 9:30:00 AM 13.4 56.12 0.482 8.25 7.73 10.71
5/25/2021 9:45:00 AM 13.45 56.21 0.481 8.27 6.64 10.81
5/25/2021 10:00:00 AM 13.49 56.282 0.481 8.28 6.59 10.87
5/25/2021 10:15:00 AM 13.53 56.354 0.481 8.29 6.51 10.89
5/25/2021 10:30:00 AM 13.58 56.444 0.481 8.3 7.24 10.95
5/25/2021 10:45:00 AM 13.66 56.588 0.481 8.31 7.05 11.06
5/25/2021 11:00:00 AM 13.76 56.768 0.48 8.33 6.92 11.19
5/25/2021 11:15:00 AM 13.87 56.966 0.48 8.35 6.83 11.32
5/25/2021 11:30:00 AM 14.01 57.218 0.479 8.37 6.76 11.44
5/25/2021 11:45:00 AM 14.14 57.452 0.479 8.39 7.31 11.54
5/25/2021 12:00:00 PM -99999.99 -179968 -99999.99 -99999.99 -99999.99 -99999.99
5/25/2021 12:15:00 PM -99999.99 -179968 -99999.99 -99999.99 -99999.99 -99999.99
5/25/2021 12:30:00 PM -99999.99 -179968 -99999.99 -99999.99 -99999.99 -99999.99
5/25/2021 12:45:00 PM -99999.99 -179968 -99999.99 -99999.99 -99999.99 -99999.99
5/25/2021 1:00:00 PM -99999.99 -179968 -99999.99 -99999.99 -99999.99 -99999.99
5/25/2021 1:15:00 PM 14.95 58.91 0.471 8.57 2.88 11.91
5/25/2021 1:30:00 PM 15.03 59.054 0.475 8.49 10.5 11.8
5/25/2021 1:45:00 PM 15.22 59.396 0.474 8.52 7.6 11.81
5/25/2021 2:00:00 PM 15.42 59.756 0.474 8.52 8.7 11.84
5/25/2021 2:15:00 PM 15.69 60.242 0.473 8.54 7.62 11.85
5/25/2021 2:30:00 PM 15.95 60.71 0.472 8.55 8.6 11.83
5/25/2021 2:45:00 PM 16.12 61.016 0.472 8.55 8.28 11.75
5/25/2021 3:00:00 PM 16.3 61.34 0.472 8.56 7.97 11.66
5/25/2021 3:15:00 PM 16.47 61.646 0.472 8.56 7.96 11.56
5/25/2021 3:30:00 PM 16.63 61.934 0.471 8.57 9.71 11.44
5/25/2021 3:45:00 PM 16.79 62.222 0.471 8.56 9.14 11.34
5/25/2021 4:00:00 PM 16.96 62.528 0.471 8.56 8.14 11.22
5/25/2021 4:15:00 PM 17.11 62.798 0.471 8.56 7.45 11.08
5/25/2021 4:30:00 PM 17.26 63.068 0.471 8.56 8.98 10.94
5/25/2021 4:45:00 PM 17.38 63.284 0.471 8.54 8.51 10.76
5/25/2021 5:00:00 PM 17.5 63.5 0.471 8.54 8.32 10.58
5/25/2021 5:15:00 PM 17.58 63.644 0.471 8.53 9.28 10.42
5/25/2021 5:30:00 PM 17.66 63.788 0.471 8.52 8.98 10.27
5/25/2021 5:45:00 PM 17.71 63.878 0.472 8.51 7.74 10.08
5/25/2021 6:00:00 PM 17.75 63.95 0.472 8.49 8.41 9.88
5/25/2021 6:15:00 PM 17.76 63.968 0.472 8.48 7.38 9.74
5/25/2021 6:30:00 PM 17.78 64.004 0.473 8.47 8.12 9.6
5/25/2021 6:45:00 PM 17.78 64.004 0.473 8.45 10.19 9.31
5/25/2021 7:00:00 PM 17.8 64.04 0.473 8.43 7.85 9.27
5/25/2021 7:15:00 PM 17.82 64.076 0.474 8.41 8.99 9.11
5/25/2021 7:30:00 PM 17.84 64.112 0.474 8.38 9.29 8.95
5/25/2021 7:45:00 PM 17.86 64.148 0.475 8.37 8.2 8.8
5/25/2021 8:00:00 PM 17.88 64.184 0.475 8.35 7.74 8.74
5/25/2021 8:15:00 PM 17.9 64.22 0.475 8.32 9.01 8.67
5/25/2021 8:30:00 PM 17.92 64.256 0.476 8.3 9.6 8.61
5/25/2021 8:45:00 PM 17.93 64.274 0.476 8.28 8.84 8.53
5/25/2021 9:00:00 PM 17.94 64.292 0.476 8.27 4.93 8.47
5/25/2021 9:15:00 PM 17.94 64.292 0.476 8.26 8.38 8.4
5/25/2021 9:30:00 PM 17.94 64.292 0.476 8.24 5.03 8.37
5/25/2021 9:45:00 PM 17.93 64.274 0.476 8.22 9.47 8.35
5/25/2021 10:00:00 PM 17.89 64.202 0.477 8.21 6.7 8.22
5/25/2021 10:15:00 PM 17.84 64.112 0.477 8.21 7.92 8.26
5/25/2021 10:30:00 PM 17.78 64.004 0.478 8.2 5.95 8.28
5/25/2021 10:45:00 PM 17.7 63.86 0.478 8.19 7.84 8.24
5/25/2021 11:00:00 PM 17.61 63.698 0.479 8.18 6.84 8.2
5/25/2021 11:15:00 PM 17.51 63.518 0.48 8.17 10.47 8.29
5/25/2021 11:30:00 PM 17.39 63.302 0.48 8.15 7.4 8.28
5/25/2021 11:45:00 PM 17.27 63.086 0.48 8.15 8.18 8.37
5/26/2021 12:00:00 AM 17.14 62.852 0.48 8.14 7.64 8.42
5/26/2021 12:15:00 AM 17 62.6 0.481 8.13 9.48 8.46
5/26/2021 12:30:00 AM 16.86 62.348 0.481 8.13 8.37 8.43
5/26/2021 12:45:00 AM 16.71 62.078 0.482 8.13 7.78 8.53
5/26/2021 1:00:00 AM 16.56 61.808 0.482 8.12 9.68 8.57
5/26/2021 1:15:00 AM 16.41 61.538 0.483 8.11 7.15 8.61
5/26/2021 1:30:00 AM 16.26 61.268 0.483 8.11 6.65 8.65
5/26/2021 1:45:00 AM 16.1 60.98 0.484 8.1 7.69 8.69
5/26/2021 2:00:00 AM 15.95 60.71 0.484 8.1 6.4 8.73
5/26/2021 2:15:00 AM 15.81 60.458 0.484 8.09 10.29 8.74
5/26/2021 2:30:00 AM 15.68 60.224 0.485 8.1 12.9 8.79
5/26/2021 2:45:00 AM 15.56 60.008 0.485 8.09 10.54 8.83
5/26/2021 3:00:00 AM 15.44 59.792 0.484 8.08 6.81 8.87
5/26/2021 3:15:00 AM 15.32 59.576 0.485 8.09 8.34 8.9
5/26/2021 3:30:00 AM 15.22 59.396 0.485 8.09 9.38 8.93
5/26/2021 3:45:00 AM 15.12 59.216 0.485 8.08 8.17 8.95
5/26/2021 4:00:00 AM 15.03 59.054 0.485 8.08 10.11 8.98
5/26/2021 4:15:00 AM 14.95 58.91 0.486 8.08 11.66 8.99
5/26/2021 4:30:00 AM 14.87 58.766 0.486 8.08 7.81 9.03
5/26/2021 4:45:00 AM 14.8 58.64 0.486 8.08 8.89 9.06
5/26/2021 5:00:00 AM 14.73 58.514 0.486 8.09 5.89 9.07
5/26/2021 5:15:00 AM 14.67 58.406 0.486 8.09 7.4 9.1
5/26/2021 5:30:00 AM 14.61 58.298 0.486 8.07 10.11 9.12
5/26/2021 5:45:00 AM 14.56 58.208 0.486 8.08 10.6 9.13
5/26/2021 6:00:00 AM 14.51 58.118 0.486 8.07 8.12 9.16
5/26/2021 6:15:00 AM 14.46 58.028 0.486 8.07 8.15 9.18
5/26/2021 6:30:00 AM 14.43 57.974 0.486 8.07 6.23 9.23
5/26/2021 6:45:00 AM 14.4 57.92 0.486 8.08 11.28 9.26
5/26/2021 7:00:00 AM 14.37 57.866 0.486 8.08 6.29 9.31
5/26/2021 7:15:00 AM 14.36 57.848 0.485 8.08 5.56 9.36
5/26/2021 7:30:00 AM 14.34 57.812 0.486 8.08 10.64 9.42
5/26/2021 7:45:00 AM 14.34 57.812 0.485 8.08 9.03 9.5
5/26/2021 8:00:00 AM 14.34 57.812 0.486 8.09 10.07 9.58
5/26/2021 8:15:00 AM 14.36 57.848 0.485 8.1 8.44 9.69
5/26/2021 8:30:00 AM 14.37 57.866 0.485 8.11 8.86 9.74
5/26/2021 8:45:00 AM 14.38 57.884 0.485 8.11 9.2 9.78
5/26/2021 9:00:00 AM 14.39 57.902 0.485 8.13 8.13 9.81
5/26/2021 9:15:00 AM 14.44 57.992 0.484 8.14 8.38 9.94
5/26/2021 9:30:00 AM 14.47 58.046 0.484 8.15 8.21 10.01
5/26/2021 9:45:00 AM 14.53 58.154 0.484 8.16 7.98 10.14
5/26/2021 10:00:00 AM 14.61 58.298 0.483 8.19 8.06 10.3
5/26/2021 10:15:00 AM 14.73 58.514 0.482 8.21 8.48 10.47
5/26/2021 10:30:00 AM 14.85 58.73 0.482 8.24 8.59 10.6
5/26/2021 10:45:00 AM 15.07 59.126 0.482 8.25 7.65 10.7
5/26/2021 11:00:00 AM 15.3 59.54 0.481 8.27 7.9 10.79
5/26/2021 11:15:00 AM 15.55 59.99 0.48 8.3 6.25 10.88
5/26/2021 11:30:00 AM 15.79 60.422 0.48 8.31 9.25 10.95
5/26/2021 11:45:00 AM 16.06 60.908 0.479 8.33 8.38 11
5/26/2021 12:00:00 PM 16.32 61.376 0.479 8.34 8.78 11.05
5/26/2021 12:15:00 PM 16.57 61.826 0.478 8.36 8.76 11.1
5/26/2021 12:30:00 PM 16.84 62.312 0.478 8.38 8.7 11.14
5/26/2021 12:45:00 PM 17.11 62.798 0.477 8.39 7.67 11.18
5/26/2021 1:00:00 PM 17.37 63.266 0.477 8.4 8.97 11.18
5/26/2021 1:15:00 PM 17.65 63.77 0.476 8.43 7.22 11.2
5/26/2021 1:30:00 PM 17.95 64.31 0.476 8.43 9.17 11.18
5/26/2021 1:45:00 PM 18.28 64.904 0.475 8.45 8.92 11.14
5/26/2021 2:00:00 PM 18.57 65.426 0.475 8.45 53.83 11.1
5/26/2021 2:15:00 PM 18.88 65.984 0.474 8.47 3.81 11.04
5/26/2021 2:30:00 PM 19.21 66.578 0.473 8.49 8.93 10.98
5/26/2021 2:45:00 PM 19.55 67.19 0.472 8.49 9.04 11.01
5/26/2021 3:00:00 PM 19.82 67.676 0.471 8.52 7.43 10.94
5/26/2021 3:15:00 PM 20.03 68.054 0.471 8.51 8.44 10.82
5/26/2021 3:30:00 PM 20.22 68.396 0.47 8.51 8.97 10.68
5/26/2021 3:45:00 PM 20.44 68.792 0.47 8.52 8.21 10.54
5/26/2021 4:00:00 PM 20.6 69.08 0.47 8.52 8.22 10.31
5/26/2021 4:15:00 PM 20.54 68.972 0.47 8.49 8.22 9.71
5/26/2021 4:30:00 PM 20.53 68.954 0.457 8.45 11.63 9.19
5/26/2021 4:45:00 PM 20.56 69.008 0.45 8.4 19.95 8.87
5/26/2021 5:00:00 PM 20.64 69.152 0.453 8.39 13.45 8.91
5/26/2021 5:15:00 PM 20.65 69.17 0.452 8.36 16.14 8.67
5/26/2021 5:30:00 PM 20.63 69.134 0.451 8.33 12.68 8.45
5/26/2021 5:45:00 PM 20.7 69.26 0.447 8.31 13.56 8.44
5/26/2021 6:00:00 PM 20.75 69.35 0.447 8.29 10.08 8.37
5/26/2021 6:15:00 PM 20.77 69.386 0.447 8.26 11.13 8.18
5/26/2021 6:30:00 PM 20.77 69.386 0.448 8.23 12.16 8
5/26/2021 6:45:00 PM 20.81 69.458 0.45 8.22 15.52 7.9
5/26/2021 7:00:00 PM 20.85 69.53 0.45 8.19 18.88 7.77
5/26/2021 7:15:00 PM 20.87 69.566 0.451 8.17 36.42 7.64
5/26/2021 7:30:00 PM 20.86 69.548 0.451 8.14 16.75 7.55
5/26/2021 7:45:00 PM 20.84 69.512 0.45 8.13 17.27 7.59
5/26/2021 8:00:00 PM 20.8 69.44 0.45 8.11 20.42 7.57
5/26/2021 8:15:00 PM 20.72 69.296 0.452 8.09 15.19 7.5
5/26/2021 8:30:00 PM 20.6 69.08 0.452 8.07 15.38 7.47
5/26/2021 8:45:00 PM 20.45 68.81 0.448 8.06 15.12 7.38
5/26/2021 9:00:00 PM 20.24 68.432 0.442 8.05 22.64 7.48
5/26/2021 9:15:00 PM 20.01 68.018 0.439 8.02 29.25 7.49
5/26/2021 9:30:00 PM 19.77 67.586 0.435 7.99 59.09 7.53
5/26/2021 9:45:00 PM 19.56 67.208 0.414 7.97 66.46 7.66
5/26/2021 10:00:00 PM 19.34 66.812 0.417 7.97 57.74 7.56
5/26/2021 10:15:00 PM 19.14 66.452 0.417 7.94 56.96 7.56
5/26/2021 10:30:00 PM 18.92 66.056 0.413 7.91 128.28 7.56
5/26/2021 10:45:00 PM 18.69 65.642 0.414 7.88 102.27 7.44
5/26/2021 11:00:00 PM 18.47 65.246 0.416 7.87 68.44 7.5
5/26/2021 11:15:00 PM 18.25 64.85 0.421 7.86 77.47 7.47
5/26/2021 11:30:00 PM 18.04 64.472 0.427 7.86 89.56 7.59
5/26/2021 11:45:00 PM 17.85 64.13 0.43 7.86 107.89 7.58
5/27/2021 12:00:00 AM 17.68 63.824 0.429 7.85 51.37 7.59
5/27/2021 12:15:00 AM 17.53 63.554 0.428 7.83 47.04 7.52
5/27/2021 12:30:00 AM 17.41 63.338 0.425 7.82 56.53 7.45
5/27/2021 12:45:00 AM 17.34 63.212 0.419 7.83 66.91 7.4
5/27/2021 1:00:00 AM 17.31 63.158 0.411 7.81 43.6 7.52
5/27/2021 1:15:00 AM 17.29 63.122 0.403 7.8 39.33 7.52
5/27/2021 1:30:00 AM 17.27 63.086 0.398 7.8 44.25 7.69
5/27/2021 1:45:00 AM 17.24 63.032 0.393 7.79 65.88 7.56
5/27/2021 2:00:00 AM 17.21 62.978 0.386 7.79 44.83 7.66
5/27/2021 2:15:00 AM 17.19 62.942 0.377 7.78 41.09 7.31
5/27/2021 2:30:00 AM 17.18 62.924 0.37 7.77 51.66 7.32
5/27/2021 2:45:00 AM 17.17 62.906 0.366 7.73 53.82 7.24
5/27/2021 3:00:00 AM 17.16 62.888 0.365 7.72 49.26 7.28
5/27/2021 3:15:00 AM 17.12 62.816 0.367 7.71 35.89 7.19
5/27/2021 3:30:00 AM 17.07 62.726 0.371 7.72 32.22 7.28
5/27/2021 3:45:00 AM 17.01 62.618 0.373 7.74 36.46 7.3
5/27/2021 4:00:00 AM 16.94 62.492 0.376 7.74 31.82 7.41
5/27/2021 4:15:00 AM 16.86 62.348 0.378 7.75 22.57 7.5
5/27/2021 4:30:00 AM 16.78 62.204 0.38 7.75 32.43 7.51
5/27/2021 4:45:00 AM 16.7 62.06 0.381 7.75 38.31 7.59
5/27/2021 5:00:00 AM 16.61 61.898 0.382 7.77 25.54 7.68
5/27/2021 5:15:00 AM 16.53 61.754 0.383 7.78 22.12 7.73
5/27/2021 5:30:00 AM 16.44 61.592 0.383 7.77 24.55 7.76
5/27/2021 5:45:00 AM 16.36 61.448 0.383 7.78 27.01 7.78
5/27/2021 6:00:00 AM 16.28 61.304 0.383 7.79 24.24 7.93
5/27/2021 6:15:00 AM 16.21 61.178 0.381 7.8 16.49 7.98
5/27/2021 6:30:00 AM 16.14 61.052 0.38 7.79 18.61 8.02
5/27/2021 6:45:00 AM 16.08 60.944 0.38 7.8 16.44 7.71
5/27/2021 7:00:00 AM 16.02 60.836 0.38 7.8 16.17 8.06
5/27/2021 7:15:00 AM 15.97 60.746 0.379 7.8 16.23 8.11
5/27/2021 7:30:00 AM 15.92 60.656 0.378 7.82 12.28 8.22
5/27/2021 7:45:00 AM 15.89 60.602 0.378 7.81 10.05 8.26
5/27/2021 8:00:00 AM 15.87 60.566 0.378 7.83 11.66 8.41
5/27/2021 8:15:00 AM 15.86 60.548 0.379 7.84 10.89 8.32
5/27/2021 8:30:00 AM 15.86 60.548 0.38 7.85 9.82 8.58
5/27/2021 8:45:00 AM 15.86 60.548 0.382 7.86 8.88 8.68
5/27/2021 9:00:00 AM 15.88 60.584 0.385 7.88 8.93 8.78
5/27/2021 9:15:00 AM 15.92 60.656 0.387 7.89 8.13 8.85
5/27/2021 9:30:00 AM 15.96 60.728 0.389 7.92 9.75 8.97
5/27/2021 9:45:00 AM 16.03 60.854 0.393 7.94 7.35 9.03
5/27/2021 10:00:00 AM 16.1 60.98 0.395 7.95 13.18 9.23
5/27/2021 10:15:00 AM 16.07 60.926 0.398 7.96 7.58 9.22
5/27/2021 10:30:00 AM 16.26 61.268 0.402 7.99 7.11 9.45
5/27/2021 10:45:00 AM 16.43 61.574 0.404 8.01 7.3 9.42
5/27/2021 11:00:00 AM 16.57 61.826 0.408 8.04 7.29 9.67
5/27/2021 11:15:00 AM 16.74 62.132 0.411 8.06 11.64 9.83
5/27/2021 11:30:00 AM 16.76 62.168 0.414 8.09 5.72 9.71
5/27/2021 11:45:00 AM 17.1 62.78 0.417 8.1 6.43 9.93
5/27/2021 12:00:00 PM 17.2 62.96 0.418 8.13 5.49 9.9
5/27/2021 12:15:00 PM 17.48 63.464 0.421 8.15 5.49 10.17
5/27/2021 12:30:00 PM 17.74 63.932 0.424 8.18 6.05 10.18
5/27/2021 12:45:00 PM 18.09 64.562 0.425 8.22 5.15 10.12
5/27/2021 1:00:00 PM 18.34 65.012 0.428 8.23 10.33 10.15
5/27/2021 1:15:00 PM 18.68 65.624 0.429 8.26 5.73 10.31
5/27/2021 1:30:00 PM 18.92 66.056 0.43 8.27 8.49 10.3
5/27/2021 1:45:00 PM 19.26 66.668 0.432 8.3 4.75 10.21
5/27/2021 2:00:00 PM 19.58 67.244 0.434 8.31 4.4 10.33
5/27/2021 2:15:00 PM 19.85 67.73 0.435 8.32 4.72 10.3
5/27/2021 2:30:00 PM 20.13 68.234 0.437 8.34 4.09 10.25
5/27/2021 2:45:00 PM 20.44 68.792 0.438 8.35 4.35 10.22
5/27/2021 3:00:00 PM 20.71 69.278 0.439 8.36 4.69 10.12
5/27/2021 3:15:00 PM 20.9 69.62 0.441 8.37 5.08 9.98
5/27/2021 3:30:00 PM 21.07 69.926 0.442 8.38 4.47 9.96
5/27/2021 3:45:00 PM 21.19 70.142 0.444 8.38 8.77 9.84
5/27/2021 4:00:00 PM 21.27 70.286 0.445 8.38 5.01 9.76
5/27/2021 4:15:00 PM 21.34 70.412 0.445 8.37 7.67 9.67
5/27/2021 4:30:00 PM 21.38 70.484 0.446 8.37 7.47 9.58
5/27/2021 4:45:00 PM 21.41 70.538 0.447 8.37 5.28 9.46
5/27/2021 5:00:00 PM 21.43 70.574 0.448 8.36 5.13 9.3
5/27/2021 5:15:00 PM 21.42 70.556 0.45 8.35 7.24 9.14
5/27/2021 5:30:00 PM 21.4 70.52 0.451 8.33 5.21 8.97
5/27/2021 5:45:00 PM 21.36 70.448 0.451 8.33 4.88 8.87
5/27/2021 6:00:00 PM 21.32 70.376 0.452 8.31 4.85 8.7
5/27/2021 6:15:00 PM 21.31 70.358 0.453 8.31 7.62 8.58
5/27/2021 6:30:00 PM 21.27 70.286 0.454 8.28 6.81 8.49
5/27/2021 6:45:00 PM 21.2 70.16 0.455 8.27 6.84 8.32
5/27/2021 7:00:00 PM 21.17 70.106 0.456 8.25 4.76 8.3
5/27/2021 7:15:00 PM 21.1 69.98 0.457 8.25 5.66 8.17
5/27/2021 7:30:00 PM 21.04 69.872 0.458 8.22 4.51 8.08
5/27/2021 7:45:00 PM 20.94 69.692 0.459 8.21 5.11 7.98
5/27/2021 8:00:00 PM 20.84 69.512 0.459 8.19 5.55 7.88
5/27/2021 8:15:00 PM 20.74 69.332 0.46 8.17 4.76 7.84
5/27/2021 8:30:00 PM 20.63 69.134 0.461 8.16 7.51 7.8
5/27/2021 8:45:00 PM 20.52 68.936 0.462 8.15 6.94 7.76
5/27/2021 9:00:00 PM 20.4 68.72 0.463 8.14 6.53 7.73
5/27/2021 9:15:00 PM 20.27 68.486 0.463 8.13 8.17 7.72
5/27/2021 9:30:00 PM 20.13 68.234 0.464 8.13 10.48 7.71
5/27/2021 9:45:00 PM 19.98 67.964 0.465 8.11 9.78 7.72
5/27/2021 10:00:00 PM 19.83 67.694 0.465 8.1 13.69 7.71
5/27/2021 10:15:00 PM 19.66 67.388 0.466 8.1 15.44 7.76
5/27/2021 10:30:00 PM 19.49 67.082 0.467 8.1 8.75 7.79
5/27/2021 10:45:00 PM 19.31 66.758 0.468 8.09 6.88 7.78
5/27/2021 11:00:00 PM 19.12 66.416 0.469 8.08 11.18 7.86
5/27/2021 11:15:00 PM 18.92 66.056 0.47 8.08 22.15 7.92
5/27/2021 11:30:00 PM 18.74 65.732 0.47 8.09 8.86 7.93
5/27/2021 11:45:00 PM 18.54 65.372 0.471 8.08 10.02 7.99
5/28/2021 12:00:00 AM 18.36 65.048 0.472 8.08 9.97 8.04
5/28/2021 12:15:00 AM 18.18 64.724 0.473 8.08 7.8 8.09
5/28/2021 12:30:00 AM 18 64.4 0.474 8.07 9.13 8.12
5/28/2021 12:45:00 AM 17.82 64.076 0.474 8.07 10.02 8.17
5/28/2021 1:00:00 AM 17.63 63.734 0.475 8.06 14.63 8.21
5/28/2021 1:15:00 AM 17.44 63.392 0.476 8.05 20.04 8.25
5/28/2021 1:30:00 AM 17.26 63.068 0.477 8.04 11.44 8.28
5/28/2021 1:45:00 AM 17.07 62.726 0.477 8.03 10.4 8.3
5/28/2021 2:00:00 AM 16.89 62.402 0.478 8.04 15.07 8.37
5/28/2021 2:15:00 AM 16.72 62.096 0.478 8.03 80.21 8.33
5/28/2021 2:30:00 AM 16.55 61.79 0.478 8.03 11.92 8.47
5/28/2021 2:45:00 AM 16.38 61.484 0.479 8.04 21.62 8.46
5/28/2021 3:00:00 AM 16.22 61.196 0.479 8.03 11.86 8.41
5/28/2021 3:15:00 AM 16.07 60.926 0.48 8.03 9.52 8.39
5/28/2021 3:30:00 AM 15.92 60.656 0.48 8.03 11.84 8.55
5/28/2021 3:45:00 AM 15.78 60.404 0.481 8.04 14.28 8.56
5/28/2021 4:00:00 AM 15.65 60.17 0.481 8.04 9.56 8.64
5/28/2021 4:15:00 AM 15.52 59.936 0.481 8.05 15.71 8.64
5/28/2021 4:30:00 AM 15.4 59.72 0.481 8.04 12.55 8.71
5/28/2021 4:45:00 AM 15.29 59.522 0.482 8.05 9.1 8.75
5/28/2021 5:00:00 AM 15.18 59.324 0.482 8.06 10.7 8.7
5/28/2021 5:15:00 AM 15.07 59.126 0.482 8.06 11.57 8.82
5/28/2021 5:30:00 AM 14.96 58.928 0.482 8.07 12.01 8.95
5/28/2021 5:45:00 AM 14.87 58.766 0.483 8.06 8.72 8.96
5/28/2021 6:00:00 AM 14.78 58.604 0.483 8.06 11.39 9.03
5/28/2021 6:15:00 AM 14.7 58.46 0.483 8.07 9.48 9.07
5/28/2021 6:30:00 AM 14.63 58.334 0.483 8.07 9.11 8.98
5/28/2021 6:45:00 AM 14.57 58.226 0.483 8.07 7.18 9.2
5/28/2021 7:00:00 AM 14.51 58.118 0.483 8.08 7.63 9.25
5/28/2021 7:15:00 AM 14.46 58.028 0.483 8.09 8.57 9.34
5/28/2021 7:30:00 AM 14.41 57.938 0.483 8.09 6.66 9.41
5/28/2021 7:45:00 AM 14.37 57.866 0.483 8.11 4.69 9.46
5/28/2021 8:00:00 AM 14.37 57.866 0.483 8.12 4.65 9.58
5/28/2021 8:15:00 AM 14.39 57.902 0.482 8.14 8.91 9.77
5/28/2021 8:30:00 AM 14.41 57.938 0.482 8.15 4.46 9.91
5/28/2021 8:45:00 AM 14.38 57.884 0.482 8.17 4.14 9.95
5/28/2021 9:00:00 AM 14.37 57.866 0.482 8.17 4.62 9.97
5/28/2021 9:15:00 AM 14.37 57.866 0.482 8.18 5.4 10.07
5/28/2021 9:30:00 AM 14.4 57.92 0.481 8.18 8.77 10.17
5/28/2021 9:45:00 AM 14.44 57.992 0.481 8.21 4.7 10.29